Provisional Data: Kishacoquillas Creek near Belleville, PA


Please select a monitoring station.
Please select start date.
Please select start date.

Toggle Unit: C/F Toggle Unit: C/F
Sample Time Temperature (C) Temperature (F) Specific Conductivity (mS/cm) pH   Turbidity (NTU+) DO (mg/L)
12/23/2022 12:00:00 AM 4.84 40.712 0.405 7.35 80.6 11.3
12/23/2022 12:15:00 AM 4.77 40.586 0.397 7.35 73.12 11.31
12/23/2022 12:30:00 AM 4.7 40.46 0.389 7.34 86.52 11.33
12/23/2022 12:45:00 AM 4.6 40.28 0.382 7.34 109.6 11.34
12/23/2022 1:00:00 AM 4.47 40.046 0.374 7.33 129.5 11.37
12/23/2022 1:15:00 AM 4.28 39.704 0.364 7.32 161 11.39
12/23/2022 1:30:00 AM 4.03 39.254 0.35 7.31 159.4 11.52
12/23/2022 1:45:00 AM 3.8 38.84 0.339 7.31 183.8 11.61
12/23/2022 2:00:00 AM 3.6 38.48 0.329 7.29 211.9 11.68
12/23/2022 2:15:00 AM 3.46 38.228 0.318 7.29 228.3 11.71
12/23/2022 2:30:00 AM 3.37 38.066 0.308 7.29 232.6 11.75
12/23/2022 2:45:00 AM 3.32 37.976 0.301 7.27 218.3 11.73
12/23/2022 3:00:00 AM 3.33 37.994 0.298 7.26 196.8 11.74
12/23/2022 3:15:00 AM 3.39 38.102 0.298 7.25 184.1 11.69
12/23/2022 3:30:00 AM 3.46 38.228 0.299 7.24 177.7 11.64
12/23/2022 3:45:00 AM 3.53 38.354 0.299 7.23 166.7 11.61
12/23/2022 4:00:00 AM 3.59 38.462 0.298 7.22 156.8 11.55
12/23/2022 4:15:00 AM 3.63 38.534 0.296 7.23 164.3 11.53
12/23/2022 4:30:00 AM 3.63 38.534 0.293 7.21 158.6 11.52
12/23/2022 4:45:00 AM 3.62 38.516 0.29 7.21 164.5 11.5
12/23/2022 5:00:00 AM 3.6 38.48 0.288 7.21 160.5 11.49
12/23/2022 5:15:00 AM 3.59 38.462 0.287 7.21 166.5 11.49
12/23/2022 5:30:00 AM 3.6 38.48 0.286 7.19 157.3 11.46
12/23/2022 5:45:00 AM 3.64 38.552 0.287 7.17 142.7 11.45
12/23/2022 6:00:00 AM 3.71 38.678 0.288 7.17 138.8 11.42
12/23/2022 6:15:00 AM 3.79 38.822 0.291 7.16 133.9 11.37
12/23/2022 6:30:00 AM 3.89 39.002 0.293 7.15 124.2 11.32
12/23/2022 6:45:00 AM 3.99 39.182 0.296 7.14 109.3 11.27
12/23/2022 7:00:00 AM 4.1 39.38 0.3 7.15 107.5 11.22
12/23/2022 7:15:00 AM 4.19 39.542 0.304 7.15 95.58 11.19
12/23/2022 7:30:00 AM 4.29 39.722 0.307 7.15 98.87 11.13
12/23/2022 7:45:00 AM 4.41 39.938 0.312 7.15 99.62 11.08
12/23/2022 8:00:00 AM 4.52 40.136 0.316 7.14 90.83 11.02
12/23/2022 8:15:00 AM 4.62 40.316 0.32 7.15 88.12 10.98
12/23/2022 8:30:00 AM 4.7 40.46 0.325 7.15 82.87 10.93
12/23/2022 8:45:00 AM 4.75 40.55 0.328 7.15 81.97 10.91
12/23/2022 9:00:00 AM 4.8 40.64 0.332 7.16 76.13 10.88
12/23/2022 9:15:00 AM 4.83 40.694 0.337 7.16 69.98 10.87
12/23/2022 9:30:00 AM 4.84 40.712 0.341 7.17 84.2 10.85
12/23/2022 9:45:00 AM 4.83 40.694 0.344 7.17 71.3 10.85
12/23/2022 10:00:00 AM 4.82 40.676 0.346 7.18 71.65 10.85
12/23/2022 10:15:00 AM 4.81 40.658 0.348 7.18 75.91 10.87
12/23/2022 10:30:00 AM 4.79 40.622 0.35 7.19 69.93 10.88
12/23/2022 10:45:00 AM 4.72 40.496 0.35 7.19 71.56 10.95
12/23/2022 11:00:00 AM 4.65 40.37 0.35 7.2 70.97 10.95
12/23/2022 11:15:00 AM 4.61 40.298 0.349 7.21 74.73 10.99
12/23/2022 11:30:00 AM 4.55 40.19 0.348 7.21 87.72 11.04
12/23/2022 11:45:00 AM 4.44 39.992 0.345 7.21 90.43 11.09
12/23/2022 12:00:00 PM 4.35 39.83 0.343 7.2 95.39 11.14
12/23/2022 12:15:00 PM 4.32 39.776 0.343 7.21 92.14 11.18
12/23/2022 12:30:00 PM 4.28 39.704 0.344 7.21 87.91 11.21
12/23/2022 12:45:00 PM 4.24 39.632 0.345 7.2 96.22 11.25
12/23/2022 1:00:00 PM 4.21 39.578 0.346 7.2 89.3 11.29
12/23/2022 1:15:00 PM 4.16 39.488 0.347 7.2 84.44 11.32
12/23/2022 1:30:00 PM 4.1 39.38 0.348 7.21 86.92 11.34
12/23/2022 1:45:00 PM 4.08 39.344 0.349 7.2 80.27 11.36
12/23/2022 2:00:00 PM 4 39.2 0.349 7.21 80.98 11.4
12/23/2022 2:15:00 PM 3.95 39.11 0.35 7.2 70.57 11.44
12/23/2022 2:30:00 PM 3.88 38.984 0.349 7.2 73.66 11.49
12/23/2022 2:45:00 PM 3.78 38.804 0.35 7.19 74.38 11.51
12/23/2022 3:00:00 PM 3.68 38.624 0.351 7.2 66.26 11.58
12/23/2022 3:15:00 PM 3.61 38.498 0.353 7.2 69.78 11.62
12/23/2022 3:30:00 PM 3.55 38.39 0.356 7.2 66.53 11.65
12/23/2022 3:45:00 PM 3.5 38.3 0.358 7.21 61.62 11.65
12/23/2022 4:00:00 PM 3.45 38.21 0.361 7.21 60.34 11.69
12/23/2022 4:15:00 PM 3.41 38.138 0.364 7.22 61.38 11.68
12/23/2022 4:30:00 PM 3.37 38.066 0.367 7.22 58.75 11.71
12/23/2022 4:45:00 PM 3.34 38.012 0.37 7.22 58.07 11.71
12/23/2022 5:00:00 PM 3.32 37.976 0.373 7.22 61.69 11.72
12/23/2022 5:15:00 PM 3.28 37.904 0.375 7.23 59.67 11.72
12/23/2022 5:30:00 PM 3.24 37.832 0.377 7.23 58.26 11.7
12/23/2022 5:45:00 PM 3.18 37.724 0.379 7.23 54.93 11.74
12/23/2022 6:00:00 PM 3.11 37.598 0.381 7.23 57.51 11.74
12/23/2022 6:15:00 PM 3.04 37.472 0.383 7.23 54.79 11.75
12/23/2022 6:30:00 PM 2.96 37.328 0.385 7.23 60.52 11.77
12/23/2022 6:45:00 PM 2.89 37.202 0.387 7.23 52.94 11.79
12/23/2022 7:00:00 PM 2.82 37.076 0.389 7.24 55.38 11.79
12/23/2022 7:15:00 PM 2.73 36.914 0.391 7.23 49.41 11.82
12/23/2022 7:30:00 PM 2.67 36.806 0.393 7.24 56.56 11.84
12/23/2022 7:45:00 PM 2.6 36.68 0.394 7.25 50.38 11.84
12/23/2022 8:00:00 PM 2.52 36.536 0.396 7.24 47.24 11.87
12/23/2022 8:15:00 PM 2.46 36.428 0.398 7.25 47.13 11.9
12/23/2022 8:30:00 PM 2.4 36.32 0.399 7.26 47.37 11.92
12/23/2022 8:45:00 PM 2.33 36.194 0.401 7.25 45.43 11.94
12/23/2022 9:00:00 PM 2.28 36.104 0.403 7.25 46.77 11.96
12/23/2022 9:15:00 PM 2.22 35.996 0.404 7.26 48.15 11.98
12/23/2022 9:30:00 PM 2.18 35.924 0.406 7.26 39.95 12
12/23/2022 9:45:00 PM 2.13 35.834 0.408 7.26 42.99 12.02
12/23/2022 10:00:00 PM 2.11 35.798 0.41 7.26 39.46 12.01
12/23/2022 10:15:00 PM 2.09 35.762 0.412 7.26 38.57 12.02
12/23/2022 10:30:00 PM 2.06 35.708 0.414 7.26 35.83 12.05
12/23/2022 10:45:00 PM 2.03 35.654 0.416 7.25 39.21 12.05
12/23/2022 11:00:00 PM 2.01 35.618 0.417 7.27 36.79 12.06
12/23/2022 11:15:00 PM 1.97 35.546 0.419 7.27 34.45 12.07
12/23/2022 11:30:00 PM 1.96 35.528 0.42 7.27 34.72 12.08
12/23/2022 11:45:00 PM 1.95 35.51 0.421 7.26 34.62 12.09
12/24/2022 12:00:00 AM 1.93 35.474 0.422 7.27 37.36 12.09
12/24/2022 12:15:00 AM 1.93 35.474 0.423 7.28 34.55 12.08
12/24/2022 12:30:00 AM 1.92 35.456 0.424 7.27 34.4 12.1
12/24/2022 12:45:00 AM 1.93 35.474 0.425 7.28 34.75 12.1
12/24/2022 1:00:00 AM 1.9 35.42 0.426 7.28 31.52 12.1
12/24/2022 1:15:00 AM 1.87 35.366 0.426 7.28 32.08 12.12
12/24/2022 1:30:00 AM 1.86 35.348 0.427 7.28 35.14 12.11
12/24/2022 1:45:00 AM 1.87 35.366 0.427 7.29 30.72 12.12
12/24/2022 2:00:00 AM 1.87 35.366 0.428 7.27 27.78 12.14
12/24/2022 2:15:00 AM 1.86 35.348 0.428 7.28 30.64 12.14
12/24/2022 2:30:00 AM 1.85 35.33 0.429 7.28 28.84 12.15
12/24/2022 2:45:00 AM 1.84 35.312 0.43 7.29 30.92 12.17
12/24/2022 3:00:00 AM 1.83 35.294 0.43 7.29 30.07 12.18
12/24/2022 3:15:00 AM 1.82 35.276 0.431 7.28 28.59 12.18
12/24/2022 3:30:00 AM 1.82 35.276 0.432 7.29 27.92 12.18
12/24/2022 3:45:00 AM 1.81 35.258 0.432 7.28 27.09 12.18
12/24/2022 4:00:00 AM 1.83 35.294 0.433 7.28 27.67 12.18
12/24/2022 4:15:00 AM 1.85 35.33 0.434 7.29 25.59 12.18
12/24/2022 4:30:00 AM 1.87 35.366 0.434 7.29 26.71 12.17
12/24/2022 4:45:00 AM 1.88 35.384 0.435 7.29 31.07 12.18
12/24/2022 5:00:00 AM 1.89 35.402 0.435 7.29 25.77 12.16
12/24/2022 5:15:00 AM 1.9 35.42 0.436 7.3 25.75 12.18
12/24/2022 5:30:00 AM 1.92 35.456 0.436 7.29 28.35 12.17
12/24/2022 5:45:00 AM 1.93 35.474 0.437 7.29 28.46 12.18
12/24/2022 6:00:00 AM 1.93 35.474 0.437 7.29 26.29 12.19
12/24/2022 6:15:00 AM 1.95 35.51 0.437 7.29 24.51 12.18
12/24/2022 6:30:00 AM 1.96 35.528 0.437 7.3 27.48 12.19
12/24/2022 6:45:00 AM 1.97 35.546 0.437 7.32 25.52 12.19
12/24/2022 7:00:00 AM 1.98 35.564 0.437 7.3 29.96 12.18
12/24/2022 7:15:00 AM 1.99 35.582 0.437 7.3 27.85 12.19
12/24/2022 7:30:00 AM 2.01 35.618 0.437 7.29 25.51 12.16
12/24/2022 7:45:00 AM 2.03 35.654 0.437 7.3 30.34 12.18
12/24/2022 8:00:00 AM 2.05 35.69 0.436 7.3 26.92 12.16
12/24/2022 8:15:00 AM 2.07 35.726 0.436 7.3 23.73 12.18
12/24/2022 8:30:00 AM 2.1 35.78 0.436 7.3 26.09 12.19
12/24/2022 8:45:00 AM 2.12 35.816 0.436 7.3 23.23 12.23
12/24/2022 9:00:00 AM 2.17 35.906 0.436 7.3 21.99 12.27
12/24/2022 9:15:00 AM 2.22 35.996 0.436 7.32 22.67 12.29
12/24/2022 9:30:00 AM 2.27 36.086 0.436 7.33 24.36 12.34
12/24/2022 9:45:00 AM 2.32 36.176 0.435 7.34 20.63 12.39
12/24/2022 10:00:00 AM 2.4 36.32 0.435 7.34 20.18 12.45
12/24/2022 10:15:00 AM 2.45 36.41 0.435 7.34 21.15 12.47
12/24/2022 10:30:00 AM 2.5 36.5 0.435 7.34 19.89 12.5
12/24/2022 10:45:00 AM 2.58 36.644 0.435 7.34 21.31 12.56
12/24/2022 11:00:00 AM 2.64 36.752 0.435 7.34 20.81 12.62
12/24/2022 11:15:00 AM 2.67 36.806 0.435 7.34 19.4 12.62
12/24/2022 11:30:00 AM 2.73 36.914 0.434 7.35 18.43 12.69
12/24/2022 11:45:00 AM 2.82 37.076 0.434 7.34 19.05 12.73
12/24/2022 12:00:00 PM 2.92 37.256 0.434 7.35 24.69 12.79
12/24/2022 12:15:00 PM 3 37.4 0.434 7.35 18.97 12.81
12/24/2022 12:30:00 PM 3.04 37.472 0.434 7.35 17.63 12.79
12/24/2022 12:45:00 PM 3.08 37.544 0.434 7.35 18.05 12.81
12/24/2022 1:00:00 PM 3.13 37.634 0.433 7.35 17.69 12.82
12/24/2022 1:15:00 PM 3.17 37.706 0.433 7.36 16.22 12.85
12/24/2022 1:30:00 PM 3.2 37.76 0.433 7.35 18.57 12.83
12/24/2022 1:45:00 PM 3.23 37.814 0.433 7.35 17.88 12.85
12/24/2022 2:00:00 PM 3.27 37.886 0.433 7.36 17.07 12.84
12/24/2022 2:15:00 PM 3.32 37.976 0.432 7.36 18.2 12.85
12/24/2022 2:30:00 PM 3.36 38.048 0.432 7.36 17.29 12.84
12/24/2022 2:45:00 PM 3.4 38.12 0.432 7.36 19.45 12.82
12/24/2022 3:00:00 PM 3.42 38.156 0.431 7.37 16.25 12.77
12/24/2022 3:15:00 PM 3.43 38.174 0.431 7.36 16.66 12.76
12/24/2022 3:30:00 PM 3.45 38.21 0.43 7.36 16.1 12.72
12/24/2022 3:45:00 PM 3.46 38.228 0.43 7.35 16.83 12.68
12/24/2022 4:00:00 PM 3.47 38.246 0.43 7.34 19.28 12.6
12/24/2022 4:15:00 PM 3.48 38.264 0.429 7.34 16.25 12.56
12/24/2022 4:30:00 PM 3.49 38.282 0.429 7.34 16.39 12.48
12/24/2022 4:45:00 PM 3.49 38.282 0.429 7.34 14.51 12.44
12/24/2022 5:00:00 PM 3.47 38.246 0.429 7.34 16.63 12.38
12/24/2022 5:15:00 PM 3.46 38.228 0.428 7.34 17.52 12.32
12/24/2022 5:30:00 PM 3.46 38.228 0.428 7.34 16.29 12.29
12/24/2022 5:45:00 PM 3.44 38.192 0.428 7.35 18.37 12.25
12/24/2022 6:00:00 PM 3.42 38.156 0.428 7.35 20.97 12.21
12/24/2022 6:15:00 PM 3.41 38.138 0.428 7.35 17.99 12.18
12/24/2022 6:30:00 PM 3.4 38.12 0.429 7.34 18.56 12.14
12/24/2022 6:45:00 PM 3.39 38.102 0.429 7.33 20.47 12.11
12/24/2022 7:00:00 PM 3.37 38.066 0.429 7.33 17.45 12.07
12/24/2022 7:15:00 PM 3.36 38.048 0.43 7.32 18.49 12.03
12/24/2022 7:30:00 PM 3.35 38.03 0.431 7.32 18.67 12
12/24/2022 7:45:00 PM 3.34 38.012 0.432 7.31 19.86 11.98
12/24/2022 8:00:00 PM 3.34 38.012 0.432 7.32 19.65 11.96
12/24/2022 8:15:00 PM 3.33 37.994 0.433 7.31 22.51 11.94
12/24/2022 8:30:00 PM 3.33 37.994 0.433 7.31 20.16 11.91
12/24/2022 8:45:00 PM 3.33 37.994 0.434 7.31 19.86 11.91
12/24/2022 9:00:00 PM 3.32 37.976 0.434 7.3 21.3 11.9
12/24/2022 9:15:00 PM 3.32 37.976 0.435 7.3 20.93 11.88
12/24/2022 9:30:00 PM 3.31 37.958 0.435 7.31 21.4 11.85
12/24/2022 9:45:00 PM 3.31 37.958 0.436 7.31 18.7 11.85
12/24/2022 10:00:00 PM 3.31 37.958 0.437 7.31 26.4 11.84
12/24/2022 10:15:00 PM 3.31 37.958 0.437 7.32 19.03 11.85
12/24/2022 10:30:00 PM 3.3 37.94 0.438 7.31 20.06 11.82
12/24/2022 10:45:00 PM 3.31 37.958 0.438 7.31 20.76 11.82
12/24/2022 11:00:00 PM 3.32 37.976 0.439 7.31 21.67 11.81
12/24/2022 11:15:00 PM 3.32 37.976 0.439 7.31 17.22 11.8
12/24/2022 11:30:00 PM 3.34 38.012 0.441 7.31 17.93 11.8
12/24/2022 11:45:00 PM 3.34 38.012 0.443 7.32 18.03 11.8
12/25/2022 12:00:00 AM 3.35 38.03 0.444 7.34 17.44 11.8
12/25/2022 12:15:00 AM 3.35 38.03 0.444 7.34 18.06 11.79
12/25/2022 12:30:00 AM 3.37 38.066 0.442 7.34 18 11.78
12/25/2022 12:45:00 AM 3.38 38.084 0.442 7.34 18.07 11.79
12/25/2022 1:00:00 AM 3.39 38.102 0.442 7.34 18.23 11.78
12/25/2022 1:15:00 AM 3.39 38.102 0.442 7.33 16.96 11.78
12/25/2022 1:30:00 AM 3.41 38.138 0.442 7.33 18.1 11.75
12/25/2022 1:45:00 AM 3.42 38.156 0.442 7.33 18.65 11.77
12/25/2022 2:00:00 AM 3.43 38.174 0.443 7.34 17.61 11.77
12/25/2022 2:15:00 AM 3.43 38.174 0.443 7.34 20.77 11.78
12/25/2022 2:30:00 AM 3.44 38.192 0.443 7.34 15.87 11.76
12/25/2022 2:45:00 AM 3.45 38.21 0.443 7.33 19.06 11.75
12/25/2022 3:00:00 AM 3.46 38.228 0.443 7.33 19.31 11.76
12/25/2022 3:15:00 AM 3.47 38.246 0.444 7.33 15.68 11.77
12/25/2022 3:30:00 AM 3.48 38.264 0.444 7.33 16.28 11.75
12/25/2022 3:45:00 AM 3.48 38.264 0.443 7.32 16.63 11.75
12/25/2022 4:00:00 AM 3.49 38.282 0.444 7.32 15.74 11.75
12/25/2022 4:15:00 AM 3.48 38.264 0.444 7.33 17.14 11.76
12/25/2022 4:30:00 AM 3.47 38.246 0.444 7.33 15.85 11.74
12/25/2022 4:45:00 AM 3.48 38.264 0.444 7.33 15.24 11.75
12/25/2022 5:00:00 AM 3.48 38.264 0.444 7.33 17.18 11.75
12/25/2022 5:15:00 AM 3.49 38.282 0.445 7.32 16.47 11.74
12/25/2022 5:30:00 AM 3.5 38.3 0.445 7.33 15.15 11.75
12/25/2022 5:45:00 AM 3.51 38.318 0.445 7.34 16.52 11.74
12/25/2022 6:00:00 AM 3.52 38.336 0.445 7.33 15.99 11.74
12/25/2022 6:15:00 AM 3.53 38.354 0.445 7.33 15.55 11.73
12/25/2022 6:30:00 AM 3.53 38.354 0.445 7.34 16.77 11.74
12/25/2022 6:45:00 AM 3.53 38.354 0.445 7.33 15.44 11.74
12/25/2022 7:00:00 AM 3.54 38.372 0.446 7.33 17.22 11.75
12/25/2022 7:15:00 AM 3.55 38.39 0.446 7.33 15.37 11.74
12/25/2022 7:30:00 AM 3.56 38.408 0.446 7.33 14.29 11.75
12/25/2022 7:45:00 AM 3.57 38.426 0.446 7.34 15.88 11.74
12/25/2022 8:00:00 AM 3.59 38.462 0.446 7.33 14.61 11.76
12/25/2022 8:15:00 AM 3.61 38.498 0.446 7.33 14.76 11.8
12/25/2022 8:30:00 AM 3.63 38.534 0.446 7.34 13.42 11.86
12/25/2022 8:45:00 AM 3.65 38.57 0.447 7.35 13.69 11.93
12/25/2022 9:00:00 AM 3.67 38.606 0.447 7.35 12.04 11.99
12/25/2022 9:15:00 AM 3.7 38.66 0.447 7.35 12.39 12.05
12/25/2022 9:30:00 AM 3.73 38.714 0.447 7.36 13.76 12.13
12/25/2022 9:45:00 AM 3.77 38.786 0.447 7.37 12.29 12.19
12/25/2022 10:00:00 AM 3.85 38.93 0.447 7.38 11.94 12.26
12/25/2022 10:15:00 AM 3.95 39.11 0.447 7.39 12.44 12.36
12/25/2022 10:30:00 AM 4.02 39.236 0.447 7.39 11.76 12.45
12/25/2022 10:45:00 AM 4.06 39.308 0.448 7.39 12.37 12.49
12/25/2022 11:00:00 AM 4.09 39.362 0.448 7.4 10.78 12.53
12/25/2022 11:15:00 AM 4.13 39.434 0.448 7.4 10.44 12.54
12/25/2022 11:30:00 AM 4.16 39.488 0.448 7.4 11.37 12.6
12/25/2022 11:45:00 AM 4.2 39.56 0.448 7.41 12.8 12.63
12/25/2022 12:00:00 PM 4.24 39.632 0.448 7.4 10.43 12.67
12/25/2022 12:15:00 PM 4.26 39.668 0.448 7.41 11.82 12.67
12/25/2022 12:30:00 PM 4.3 39.74 0.449 7.4 11.28 12.73
12/25/2022 12:45:00 PM 4.34 39.812 0.449 7.41 10.66 12.75
12/25/2022 1:00:00 PM 4.37 39.866 0.449 7.41 10.5 12.79
12/25/2022 1:15:00 PM 4.42 39.956 0.449 7.41 11.91 12.83
12/25/2022 1:30:00 PM 4.47 40.046 0.449 7.41 10.34 12.87
12/25/2022 1:45:00 PM 4.5 40.1 0.449 7.41 9.91 12.86
12/25/2022 2:00:00 PM 4.54 40.172 0.449 7.42 10.53 12.88
12/25/2022 2:15:00 PM 4.6 40.28 0.449 7.42 9.79 12.94
12/25/2022 2:30:00 PM 4.63 40.334 0.449 7.42 10.12 12.93
12/25/2022 2:45:00 PM 4.64 40.352 0.449 7.42 10.96 12.89
12/25/2022 3:00:00 PM 4.64 40.352 0.449 7.42 10.1 12.86
12/25/2022 3:15:00 PM 4.65 40.37 0.449 7.42 10.2 12.81
12/25/2022 3:30:00 PM 4.66 40.388 0.45 7.42 9.34 12.74
12/25/2022 3:45:00 PM 4.66 40.388 0.45 7.42 8.16 12.68
12/25/2022 4:00:00 PM 4.66 40.388 0.45 7.41 8.7 12.62
12/25/2022 4:15:00 PM 4.67 40.406 0.45 7.41 11.21 12.54
12/25/2022 4:30:00 PM 4.68 40.424 0.45 7.41 10.04 12.45
12/25/2022 4:45:00 PM 4.69 40.442 0.45 7.41 10.24 12.36
12/25/2022 5:00:00 PM 4.7 40.46 0.45 7.4 11.95 12.28
12/25/2022 5:15:00 PM 4.72 40.496 0.45 7.4 10.56 12.18
12/25/2022 5:30:00 PM 4.73 40.514 0.45 7.39 11.34 12.11
12/25/2022 5:45:00 PM 4.74 40.532 0.45 7.38 13.54 12.07
12/25/2022 6:00:00 PM 4.74 40.532 0.45 7.39 11.65 12.02
12/25/2022 6:15:00 PM 4.74 40.532 0.451 7.38 11.77 11.96
12/25/2022 6:30:00 PM 4.74 40.532 0.45 7.38 13.2 11.88
12/25/2022 6:45:00 PM 4.75 40.55 0.451 7.38 13.23 11.86
12/25/2022 7:00:00 PM 4.75 40.55 0.451 7.37 14.46 11.81
12/25/2022 7:15:00 PM 4.75 40.55 0.451 7.37 14.77 11.77
12/25/2022 7:30:00 PM 4.75 40.55 0.451 7.37 12.88 11.72
12/25/2022 7:45:00 PM 4.74 40.532 0.451 7.38 13.6 11.69
12/25/2022 8:00:00 PM 4.72 40.496 0.452 7.36 15.45 11.66
12/25/2022 8:15:00 PM 4.7 40.46 0.452 7.36 14.6 11.63
12/25/2022 8:30:00 PM 4.69 40.442 0.453 7.36 16.75 11.62
12/25/2022 8:45:00 PM 4.68 40.424 0.453 7.36 16.6 11.59
12/25/2022 9:00:00 PM 4.67 40.406 0.453 7.36 14.79 11.57
12/25/2022 9:15:00 PM 4.66 40.388 0.453 7.36 14 11.54
12/25/2022 9:30:00 PM 4.65 40.37 0.454 7.35 13.9 11.55
12/25/2022 9:45:00 PM 4.63 40.334 0.454 7.35 15.29 11.53
12/25/2022 10:00:00 PM 4.62 40.316 0.454 7.36 14.67 11.54
12/25/2022 10:15:00 PM 4.59 40.262 0.455 7.35 15.66 11.53
12/25/2022 10:30:00 PM 4.57 40.226 0.456 7.36 15.18 11.52
12/25/2022 10:45:00 PM 4.54 40.172 0.456 7.36 14.73 11.53
12/25/2022 11:00:00 PM 4.52 40.136 0.456 7.36 13.5 11.52
12/25/2022 11:15:00 PM 4.5 40.1 0.457 7.35 14.85 11.5
12/25/2022 11:30:00 PM 4.48 40.064 0.457 7.35 14.71 11.52
12/25/2022 11:45:00 PM 4.46 40.028 0.457 7.36 12.41 11.52
12/26/2022 12:00:00 AM 4.45 40.01 0.458 7.35 14.35 11.52
12/26/2022 12:15:00 AM 4.43 39.974 0.458 7.36 15.62 11.5
12/26/2022 12:30:00 AM 4.41 39.938 0.458 7.35 14.51 11.52
12/26/2022 12:45:00 AM 4.39 39.902 0.458 7.35 15.1 11.53
12/26/2022 1:00:00 AM 4.37 39.866 0.459 7.35 13.95 11.54
12/26/2022 1:15:00 AM 4.36 39.848 0.459 7.35 13.41 11.54
12/26/2022 1:30:00 AM 4.37 39.866 0.459 7.36 13.09 11.56
12/26/2022 1:45:00 AM 4.37 39.866 0.46 7.37 13.9 11.54
12/26/2022 2:00:00 AM 4.36 39.848 0.46 7.36 17.27 11.56
12/26/2022 2:15:00 AM 4.34 39.812 0.46 7.36 13.93 11.58
12/26/2022 2:30:00 AM 4.33 39.794 0.46 7.36 15.37 11.58
12/26/2022 2:45:00 AM 4.32 39.776 0.461 7.35 13.93 11.59
12/26/2022 3:00:00 AM 4.32 39.776 0.461 7.35 12.95 11.57
12/26/2022 3:15:00 AM 4.31 39.758 0.461 7.36 13.06 11.58
12/26/2022 3:30:00 AM 4.3 39.74 0.461 7.36 12.58 11.6
12/26/2022 3:45:00 AM 4.3 39.74 0.462 7.36 12.41 11.6
12/26/2022 4:00:00 AM 4.29 39.722 0.462 7.37 13.04 11.61
12/26/2022 4:15:00 AM 4.28 39.704 0.462 7.36 12.05 11.61
12/26/2022 4:30:00 AM 4.27 39.686 0.462 7.36 11.93 11.61
12/26/2022 4:45:00 AM 4.25 39.65 0.462 7.37 14.66 11.62
12/26/2022 5:00:00 AM 4.24 39.632 0.462 7.36 13.93 11.58
12/26/2022 5:15:00 AM 4.23 39.614 0.463 7.37 12.61 11.61
12/26/2022 5:30:00 AM 4.21 39.578 0.463 7.37 15.07 11.63
12/26/2022 5:45:00 AM 4.2 39.56 0.463 7.36 16.13 11.62
12/26/2022 6:00:00 AM 4.16 39.488 0.463 7.38 13.07 11.63
12/26/2022 6:15:00 AM 4.14 39.452 0.464 7.38 12.66 11.65
12/26/2022 6:30:00 AM 4.13 39.434 0.464 7.37 12.71 11.67
12/26/2022 6:45:00 AM 4.13 39.434 0.464 7.38 12.5 11.68
12/26/2022 7:00:00 AM 4.12 39.416 0.464 7.38 12.99 11.68
12/26/2022 7:15:00 AM 4.13 39.434 0.464 7.37 13.22 11.68
12/26/2022 7:30:00 AM 4.13 39.434 0.465 7.37 12.9 11.68
12/26/2022 7:45:00 AM 4.14 39.452 0.464 7.37 11.93 11.7
12/26/2022 8:00:00 AM 4.15 39.47 0.465 7.37 10.01 11.72
12/26/2022 8:15:00 AM 4.17 39.506 0.465 7.37 10.98 11.75
12/26/2022 8:30:00 AM 4.19 39.542 0.465 7.38 11.06 11.8
12/26/2022 8:45:00 AM 4.21 39.578 0.465 7.38 12.73 11.84
12/26/2022 9:00:00 AM 4.23 39.614 0.465 7.38 10.24 11.9
12/26/2022 9:15:00 AM 4.26 39.668 0.466 7.39 11.55 11.98
12/26/2022 9:30:00 AM 4.29 39.722 0.466 7.39 9.39 12.04
12/26/2022 9:45:00 AM 4.35 39.83 0.466 7.4 11.22 12.15
12/26/2022 10:00:00 AM 4.4 39.92 0.466 7.4 8.52 12.29
12/26/2022 10:15:00 AM 4.44 39.992 0.466 7.41 9.72 12.35
12/26/2022 10:30:00 AM 4.47 40.046 0.466 7.41 8.51 12.44
12/26/2022 10:45:00 AM 4.53 40.154 0.466 7.42 7.66 12.5
12/26/2022 11:00:00 AM 4.59 40.262 0.466 7.44 7.54 12.58
12/26/2022 11:15:00 AM 4.65 40.37 0.466 7.43 8.46 12.68
12/26/2022 11:30:00 AM 4.7 40.46 0.467 7.43 6.64 12.74
12/26/2022 11:45:00 AM 4.77 40.586 0.467 7.45 7.23 12.79
12/26/2022 12:00:00 PM 4.85 40.73 0.467 7.45 6.85 12.87
12/26/2022 12:15:00 PM 4.93 40.874 0.467 7.45 7.64 12.93
12/26/2022 12:30:00 PM 5.01 41.018 0.467 7.46 8.7 12.98
12/26/2022 12:45:00 PM 5.08 41.144 0.467 7.46 7.01 13.03
12/26/2022 1:00:00 PM 5.15 41.27 0.467 7.47 6.77 13.06
12/26/2022 1:15:00 PM 5.24 41.432 0.467 7.47 9.45 13.09
12/26/2022 1:30:00 PM 5.32 41.576 0.467 7.47 8.95 13.12
12/26/2022 1:45:00 PM 5.4 41.72 0.467 7.48 8.09 13.14
12/26/2022 2:00:00 PM 5.45 41.81 0.467 7.48 9.93 13.11
12/26/2022 2:15:00 PM 5.5 41.9 0.467 7.48 8.51 13.11
12/26/2022 2:30:00 PM 5.53 41.954 0.467 7.47 6.59 13.07
12/26/2022 2:45:00 PM 5.57 42.026 0.467 7.48 6.07 12.98
12/26/2022 3:00:00 PM 5.61 42.098 0.467 7.47 9.09 12.91
12/26/2022 3:15:00 PM 5.64 42.152 0.467 7.47 5.88 12.84
12/26/2022 3:30:00 PM 5.67 42.206 0.467 7.46 7.35 12.75
12/26/2022 3:45:00 PM 5.7 42.26 0.467 7.47 6.5 12.63
12/26/2022 4:00:00 PM 5.73 42.314 0.467 7.47 6.19 12.57
12/26/2022 4:15:00 PM 5.76 42.368 0.467 7.46 5.07 12.45
12/26/2022 4:30:00 PM 5.78 42.404 0.467 7.44 6.43 12.35
12/26/2022 4:45:00 PM 5.8 42.44 0.467 7.44 6.88 12.23
12/26/2022 5:00:00 PM 5.81 42.458 0.467 7.43 6.81 12.14
12/26/2022 5:15:00 PM 5.83 42.494 0.467 7.42 6.31 12.04
12/26/2022 5:30:00 PM 5.84 42.512 0.467 7.41 6.55 11.96
12/26/2022 5:45:00 PM 5.86 42.548 0.467 7.41 6.06 11.87
12/26/2022 6:00:00 PM 5.87 42.566 0.467 7.41 6.2 11.8
12/26/2022 6:15:00 PM 5.88 42.584 0.467 7.41 7.68 11.73
12/26/2022 6:30:00 PM 5.88 42.584 0.467 7.41 7.72 11.66
12/26/2022 6:45:00 PM 5.89 42.602 0.468 7.4 8.33 11.62
12/26/2022 7:00:00 PM 5.89 42.602 0.468 7.41 7.09 11.56
12/26/2022 7:15:00 PM 5.89 42.602 0.469 7.4 9.62 11.48
12/26/2022 7:30:00 PM 5.87 42.566 0.469 7.39 9.13 11.45
12/26/2022 7:45:00 PM 5.86 42.548 0.469 7.39 10.42 11.42
12/26/2022 8:00:00 PM 5.87 42.566 0.469 7.39 9.36 11.38
12/26/2022 8:15:00 PM 5.86 42.548 0.468 7.39 11.42 11.36
12/26/2022 8:30:00 PM 5.86 42.548 0.468 7.39 11.44 11.32
12/26/2022 8:45:00 PM 5.85 42.53 0.469 7.39 11.76 11.29
12/26/2022 9:00:00 PM 5.84 42.512 0.469 7.4 9.99 11.29
12/26/2022 9:15:00 PM 5.83 42.494 0.469 7.39 10.64 11.27
12/26/2022 9:30:00 PM 5.83 42.494 0.469 7.39 11.07 11.25
12/26/2022 9:45:00 PM 5.82 42.476 0.469 7.38 11.65 11.23
12/26/2022 10:00:00 PM 5.8 42.44 0.469 7.39 9.92 11.22
12/26/2022 10:15:00 PM 5.79 42.422 0.469 7.39 11.42 11.19
12/26/2022 10:30:00 PM 5.79 42.422 0.469 7.38 11.77 11.19
12/26/2022 10:45:00 PM 5.78 42.404 0.469 7.37 9.95 11.16
12/26/2022 11:00:00 PM 5.78 42.404 0.469 7.37 12.26 11.18
12/26/2022 11:15:00 PM 5.77 42.386 0.47 7.37 11.2 11.17
12/26/2022 11:30:00 PM 5.76 42.368 0.47 7.37 11.36 11.16
12/26/2022 11:45:00 PM 5.75 42.35 0.47 7.37 11.16 11.17
12/27/2022 12:00:00 AM 5.75 42.35 0.47 7.38 10.46 11.15
12/27/2022 12:15:00 AM 5.74 42.332 0.47 7.38 9.76 11.17
12/27/2022 12:30:00 AM 5.73 42.314 0.47 7.37 9.85 11.16
12/27/2022 12:45:00 AM 5.73 42.314 0.471 7.37 9.29 11.16
12/27/2022 1:00:00 AM 5.73 42.314 0.471 7.38 10.83 11.16
12/27/2022 1:15:00 AM 5.72 42.296 0.471 7.38 8.9 11.15
12/27/2022 1:30:00 AM 5.71 42.278 0.471 7.38 9.72 11.17
12/27/2022 1:45:00 AM 5.7 42.26 0.471 7.38 11.15 11.16
12/27/2022 2:00:00 AM 5.69 42.242 0.471 7.37 10.74 11.18
12/27/2022 2:15:00 AM 5.68 42.224 0.471 7.37 10.19 11.17
12/27/2022 2:30:00 AM 5.67 42.206 0.471 7.37 10.11 11.19
12/27/2022 2:45:00 AM 5.66 42.188 0.471 7.37 12.35 11.18
12/27/2022 3:00:00 AM 5.65 42.17 0.471 7.37 11.75 11.19
12/27/2022 3:15:00 AM 5.64 42.152 0.472 7.39 13.11 11.19
12/27/2022 3:30:00 AM 5.62 42.116 0.472 7.37 11.33 11.2
12/27/2022 3:45:00 AM 5.61 42.098 0.472 7.37 10.89 11.2
12/27/2022 4:00:00 AM 5.61 42.098 0.472 7.38 13.62 11.2
12/27/2022 4:15:00 AM 5.61 42.098 0.472 7.39 11.99 11.2
12/27/2022 4:30:00 AM 5.6 42.08 0.472 7.38 12.12 11.21
12/27/2022 4:45:00 AM 5.6 42.08 0.472 7.38 10.54 11.21
12/27/2022 5:00:00 AM 5.6 42.08 0.472 7.38 10.65 11.19
12/27/2022 5:15:00 AM 5.59 42.062 0.472 7.38 10.11 11.2
12/27/2022 5:30:00 AM 5.59 42.062 0.472 7.39 14.14 11.22
12/27/2022 5:45:00 AM 5.59 42.062 0.473 7.39 10.24 11.21
12/27/2022 6:00:00 AM 5.59 42.062 0.473 7.39 9.19 11.23
12/27/2022 6:15:00 AM 5.59 42.062 0.473 7.4 12.2 11.22
12/27/2022 6:30:00 AM 5.6 42.08 0.473 7.39 8.67 11.23
12/27/2022 6:45:00 AM 5.6 42.08 0.473 7.38 10.31 11.23
12/27/2022 7:00:00 AM 5.61 42.098 0.473 7.38 13.21 11.22
12/27/2022 7:15:00 AM 5.61 42.098 0.473 7.38 9.42 11.22
12/27/2022 7:30:00 AM 5.61 42.098 0.473 7.39 10.31 11.23
12/27/2022 7:45:00 AM 5.62 42.116 0.473 7.39 9.19 11.24
12/27/2022 8:00:00 AM 5.62 42.116 0.473 7.4 8.95 11.25
12/27/2022 8:15:00 AM 5.63 42.134 0.473 7.39 8.34 11.27
12/27/2022 8:30:00 AM 5.64 42.152 0.473 7.4 7.01 11.29
12/27/2022 8:45:00 AM 5.66 42.188 0.474 7.4 7.59 11.32
12/27/2022 9:00:00 AM 5.68 42.224 0.474 7.4 7.21 11.34
12/27/2022 9:15:00 AM 5.7 42.26 0.474 7.4 7.32 11.38
12/27/2022 9:30:00 AM 5.71 42.278 0.474 7.4 6.28 11.43
12/27/2022 9:45:00 AM 5.73 42.314 0.474 7.41 7.26 11.52
12/27/2022 10:00:00 AM 5.76 42.368 0.474 7.41 7.22 11.64
12/27/2022 10:15:00 AM 5.8 42.44 0.474 7.42 6.18 11.76
12/27/2022 10:30:00 AM 5.83 42.494 0.474 7.42 6.64 11.84
12/27/2022 10:45:00 AM 5.86 42.548 0.474 7.43 6.6 11.91
12/27/2022 11:00:00 AM 5.9 42.62 0.474 7.44 5.6 11.96
12/27/2022 11:15:00 AM 5.93 42.674 0.474 7.44 5.04 12.05
12/27/2022 11:30:00 AM 5.97 42.746 0.474 7.45 5.32 12.09
12/27/2022 11:45:00 AM 6 42.8 0.475 7.45 6.19 12.14
12/27/2022 12:00:00 PM 6.03 42.854 0.475 7.45 7.37 12.17
12/27/2022 12:15:00 PM 6.06 42.908 0.475 7.46 7.38 12.2
12/27/2022 12:30:00 PM 6.09 42.962 0.475 7.47 5.69 12.26
12/27/2022 12:45:00 PM 6.12 43.016 0.475 7.47 5.8 12.3
12/27/2022 1:00:00 PM 6.15 43.07 0.475 7.47 4.93 12.31
12/27/2022 1:15:00 PM 6.17 43.106 0.475 7.48 4.86 12.3
12/27/2022 1:30:00 PM 6.18 43.124 0.475 7.48 4.45 12.28
12/27/2022 1:45:00 PM 6.21 43.178 0.475 7.48 4.73 12.25
12/27/2022 2:00:00 PM 6.23 43.214 0.475 7.48 4.08 12.23
12/27/2022 2:15:00 PM 6.25 43.25 0.475 7.47 4.04 12.2
12/27/2022 2:30:00 PM 6.27 43.286 0.475 7.47 6.1 12.16
12/27/2022 2:45:00 PM 6.28 43.304 0.476 7.46 4.45 12.11
12/27/2022 3:00:00 PM 6.3 43.34 0.476 7.46 4.46 12.03
12/27/2022 3:15:00 PM 6.32 43.376 0.476 7.46 4.35 12.02
12/27/2022 3:30:00 PM 6.35 43.43 0.476 7.46 4.35 11.98
12/27/2022 3:45:00 PM 6.37 43.466 0.476 7.45 4.38 11.93
12/27/2022 4:00:00 PM 6.38 43.484 0.476 7.45 5.21 11.89
12/27/2022 4:15:00 PM 6.4 43.52 0.476 7.44 4.61 11.83
12/27/2022 4:30:00 PM 6.41 43.538 0.477 7.44 5.3 11.76
12/27/2022 4:45:00 PM 6.42 43.556 0.477 7.43 5.34 11.68
12/27/2022 5:00:00 PM 6.43 43.574 0.477 7.44 4.88 11.62
12/27/2022 5:15:00 PM 6.44 43.592 0.477 7.43 5.91 11.57
12/27/2022 5:30:00 PM 6.45 43.61 0.477 7.43 6.32 11.51
12/27/2022 5:45:00 PM 6.45 43.61 0.477 7.43 4.89 11.45
12/27/2022 6:00:00 PM 6.46 43.628 0.477 7.43 5.13 11.41
12/27/2022 6:15:00 PM 6.47 43.646 0.477 7.43 6.19 11.35
12/27/2022 6:30:00 PM 6.47 43.646 0.476 7.42 6.14 11.32
12/27/2022 6:45:00 PM 6.48 43.664 0.477 7.42 6.79 11.28
12/27/2022 7:00:00 PM 6.48 43.664 0.477 7.42 6.79 11.24
12/27/2022 7:15:00 PM 6.49 43.682 0.477 7.41 7.92 11.21
12/27/2022 7:30:00 PM 6.49 43.682 0.477 7.41 7.43 11.18
12/27/2022 7:45:00 PM 6.49 43.682 0.477 7.41 6.94 11.17
12/27/2022 8:00:00 PM 6.5 43.7 0.477 7.41 6.26 11.13
12/27/2022 8:15:00 PM 6.5 43.7 0.477 7.41 7.89 11.12
12/27/2022 8:30:00 PM 6.5 43.7 0.477 7.41 7.17 11.11
12/27/2022 8:45:00 PM 6.5 43.7 0.477 7.4 7.86 11.08
12/27/2022 9:00:00 PM 6.5 43.7 0.477 7.41 7.34 11.08
12/27/2022 9:15:00 PM 6.5 43.7 0.477 7.4 9.23 11.06
12/27/2022 9:30:00 PM 6.5 43.7 0.478 7.4 9.03 11.04
12/27/2022 9:45:00 PM 6.5 43.7 0.478 7.4 7.33 11.03
12/27/2022 10:00:00 PM 6.5 43.7 0.478 7.4 8.18 11.01
12/27/2022 10:15:00 PM 6.5 43.7 0.478 7.4 8.62 11
12/27/2022 10:30:00 PM 6.5 43.7 0.478 7.4 8.89 10.99
12/27/2022 10:45:00 PM 6.5 43.7 0.478 7.4 7.8 10.99
12/27/2022 11:00:00 PM 6.5 43.7 0.478 7.4 8.27 10.97
12/27/2022 11:15:00 PM 6.5 43.7 0.478 7.4 8.32 10.97
12/27/2022 11:30:00 PM 6.49 43.682 0.478 7.4 10.45 10.97
12/27/2022 11:45:00 PM 6.49 43.682 0.479 7.4 8.38 10.95
12/28/2022 12:00:00 AM 6.48 43.664 0.479 7.41 10.91 10.96
12/28/2022 12:15:00 AM 6.48 43.664 0.479 7.4 12.28 10.96
12/28/2022 12:30:00 AM 6.48 43.664 0.479 7.39 9.18 10.95
12/28/2022 12:45:00 AM 6.48 43.664 0.479 7.4 10.83 10.95
12/28/2022 1:00:00 AM 6.47 43.646 0.479 7.39 9.55 10.93
12/28/2022 1:15:00 AM 6.47 43.646 0.479 7.41 9.34 10.94
12/28/2022 1:30:00 AM 6.47 43.646 0.479 7.4 8.09 10.95
12/28/2022 1:45:00 AM 6.46 43.628 0.479 7.4 8.16 10.96
12/28/2022 2:00:00 AM 6.44 43.592 0.479 7.4 9.29 10.96
12/28/2022 2:15:00 AM 6.41 43.538 0.479 7.4 8.14 10.95
12/28/2022 2:30:00 AM 6.37 43.466 0.479 7.4 9.65 10.97
12/28/2022 2:45:00 AM 6.34 43.412 0.48 7.4 9.03 10.97
12/28/2022 3:00:00 AM 6.31 43.358 0.48 7.41 7.99 10.98
12/28/2022 3:15:00 AM 6.28 43.304 0.48 7.41 9.38 10.98
12/28/2022 3:30:00 AM 6.24 43.232 0.48 7.41 8.53 10.99
12/28/2022 3:45:00 AM 6.21 43.178 0.48 7.43 9.03 10.97
12/28/2022 4:00:00 AM 6.18 43.124 0.48 7.43 9.32 11
12/28/2022 4:15:00 AM 6.15 43.07 0.48 7.43 9.6 11.01
12/28/2022 4:30:00 AM 6.12 43.016 0.48 7.42 9.59 11.02
12/28/2022 4:45:00 AM 6.09 42.962 0.48 7.41 10.24 11.03
12/28/2022 5:00:00 AM 6.07 42.926 0.48 7.41 9.75 11.04
12/28/2022 5:15:00 AM 6.03 42.854 0.48 7.42 8.78 11.05
12/28/2022 5:30:00 AM 6 42.8 0.48 7.41 11.72 11.05
12/28/2022 5:45:00 AM 5.97 42.746 0.48 7.41 9.62 11.07
12/28/2022 6:00:00 AM 5.93 42.674 0.481 7.41 9.33 11.09
12/28/2022 6:15:00 AM 5.89 42.602 0.481 7.41 10.62 11.1
12/28/2022 6:30:00 AM 5.86 42.548 0.481 7.42 10.54 11.11
12/28/2022 6:45:00 AM 5.82 42.476 0.481 7.42 13.42 11.13
12/28/2022 7:00:00 AM 5.79 42.422 0.481 7.42 8.85 11.14
12/28/2022 7:15:00 AM 5.75 42.35 0.481 7.42 10.45 11.15
12/28/2022 7:30:00 AM 5.72 42.296 0.481 7.42 9.39 11.16
12/28/2022 7:45:00 AM 5.68 42.224 0.481 7.43 8.62 11.19
12/28/2022 8:00:00 AM 5.65 42.17 0.481 7.42 6.06 11.24
12/28/2022 8:15:00 AM 5.63 42.134 0.481 7.43 7.81 11.31
12/28/2022 8:30:00 AM 5.61 42.098 0.481 7.45 7.5 11.39
12/28/2022 8:45:00 AM 5.6 42.08 0.481 7.44 5.71 11.47
12/28/2022 9:00:00 AM 5.6 42.08 0.481 7.45 6.07 11.58
12/28/2022 9:15:00 AM 5.6 42.08 0.481 7.46 5.19 11.7
12/28/2022 9:30:00 AM 5.64 42.152 0.481 7.46 6.68 11.84
12/28/2022 9:45:00 AM 5.7 42.26 0.481 7.47 5.94 12.01
12/28/2022 10:00:00 AM 5.75 42.35 0.481 7.47 5.42 12.16
12/28/2022 10:15:00 AM 5.81 42.458 0.481 7.49 3.62 12.26
12/28/2022 10:30:00 AM 5.85 42.53 0.481 7.49 5.6 12.35
12/28/2022 10:45:00 AM 5.91 42.638 0.481 7.49 4.33 12.45
12/28/2022 11:00:00 AM 5.98 42.764 0.481 7.5 4.49 12.56
12/28/2022 11:15:00 AM 6.05 42.89 0.481 7.51 4.77 12.65
12/28/2022 11:30:00 AM 6.14 43.052 0.481 7.51 4.43 12.76
12/28/2022 11:45:00 AM 6.22 43.196 0.481 7.51 4.23 12.82
12/28/2022 12:00:00 PM 6.3 43.34 0.481 7.52 4.28 12.89
12/28/2022 12:15:00 PM 6.4 43.52 0.481 7.52 4.73 12.93
12/28/2022 12:30:00 PM 6.5 43.7 0.48 7.54 3.72 13.04
12/28/2022 12:45:00 PM 6.61 43.898 0.481 7.54 4.38 13.07
12/28/2022 1:00:00 PM 6.72 44.096 0.48 7.55 3.77 13.15
12/28/2022 1:15:00 PM 6.82 44.276 0.48 7.55 4.05 13.16
12/28/2022 1:30:00 PM 6.92 44.456 0.48 7.56 3.99 13.16
12/28/2022 1:45:00 PM 7.02 44.636 0.481 7.55 4.71 13.19
12/28/2022 2:00:00 PM 7.11 44.798 0.481 7.55 5.67 13.17
12/28/2022 2:15:00 PM 7.2 44.96 0.48 7.55 5.59 13.17
12/28/2022 2:30:00 PM 7.28 45.104 0.48 7.56 5.3 13.14
12/28/2022 2:45:00 PM 7.36 45.248 0.48 7.56 4.3 13.09
12/28/2022 3:00:00 PM 7.43 45.374 0.48 7.55 4.06 13.03
12/28/2022 3:15:00 PM 7.49 45.482 0.48 7.56 3.33 12.96
12/28/2022 3:30:00 PM 7.53 45.554 0.48 7.56 3.07 12.85
12/28/2022 3:45:00 PM 7.57 45.626 0.48 7.55 3.56 12.78
12/28/2022 4:00:00 PM 7.62 45.716 0.48 7.55 3.92 12.65
12/28/2022 4:15:00 PM 7.66 45.788 0.48 7.55 3.58 12.54
12/28/2022 4:30:00 PM 7.68 45.824 0.48 7.54 4.19 12.39
12/28/2022 4:45:00 PM 7.69 45.842 0.48 7.52 3.92 12.2
12/28/2022 5:00:00 PM 7.7 45.86 0.48 7.52 4.2 12.04
12/28/2022 5:15:00 PM 7.7 45.86 0.48 7.5 4.09 11.89
12/28/2022 5:30:00 PM 7.71 45.878 0.48 7.5 4.83 11.75
12/28/2022 5:45:00 PM 7.72 45.896 0.48 7.49 4.08 11.63
12/28/2022 6:00:00 PM 7.72 45.896 0.479 7.49 5.35 11.52
12/28/2022 6:15:00 PM 7.72 45.896 0.479 7.48 5.17 11.41
12/28/2022 6:30:00 PM 7.71 45.878 0.479 7.49 6.65 11.32
12/28/2022 6:45:00 PM 7.7 45.86 0.479 7.47 5.22 11.26
12/28/2022 7:00:00 PM 7.69 45.842 0.478 7.47 5.6 11.19
12/28/2022 7:15:00 PM 7.67 45.806 0.478 7.46 7.52 11.11
12/28/2022 7:30:00 PM 7.64 45.752 0.478 7.46 7.25 11.06
12/28/2022 7:45:00 PM 7.61 45.698 0.477 7.46 5.89 11
12/28/2022 8:00:00 PM 7.58 45.644 0.477 7.45 10.07 10.94
12/28/2022 8:15:00 PM 7.54 45.572 0.477 7.45 6.9 10.9
12/28/2022 8:30:00 PM 7.49 45.482 0.477 7.44 7.12 10.88
12/28/2022 8:45:00 PM 7.45 45.41 0.477 7.44 6.58 10.84
12/28/2022 9:00:00 PM 7.4 45.32 0.477 7.44 8.19 10.81
12/28/2022 9:15:00 PM 7.36 45.248 0.477 7.44 7.78 10.79
12/28/2022 9:30:00 PM 7.3 45.14 0.477 7.43 8.7 10.78
12/28/2022 9:45:00 PM 7.25 45.05 0.477 7.43 8.14 10.76
12/28/2022 10:00:00 PM 7.19 44.942 0.477 7.43 8.13 10.74
12/28/2022 10:15:00 PM 7.13 44.834 0.478 7.42 8.94 10.75
12/28/2022 10:30:00 PM 7.08 44.744 0.478 7.43 9.98 10.73
12/28/2022 10:45:00 PM 7.02 44.636 0.478 7.43 8.59 10.73
12/28/2022 11:00:00 PM 6.96 44.528 0.479 7.43 8.32 10.75
12/28/2022 11:15:00 PM 6.9 44.42 0.479 7.43 9.87 10.73
12/28/2022 11:30:00 PM 6.85 44.33 0.479 7.42 8.73 10.76
12/28/2022 11:45:00 PM 6.8 44.24 0.48 7.42 16.38 10.78
12/29/2022 12:00:00 AM 6.73 44.114 0.48 7.42 9.14 10.79
12/29/2022 12:15:00 AM 6.67 44.006 0.48 7.41 8.55 10.8
12/29/2022 12:30:00 AM 6.61 43.898 0.48 7.42 9.6 10.81
12/29/2022 12:45:00 AM 6.55 43.79 0.481 7.42 8.74 10.82
12/29/2022 1:00:00 AM 6.49 43.682 0.481 7.42 8.56 10.83
12/29/2022 1:15:00 AM 6.43 43.574 0.482 7.42 24.83 10.86
12/29/2022 1:30:00 AM 6.37 43.466 0.482 7.42 9.06 10.86
12/29/2022 1:45:00 AM 6.32 43.376 0.483 7.42 9.52 10.89
12/29/2022 2:00:00 AM 6.26 43.268 0.484 7.42 8.82 10.91
12/29/2022 2:15:00 AM 6.2 43.16 0.484 7.42 14.37 10.94
12/29/2022 2:30:00 AM 6.15 43.07 0.484 7.43 9.39 10.94
12/29/2022 2:45:00 AM 6.1 42.98 0.485 7.42 8.86 10.97
12/29/2022 3:00:00 AM 6.05 42.89 0.485 7.42 9.97 10.97
12/29/2022 3:15:00 AM 6 42.8 0.485 7.43 8.44 11.01
12/29/2022 3:30:00 AM 5.96 42.728 0.485 7.42 7.89 11.02
12/29/2022 3:45:00 AM 5.91 42.638 0.485 7.43 9.05 11.05
12/29/2022 4:00:00 AM 5.86 42.548 0.485 7.43 10.24 11.07
12/29/2022 4:15:00 AM 5.82 42.476 0.485 7.42 11.2 11.08
12/29/2022 4:30:00 AM 5.78 42.404 0.485 7.42 9.38 11.1
12/29/2022 4:45:00 AM 5.73 42.314 0.485 7.42 9.34 11.12
12/29/2022 5:00:00 AM 5.7 42.26 0.485 7.42 9.22 11.13
12/29/2022 5:15:00 AM 5.66 42.188 0.485 7.42 8.32 11.14
12/29/2022 5:30:00 AM 5.62 42.116 0.486 7.42 8.62 11.16
12/29/2022 5:45:00 AM 5.59 42.062 0.486 7.42 7.22 11.18
12/29/2022 6:00:00 AM 5.55 41.99 0.486 7.42 8.2 11.19
12/29/2022 6:15:00 AM 5.52 41.936 0.486 7.43 6.79 11.21
12/29/2022 6:30:00 AM 5.49 41.882 0.486 7.43 6.89 11.21
12/29/2022 6:45:00 AM 5.45 41.81 0.486 7.43 7.57 11.23
12/29/2022 7:00:00 AM 5.43 41.774 0.486 7.43 7.63 11.24
12/29/2022 7:15:00 AM 5.4 41.72 0.486 7.44 6.36 11.25
12/29/2022 7:30:00 AM 5.37 41.666 0.486 7.43 6.96 11.27
12/29/2022 7:45:00 AM 5.35 41.63 0.486 7.43 6.41 11.29
12/29/2022 8:00:00 AM 5.33 41.594 0.486 7.43 7.66 11.33
12/29/2022 8:15:00 AM 5.32 41.576 0.487 7.43 8.2 11.37
12/29/2022 8:30:00 AM 5.3 41.54 0.487 7.44 6.21 11.44
12/29/2022 8:45:00 AM 5.29 41.522 0.487 7.44 7.58 11.5
12/29/2022 9:00:00 AM 5.3 41.54 0.487 7.45 4.35 11.6
12/29/2022 9:15:00 AM 5.32 41.576 0.487 7.46 4.54 11.71
12/29/2022 9:30:00 AM 5.35 41.63 0.487 7.46 4.56 11.85
12/29/2022 9:45:00 AM 5.4 41.72 0.487 7.48 4.41 12
12/29/2022 10:00:00 AM 5.47 41.846 0.486 7.48 4.61 12.14
12/29/2022 10:15:00 AM 5.55 41.99 0.487 7.49 3.1 12.25
12/29/2022 10:30:00 AM 5.64 42.152 0.486 7.5 4.67 12.41
12/29/2022 10:45:00 AM 5.73 42.314 0.486 7.51 4.23 12.53
12/29/2022 11:00:00 AM 5.82 42.476 0.486 7.51 2.57 12.64
12/29/2022 11:15:00 AM 5.92 42.656 0.486 7.52 3.37 12.73
12/29/2022 11:30:00 AM 6.03 42.854 0.486 7.53 3.05 12.84
12/29/2022 11:45:00 AM 6.14 43.052 0.486 7.54 3.7 12.92
12/29/2022 12:00:00 PM 6.24 43.232 0.486 7.55 2.94 12.95
12/29/2022 12:15:00 PM 6.36 43.448 0.486 7.55 2.73 13.06
12/29/2022 12:30:00 PM 6.48 43.664 0.485 7.57 3.9 13.13
12/29/2022 12:45:00 PM 6.6 43.88 0.486 7.57 3.45 13.18
12/29/2022 1:00:00 PM 6.73 44.114 0.485 7.58 2.95 13.23
12/29/2022 1:15:00 PM 6.85 44.33 0.485 7.57 3.36 13.26
12/29/2022 1:30:00 PM 6.97 44.546 0.485 7.58 2.24 13.29
12/29/2022 1:45:00 PM 7.08 44.744 0.485 7.59 2.93 13.3
12/29/2022 2:00:00 PM 7.19 44.942 0.485 7.59 2.65 13.31
12/29/2022 2:15:00 PM 7.29 45.122 0.485 7.59 2.68 13.28
12/29/2022 2:30:00 PM 7.39 45.302 0.485 7.6 3.43 13.26
12/29/2022 2:45:00 PM 7.48 45.464 0.485 7.59 3.09 13.21
12/29/2022 3:00:00 PM 7.56 45.608 0.485 7.59 3.15 13.15
12/29/2022 3:15:00 PM 7.63 45.734 0.485 7.6 2.64 13.07
12/29/2022 3:30:00 PM 7.7 45.86 0.485 7.59 2.81 12.94
12/29/2022 3:45:00 PM 7.76 45.968 0.485 7.58 4.25 12.83
12/29/2022 4:00:00 PM 7.81 46.058 0.485 7.57 2.63 12.65
12/29/2022 4:15:00 PM 7.85 46.13 0.485 7.56 6.68 12.52
12/29/2022 4:30:00 PM 7.89 46.202 0.486 7.56 2.5 12.37
12/29/2022 4:45:00 PM 7.92 46.256 0.485 7.56 3.16 12.19
12/29/2022 5:00:00 PM 7.95 46.31 0.485 7.54 2.84 12.03
12/29/2022 5:15:00 PM 7.97 46.346 0.485 7.53 3.13 11.87
12/29/2022 5:30:00 PM 7.99 46.382 0.485 7.52 2.89 11.73
12/29/2022 5:45:00 PM 8.01 46.418 0.485 7.51 2.69 11.59
12/29/2022 6:00:00 PM 8.02 46.436 0.485 7.51 4.57 11.47
12/29/2022 6:15:00 PM 8.02 46.436 0.485 7.51 5.03 11.35
12/29/2022 6:30:00 PM 8.02 46.436 0.485 7.5 4.24 11.26
12/29/2022 6:45:00 PM 8.03 46.454 0.484 7.49 5.18 11.18
12/29/2022 7:00:00 PM 8.03 46.454 0.484 7.49 3.86 11.09
12/29/2022 7:15:00 PM 8.03 46.454 0.483 7.47 3.79 10.99
12/29/2022 7:30:00 PM 8.06 46.508 0.483 7.48 4.74 10.94
12/29/2022 7:45:00 PM 8.07 46.526 0.482 7.47 5.06 10.87
12/29/2022 8:00:00 PM 8.09 46.562 0.481 7.46 4.89 10.79
12/29/2022 8:15:00 PM 8.1 46.58 0.481 7.46 6.02 10.76
12/29/2022 8:30:00 PM 8.09 46.562 0.48 7.45 6.1 10.69
12/29/2022 8:45:00 PM 8.09 46.562 0.479 7.44 4.77 10.66
12/29/2022 9:00:00 PM 8.08 46.544 0.479 7.44 5.45 10.64
12/29/2022 9:15:00 PM 8.06 46.508 0.478 7.43 7.4 10.61
12/29/2022 9:30:00 PM 8.04 46.472 0.478 7.43 6.39 10.57
12/29/2022 9:45:00 PM 8.02 46.436 0.478 7.43 9.72 10.55
12/29/2022 10:00:00 PM 8 46.4 0.477 7.42 7 10.54
12/29/2022 10:15:00 PM 7.98 46.364 0.477 7.42 6.78 10.51
12/29/2022 10:30:00 PM 7.96 46.328 0.477 7.42 8.03 10.51
12/29/2022 10:45:00 PM 7.94 46.292 0.477 7.42 6.28 10.5
12/29/2022 11:00:00 PM 7.91 46.238 0.477 7.42 7.48 10.5
12/29/2022 11:15:00 PM 7.89 46.202 0.478 7.43 6.02 10.48
12/29/2022 11:30:00 PM 7.88 46.184 0.478 7.42 5.71 10.47
12/29/2022 11:45:00 PM 7.86 46.148 0.478 7.42 6.29 10.48
12/30/2022 12:00:00 AM 7.85 46.13 0.479 7.41 8.84 10.48
12/30/2022 12:15:00 AM 7.83 46.094 0.479 7.4 5.81 10.46
12/30/2022 12:30:00 AM 7.81 46.058 0.48 7.41 6.94 10.46
12/30/2022 12:45:00 AM 7.78 46.004 0.48 7.4 9.87 10.45
12/30/2022 1:00:00 AM 7.77 45.986 0.481 7.4 7.67 10.45
12/30/2022 1:15:00 AM 7.75 45.95 0.481 7.4 8.96 10.44
12/30/2022 1:30:00 AM 7.73 45.914 0.482 7.39 9.04 10.45
12/30/2022 1:45:00 AM 7.71 45.878 0.482 7.4 6.81 10.46
12/30/2022 2:00:00 AM 7.69 45.842 0.482 7.41 8.45 10.46
12/30/2022 2:15:00 AM 7.67 45.806 0.482 7.41 7.87 10.45
12/30/2022 2:30:00 AM 7.66 45.788 0.483 7.41 7.14 10.46
12/30/2022 2:45:00 AM 7.64 45.752 0.483 7.41 9.19 10.47
12/30/2022 3:00:00 AM 7.63 45.734 0.483 7.4 8.36 10.49
12/30/2022 3:15:00 AM 7.62 45.716 0.483 7.4 9.31 10.48
12/30/2022 3:30:00 AM 7.62 45.716 0.483 7.4 8.18 10.5
12/30/2022 3:45:00 AM 7.61 45.698 0.483 7.4 8.38 10.5
12/30/2022 4:00:00 AM 7.61 45.698 0.483 7.4 7.17 10.51
12/30/2022 4:15:00 AM 7.6 45.68 0.483 7.4 8.61 10.51
12/30/2022 4:30:00 AM 7.59 45.662 0.483 7.4 7.73 10.52
12/30/2022 4:45:00 AM 7.59 45.662 0.483 7.4 7.56 10.5
12/30/2022 5:00:00 AM 7.59 45.662 0.483 7.41 8.08 10.53
12/30/2022 5:15:00 AM 7.59 45.662 0.483 7.4 12.01 10.52
12/30/2022 5:30:00 AM 7.58 45.644 0.483 7.42 9.11 10.52
12/30/2022 5:45:00 AM 7.58 45.644 0.483 7.41 7.42 10.53
12/30/2022 6:00:00 AM 7.58 45.644 0.483 7.4 9.26 10.53
12/30/2022 6:15:00 AM 7.59 45.662 0.483 7.41 7.22 10.53
12/30/2022 6:30:00 AM 7.59 45.662 0.483 7.4 6.14 10.54
12/30/2022 6:45:00 AM 7.59 45.662 0.483 7.41 7.26 10.53
12/30/2022 7:00:00 AM 7.6 45.68 0.483 7.42 8.08 10.53
12/30/2022 7:15:00 AM 7.6 45.68 0.483 7.42 6.37 10.51
12/30/2022 7:30:00 AM 7.61 45.698 0.483 7.42 6.24 10.53
12/30/2022 7:45:00 AM 7.62 45.716 0.483 7.42 7.03 10.56
12/30/2022 8:00:00 AM 7.63 45.734 0.483 7.43 7.49 10.56
12/30/2022 8:15:00 AM 7.64 45.752 0.483 7.42 5.51 10.59
12/30/2022 8:30:00 AM 7.66 45.788 0.483 7.43 4.63 10.65
12/30/2022 8:45:00 AM 7.68 45.824 0.482 7.42 4.1 10.76
12/30/2022 9:00:00 AM 7.71 45.878 0.482 7.43 6.67 10.87
12/30/2022 9:15:00 AM 7.75 45.95 0.482 7.44 3.28 11
12/30/2022 9:30:00 AM 7.78 46.004 0.482 7.46 4.39 11.1
12/30/2022 9:45:00 AM 7.82 46.076 0.482 7.46 3.7 11.22
12/30/2022 10:00:00 AM 7.88 46.184 0.482 7.47 3.35 11.41
12/30/2022 10:15:00 AM 7.91 46.238 0.481 7.47 3.49 11.51
12/30/2022 10:30:00 AM 7.97 46.346 0.481 7.49 3.06 11.67
12/30/2022 10:45:00 AM 8.02 46.436 0.481 7.5 3.54 11.78
12/30/2022 11:00:00 AM 8.07 46.526 0.481 7.5 3.88 11.9
12/30/2022 11:15:00 AM 8.14 46.652 0.48 7.52 3.29 12.02
12/30/2022 11:30:00 AM 8.24 46.832 0.48 7.54 3.07 12.21
12/30/2022 11:45:00 AM 8.29 46.922 0.48 7.53 2.31 12.32
12/30/2022 12:00:00 PM 8.34 47.012 0.48 7.54 3.06 12.34
12/30/2022 12:15:00 PM 8.41 47.138 0.479 7.55 4.57 12.41
12/30/2022 12:30:00 PM 8.5 47.3 0.479 7.56 4.58 12.55
12/30/2022 12:45:00 PM 8.61 47.498 0.478 7.58 2.62 12.72
12/30/2022 1:00:00 PM 8.69 47.642 0.478 7.59 4.77 12.8
12/30/2022 1:15:00 PM 8.78 47.804 0.478 7.59 3.26 12.87
12/30/2022 1:30:00 PM 8.84 47.912 0.477 7.6 2.84 12.89
12/30/2022 1:45:00 PM 8.91 48.038 0.477 7.61 2.8 12.92
12/30/2022 2:00:00 PM 8.98 48.164 0.477 7.6 2.55 12.93
12/30/2022 2:15:00 PM 9.03 48.254 0.476 7.61 2.85 12.9
12/30/2022 2:30:00 PM 9.08 48.344 0.476 7.62 2.64 12.87
12/30/2022 2:45:00 PM 9.12 48.416 0.475 7.61 2.73 12.78
12/30/2022 3:00:00 PM 9.16 48.488 0.475 7.61 3.65 12.7
12/30/2022 3:15:00 PM 9.2 48.56 0.475 7.6 3.73 12.61
12/30/2022 3:30:00 PM 9.24 48.632 0.474 7.6 4.33 12.55
12/30/2022 3:45:00 PM 9.25 48.65 0.473 7.6 3.99 12.45
12/30/2022 4:00:00 PM 9.25 48.65 0.471 7.59 5.16 12.33
12/30/2022 4:15:00 PM 9.23 48.614 0.47 7.58 5.64 12.18
12/30/2022 4:30:00 PM 9.21 48.578 0.468 7.57 5.89 12.05
12/30/2022 4:45:00 PM 9.18 48.524 0.466 7.56 7.05 11.89
12/30/2022 5:00:00 PM 9.12 48.416 0.464 7.54 8.17 11.74
12/30/2022 5:15:00 PM 9.06 48.308 0.462 7.53 8.91 11.58
12/30/2022 5:30:00 PM 8.98 48.164 0.459 7.51 8.69 11.45
12/30/2022 5:45:00 PM 8.9 48.02 0.456 7.5 13.21 11.32
12/30/2022 6:00:00 PM 8.82 47.876 0.453 7.49 12.17 11.18
12/30/2022 6:15:00 PM 8.74 47.732 0.45 7.48 13.21 11.08
12/30/2022 6:30:00 PM 8.65 47.57 0.447 7.47 13.38 10.98
12/30/2022 6:45:00 PM 8.56 47.408 0.445 7.46 15.47 10.92
12/30/2022 7:00:00 PM 8.48 47.264 0.442 7.45 17.56 10.84
12/30/2022 7:15:00 PM 8.4 47.12 0.44 7.46 17.1 10.75
12/30/2022 7:30:00 PM 8.32 46.976 0.439 7.45 19.13 10.72
12/30/2022 7:45:00 PM 8.25 46.85 0.438 7.43 18.61 10.64
12/30/2022 8:00:00 PM 8.17 46.706 0.437 7.42 17.06 10.62
12/30/2022 8:15:00 PM 8.1 46.58 0.437 7.42 17.52 10.59
12/30/2022 8:30:00 PM 8.03 46.454 0.436 7.41 16.49 10.56
12/30/2022 8:45:00 PM 7.96 46.328 0.436 7.41 18.43 10.54
12/30/2022 9:00:00 PM 7.89 46.202 0.436 7.4 20.55 10.52
12/30/2022 9:15:00 PM 7.82 46.076 0.436 7.4 18.38 10.5
12/30/2022 9:30:00 PM 7.76 45.968 0.437 7.4 16.87 10.5
12/30/2022 9:45:00 PM 7.71 45.878 0.437 7.41 17.91 10.48
12/30/2022 10:00:00 PM 7.65 45.77 0.438 7.39 17.34 10.46
12/30/2022 10:15:00 PM 7.6 45.68 0.438 7.39 18.67 10.47
12/30/2022 10:30:00 PM 7.55 45.59 0.439 7.39 19.05 10.47
12/30/2022 10:45:00 PM 7.5 45.5 0.439 7.38 17.72 10.48
12/30/2022 11:00:00 PM 7.44 45.392 0.44 7.39 16.25 10.48
12/30/2022 11:15:00 PM 7.39 45.302 0.441 7.38 14.71 10.48
12/30/2022 11:30:00 PM 7.34 45.212 0.441 7.38 19.1 10.48
12/30/2022 11:45:00 PM 7.29 45.122 0.441 7.38 14.21 10.49
12/31/2022 12:00:00 AM 7.24 45.032 0.442 7.38 15.06 10.51
12/31/2022 12:15:00 AM 7.18 44.924 0.442 7.38 17.23 10.52
12/31/2022 12:30:00 AM 7.13 44.834 0.442 7.38 14.33 10.55
12/31/2022 12:45:00 AM 7.09 44.762 0.443 7.38 14.27 10.55
12/31/2022 1:00:00 AM 7.05 44.69 0.443 7.38 15.16 10.57
12/31/2022 1:15:00 AM 7.01 44.618 0.444 7.38 12.9 10.57
12/31/2022 1:30:00 AM 6.97 44.546 0.444 7.39 13.96 10.6
12/31/2022 1:45:00 AM 6.93 44.474 0.444 7.39 13.12 10.61
12/31/2022 2:00:00 AM 6.89 44.402 0.444 7.39 12.35 10.63
12/31/2022 2:15:00 AM 6.87 44.366 0.445 7.39 14.97 10.65
12/31/2022 2:30:00 AM 6.85 44.33 0.445 7.38 12.12 10.65
12/31/2022 2:45:00 AM 6.83 44.294 0.445 7.38 13.18 10.67
12/31/2022 3:00:00 AM 6.82 44.276 0.445 7.38 10.22 10.68
12/31/2022 3:15:00 AM 6.8 44.24 0.446 7.39 12.33 10.7
12/31/2022 3:30:00 AM 6.79 44.222 0.446 7.38 13.26 10.71
12/31/2022 3:45:00 AM 6.78 44.204 0.447 7.38 10.56 10.7
12/31/2022 4:00:00 AM 6.78 44.204 0.447 7.38 10.94 10.71
12/31/2022 4:15:00 AM 6.77 44.186 0.448 7.39 11.46 10.73
12/31/2022 4:30:00 AM 6.77 44.186 0.448 7.38 13.28 10.73
12/31/2022 4:45:00 AM 6.77 44.186 0.449 7.39 11.21 10.74
12/31/2022 5:00:00 AM 6.78 44.204 0.45 7.39 13.52 10.75
12/31/2022 5:15:00 AM 6.8 44.24 0.45 7.39 9.56 10.73
12/31/2022 5:30:00 AM 6.81 44.258 0.451 7.4 10.98 10.74
12/31/2022 5:45:00 AM 6.82 44.276 0.451 7.4 11.82 10.72
12/31/2022 6:00:00 AM 6.83 44.294 0.452 7.4 10.36 10.72
12/31/2022 6:15:00 AM 6.83 44.294 0.452 7.4 8.99 10.73
12/31/2022 6:30:00 AM 6.84 44.312 0.453 7.39 9.44 10.71
12/31/2022 6:45:00 AM 6.86 44.348 0.453 7.4 9.58 10.72
12/31/2022 7:00:00 AM 6.88 44.384 0.454 7.4 10.62 10.72
12/31/2022 7:15:00 AM 6.9 44.42 0.454 7.4 10.52 10.71
12/31/2022 7:30:00 AM 6.92 44.456 0.455 7.4 7.66 10.7
12/31/2022 7:45:00 AM 6.94 44.492 0.455 7.4 10.34 10.7
12/31/2022 8:00:00 AM 6.96 44.528 0.455 7.4 12.08 10.71
12/31/2022 8:15:00 AM 6.97 44.546 0.456 7.4 5.91 10.72
12/31/2022 8:30:00 AM 7 44.6 0.456 7.41 6.05 10.75
12/31/2022 8:45:00 AM 7.02 44.636 0.455 7.4 5.6 10.81
12/31/2022 9:00:00 AM 7.06 44.708 0.456 7.41 6.2 10.87
12/31/2022 9:15:00 AM 7.1 44.78 0.456 7.41 6.19 10.99
12/31/2022 9:30:00 AM 7.14 44.852 0.456 7.42 4.7 11.1
12/31/2022 9:45:00 AM 7.18 44.924 0.456 7.43 4.15 11.23
12/31/2022 10:00:00 AM 7.23 45.014 0.456 7.45 3.79 11.35
12/31/2022 10:15:00 AM 7.28 45.104 0.456 7.46 4.46 11.48
12/31/2022 10:30:00 AM 7.34 45.212 0.456 7.47 4.03 11.63
12/31/2022 10:45:00 AM 7.41 45.338 0.456 7.48 3.98 11.8
12/31/2022 11:00:00 AM 7.48 45.464 0.456 7.49 4.08 11.91
12/31/2022 11:15:00 AM 7.54 45.572 0.456 7.5 3.59 11.99
12/31/2022 11:30:00 AM 7.6 45.68 0.456 7.51 3.64 12.07
12/31/2022 11:45:00 AM 7.65 45.77 0.456 7.52 3.46 12.1
12/31/2022 12:00:00 PM 7.71 45.878 0.456 7.52 3.08 12.14
12/31/2022 12:15:00 PM 7.76 45.968 0.456 7.52 3.51 12.13
12/31/2022 12:30:00 PM 7.8 46.04 0.456 7.52 3.11 12.13
12/31/2022 12:45:00 PM 7.86 46.148 0.456 7.53 3.99 12.15
12/31/2022 1:00:00 PM 7.91 46.238 0.456 7.54 2.89 12.15
12/31/2022 1:15:00 PM 7.95 46.31 0.455 7.54 2.8 12.11
12/31/2022 1:30:00 PM 8 46.4 0.455 7.53 4.05 12.07
12/31/2022 1:45:00 PM 8.04 46.472 0.455 7.54 4.38 12.05
12/31/2022 2:00:00 PM 8.09 46.562 0.455 7.54 3.04 12.04
12/31/2022 2:15:00 PM 8.13 46.634 0.455 7.54 2.82 12.04
12/31/2022 2:30:00 PM 8.18 46.724 0.455 7.54 4.01 11.97
12/31/2022 2:45:00 PM 8.22 46.796 0.454 7.54 3.83 11.93
12/31/2022 3:00:00 PM 8.25 46.85 0.454 7.54 5.16 11.85
12/31/2022 3:15:00 PM 8.28 46.904 0.454 7.53 4.81 11.76
12/31/2022 3:30:00 PM 8.31 46.958 0.453 7.53 4.1 11.64
12/31/2022 3:45:00 PM 8.33 46.994 0.453 7.53 4.76 11.56
12/31/2022 4:00:00 PM 8.35 47.03 0.452 7.52 5.47 11.47
12/31/2022 4:15:00 PM 8.36 47.048 0.451 7.51 4.35 11.36
12/31/2022 4:30:00 PM 8.37 47.066 0.45 7.5 5.37 11.27
12/31/2022 4:45:00 PM 8.38 47.084 0.449 7.49 4.99 11.19
12/31/2022 5:00:00 PM 8.39 47.102 0.45 7.48 6.3 11.09
12/31/2022 5:15:00 PM 8.39 47.102 0.448 7.49 5.31 11
12/31/2022 5:30:00 PM 8.4 47.12 0.446 7.47 7.3 10.93
12/31/2022 5:45:00 PM 8.41 47.138 0.445 7.47 6.76 10.85
12/31/2022 6:00:00 PM 8.41 47.138 0.444 7.46 5.53 10.81
12/31/2022 6:15:00 PM 8.4 47.12 0.443 7.46 7.2 10.73
12/31/2022 6:30:00 PM 8.39 47.102 0.442 7.46 7.56 10.69
12/31/2022 6:45:00 PM 8.39 47.102 0.441 7.44 9.4 10.61
12/31/2022 7:00:00 PM 8.38 47.084 0.44 7.44 9.07 10.58
12/31/2022 7:15:00 PM 8.36 47.048 0.439 7.43 10.88 10.53
12/31/2022 7:30:00 PM 8.35 47.03 0.439 7.42 13.85 10.47
12/31/2022 7:45:00 PM 8.34 47.012 0.438 7.41 12.68 10.44
12/31/2022 8:00:00 PM 8.32 46.976 0.437 7.41 16.03 10.39
12/31/2022 8:15:00 PM 8.3 46.94 0.436 7.41 13.58 10.38
12/31/2022 8:30:00 PM 8.29 46.922 0.433 7.4 13.52 10.36
12/31/2022 8:45:00 PM 8.27 46.886 0.432 7.4 13.68 10.35
12/31/2022 9:00:00 PM 8.24 46.832 0.431 7.4 13.67 10.33
12/31/2022 9:15:00 PM 8.21 46.778 0.429 7.4 15.97 10.3
12/31/2022 9:30:00 PM 8.16 46.688 0.428 7.4 16.03 10.3
12/31/2022 9:45:00 PM 8.13 46.634 0.426 7.39 13.8 10.28
12/31/2022 10:00:00 PM 8.09 46.562 0.424 7.38 13.52 10.29
12/31/2022 10:15:00 PM 8.04 46.472 0.422 7.38 15.75 10.3
12/31/2022 10:30:00 PM 7.99 46.382 0.42 7.38 15.71 10.31
12/31/2022 10:45:00 PM 7.94 46.292 0.418 7.37 18.18 10.31
12/31/2022 11:00:00 PM 7.88 46.184 0.416 7.37 17.07 10.32
12/31/2022 11:15:00 PM 7.83 46.094 0.415 7.37 17.55 10.33
12/31/2022 11:30:00 PM 7.78 46.004 0.414 7.37 18.79 10.34
12/31/2022 11:45:00 PM 7.73 45.914 0.413 7.37 19.43 10.35
1/1/2023 12:00:00 AM 7.68 45.824 0.413 7.37 20.81 10.34
1/1/2023 12:15:00 AM 7.63 45.734 0.412 7.36 22.53 10.34
1/1/2023 12:30:00 AM 7.59 45.662 0.412 7.36 19.97 10.37
1/1/2023 12:45:00 AM 7.55 45.59 0.413 7.35 26.25 10.36
1/1/2023 1:00:00 AM 7.54 45.572 0.413 7.35 24.44 10.37
1/1/2023 1:15:00 AM 7.52 45.536 0.413 7.35 27.06 10.38
1/1/2023 1:30:00 AM 7.51 45.518 0.412 7.36 25.75 10.37
1/1/2023 1:45:00 AM 7.5 45.5 0.412 7.36 27.77 10.38
1/1/2023 2:00:00 AM 7.49 45.482 0.411 7.35 24 10.39
1/1/2023 2:15:00 AM 7.48 45.464 0.411 7.36 24.7 10.39
1/1/2023 2:30:00 AM 7.47 45.446 0.354 7.37 23.89 10.4
1/1/2023 2:45:00 AM 7.46 45.428 0.353 7.37 21.93 10.41
1/1/2023 3:00:00 AM 7.46 45.428 0.352 7.36 24.45 10.42
1/1/2023 3:15:00 AM 7.45 45.41 0.352 7.35 22.24 10.42
1/1/2023 3:30:00 AM 7.45 45.41 0.351 7.35 22.38 10.41
1/1/2023 3:45:00 AM 7.44 45.392 0.351 7.36 21.52 10.42
1/1/2023 4:00:00 AM 7.43 45.374 0.351 7.35 24.95 10.43
1/1/2023 4:15:00 AM 7.42 45.356 0.349 7.35 22.92 10.42
1/1/2023 4:30:00 AM 7.4 45.32 0.349 7.35 20.77 10.45
1/1/2023 4:45:00 AM 7.37 45.266 0.348 7.36 20.99 10.46
1/1/2023 5:00:00 AM 7.33 45.194 0.348 7.36 22.26 10.47
1/1/2023 5:15:00 AM 7.3 45.14 0.348 7.37 22.58 10.5
1/1/2023 5:30:00 AM 7.26 45.068 0.347 7.35 22.66 10.5
1/1/2023 5:45:00 AM 7.23 45.014 0.347 7.36 20.26 10.51
1/1/2023 6:00:00 AM 7.19 44.942 0.345 7.36 19.51 10.52
1/1/2023 6:15:00 AM 7.16 44.888 0.345 7.35 18.12 10.53
1/1/2023 6:30:00 AM 7.13 44.834 0.345 7.35 19.93 10.54
1/1/2023 6:45:00 AM 7.11 44.798 0.344 7.35 23.58 10.54
1/1/2023 7:00:00 AM 7.09 44.762 0.344 7.35 21.06 10.58
1/1/2023 7:15:00 AM 7.06 44.708 0.344 7.35 17.29 10.59
1/1/2023 7:30:00 AM 7.03 44.654 0.344 7.36 19.74 10.6
1/1/2023 7:45:00 AM 7 44.6 0.344 7.36 16.35 10.63
1/1/2023 8:00:00 AM 6.97 44.546 0.344 7.36 18.47 10.65
1/1/2023 8:15:00 AM 6.95 44.51 0.344 7.37 15.87 10.71
1/1/2023 8:30:00 AM 6.94 44.492 0.344 7.37 14.99 10.75
1/1/2023 8:45:00 AM 6.94 44.492 0.344 7.38 17.23 10.84
1/1/2023 9:00:00 AM 6.97 44.546 0.344 7.39 13.85 10.98
1/1/2023 9:15:00 AM 7.02 44.636 0.344 7.41 12.97 11.16
1/1/2023 9:30:00 AM 7.1 44.78 0.344 7.41 11.28 11.33
1/1/2023 9:45:00 AM 7.16 44.888 0.344 7.42 10.76 11.49
1/1/2023 10:00:00 AM 7.2 44.96 0.344 7.43 10.37 11.59
1/1/2023 10:15:00 AM 7.25 45.05 0.346 7.44 11.56 11.7
1/1/2023 10:30:00 AM 7.3 45.14 0.345 7.46 10.09 11.84
1/1/2023 10:45:00 AM 7.36 45.248 0.345 7.47 9.26 11.93
1/1/2023 11:00:00 AM 7.42 45.356 0.346 7.48 11.31 12.05
1/1/2023 11:15:00 AM 7.48 45.464 0.346 7.49 8.4 12.16
1/1/2023 11:30:00 AM 7.55 45.59 0.346 7.5 8.66 12.27
1/1/2023 11:45:00 AM 7.62 45.716 0.346 7.51 8.16 12.39
1/1/2023 12:00:00 PM 7.71 45.878 0.346 7.52 10.26 12.51
1/1/2023 12:15:00 PM 7.82 46.076 0.345 7.54 7.47 12.66
1/1/2023 12:30:00 PM 7.89 46.202 0.345 7.55 7.35 12.73
1/1/2023 12:45:00 PM 7.96 46.328 0.347 7.56 7.88 12.76
1/1/2023 1:00:00 PM 8 46.4 0.346 7.57 8.97 12.76
1/1/2023 1:15:00 PM 8.06 46.508 0.346 7.57 6.86 12.82
1/1/2023 1:30:00 PM 8.12 46.616 0.346 7.58 7.4 12.87
1/1/2023 1:45:00 PM 8.21 46.778 0.346 7.59 6.36 12.93
1/1/2023 2:00:00 PM 8.31 46.958 0.346 7.6 7.23 12.98
1/1/2023 2:15:00 PM 8.39 47.102 0.347 7.61 7.47 12.99
1/1/2023 2:30:00 PM 8.47 47.246 0.346 7.62 6.22 12.96
1/1/2023 2:45:00 PM 8.53 47.354 0.346 7.62 5.88 12.95
1/1/2023 3:00:00 PM 8.59 47.462 0.346 7.61 5.7 12.89
1/1/2023 3:15:00 PM 8.65 47.57 0.346 7.61 6.27 12.8
1/1/2023 3:30:00 PM 8.71 47.678 0.345 7.61 7.79 12.66
1/1/2023 3:45:00 PM 8.76 47.768 0.346 7.6 6.4 12.45
1/1/2023 4:00:00 PM 8.8 47.84 0.345 7.59 6.51 12.29
1/1/2023 4:15:00 PM 8.84 47.912 0.345 7.58 5.81 12.12
1/1/2023 4:30:00 PM 8.88 47.984 0.344 7.56 7.72 11.99
1/1/2023 4:45:00 PM 8.92 48.056 0.345 7.55 6.91 11.81
1/1/2023 5:00:00 PM 8.95 48.11 0.345 7.54 7.38 11.64
1/1/2023 5:15:00 PM 8.97 48.146 0.343 7.53 7.62 11.49
1/1/2023 5:30:00 PM 9 48.2 0.343 7.51 7.93 11.4
1/1/2023 5:45:00 PM 9.02 48.236 0.343 7.5 9.97 11.28
1/1/2023 6:00:00 PM 9.04 48.272 0.343 7.49 14 11.15
1/1/2023 6:15:00 PM 9.03 48.254 0.342 7.48 10.49 11.05
1/1/2023 6:30:00 PM 9.02 48.236 0.342 7.47 12.6 10.95
1/1/2023 6:45:00 PM 9.03 48.254 0.342 7.46 9.59 10.85
1/1/2023 7:00:00 PM 9.05 48.29 0.341 7.45 12.37 10.74
1/1/2023 7:15:00 PM 9.06 48.308 0.341 7.44 12.03 10.68
1/1/2023 7:30:00 PM 9.08 48.344 0.34 7.43 11.35 10.59
1/1/2023 7:45:00 PM 9.09 48.362 0.34 7.42 10.59 10.53
1/1/2023 8:00:00 PM 9.09 48.362 0.341 7.42 12.17 10.47
1/1/2023 8:15:00 PM 9.1 48.38 0.341 7.42 11.66 10.42
1/1/2023 8:30:00 PM 9.1 48.38 0.341 7.41 12.55 10.34
1/1/2023 8:45:00 PM 9.09 48.362 0.341 7.41 11.95 10.33
1/1/2023 9:00:00 PM 9.07 48.326 0.342 7.4 13.23 10.29
1/1/2023 9:15:00 PM 9.05 48.29 0.342 7.4 13.57 10.27
1/1/2023 9:30:00 PM 9.03 48.254 0.342 7.39 14.07 10.24
1/1/2023 9:45:00 PM 9.01 48.218 0.342 7.4 14.09 10.23
1/1/2023 10:00:00 PM 8.99 48.182 0.342 7.39 16.08 10.21
1/1/2023 10:15:00 PM 8.96 48.128 0.342 7.39 13.52 10.19
1/1/2023 10:30:00 PM 8.93 48.074 0.342 7.38 14.34 10.17
1/1/2023 10:45:00 PM 8.91 48.038 0.343 7.38 12.07 10.18
1/1/2023 11:00:00 PM 8.88 47.984 0.343 7.38 12.46 10.19
1/1/2023 11:15:00 PM 8.86 47.948 0.343 7.37 12.65 10.18
1/1/2023 11:30:00 PM 8.84 47.912 0.342 7.37 12.88 10.16
1/1/2023 11:45:00 PM 8.81 47.858 0.342 7.37 11.05 10.17
1/2/2023 12:00:00 AM 8.79 47.822 0.342 7.37 14.61 10.16
1/2/2023 12:15:00 AM 8.76 47.768 0.341 7.36 14.51 10.17
1/2/2023 12:30:00 AM 8.73 47.714 0.342 7.36 13.33 10.18
1/2/2023 12:45:00 AM 8.7 47.66 0.342 7.35 12.86 10.19
1/2/2023 1:00:00 AM 8.68 47.624 0.342 7.36 11.72 10.19
1/2/2023 1:15:00 AM 8.66 47.588 0.341 7.36 11.37 10.21
1/2/2023 1:30:00 AM 8.64 47.552 0.342 7.36 13.18 10.2
1/2/2023 1:45:00 AM 8.62 47.516 0.34 7.35 14.14 10.21
1/2/2023 2:00:00 AM 8.6 47.48 0.34 7.35 11.45 10.22
1/2/2023 2:15:00 AM 8.59 47.462 0.34 7.36 13.09 10.22
1/2/2023 2:30:00 AM 8.57 47.426 0.34 7.37 12.78 10.19
1/2/2023 2:45:00 AM 8.57 47.426 0.34 7.35 11.29 10.22
1/2/2023 3:00:00 AM 8.56 47.408 0.34 7.36 11.67 10.21
1/2/2023 3:15:00 AM 8.56 47.408 0.34 7.35 11.54 10.22
1/2/2023 3:30:00 AM 8.55 47.39 0.339 7.35 14.16 10.24
1/2/2023 3:45:00 AM 8.54 47.372 0.339 7.36 14.71 10.24
1/2/2023 4:00:00 AM 8.54 47.372 0.339 7.36 14.04 10.23
1/2/2023 4:15:00 AM 8.53 47.354 0.339 7.36 12.72 10.24
1/2/2023 4:30:00 AM 8.53 47.354 0.338 7.36 12.58 10.23
1/2/2023 4:45:00 AM 8.52 47.336 0.338 7.36 12.41 10.25
1/2/2023 5:00:00 AM 8.52 47.336 0.339 7.36 12.37 10.24
1/2/2023 5:15:00 AM 8.52 47.336 0.339 7.36 13.83 10.25
1/2/2023 5:30:00 AM 8.52 47.336 0.338 7.36 12.3 10.25
1/2/2023 5:45:00 AM 8.51 47.318 0.338 7.36 11.62 10.24
1/2/2023 6:00:00 AM 8.5 47.3 0.339 7.36 12.81 10.26
1/2/2023 6:15:00 AM 8.49 47.282 0.339 7.35 13.22 10.25
1/2/2023 6:30:00 AM 8.49 47.282 0.338 7.35 13.68 10.25
1/2/2023 6:45:00 AM 8.48 47.264 0.339 7.35 13.41 10.25
1/2/2023 7:00:00 AM 8.47 47.246 0.339 7.35 12.37 10.26
1/2/2023 7:15:00 AM 8.46 47.228 0.338 7.35 12.08 10.27
1/2/2023 7:30:00 AM 8.45 47.21 0.339 7.36 12.67 10.27
1/2/2023 7:45:00 AM 8.44 47.192 0.339 7.36 11.23 10.28
1/2/2023 8:00:00 AM 8.44 47.192 0.339 7.35 10.02 10.3
1/2/2023 8:15:00 AM 8.43 47.174 0.339 7.35 10.08 10.3
1/2/2023 8:30:00 AM 8.42 47.156 0.339 7.35 10.3 10.33
1/2/2023 8:45:00 AM 8.41 47.138 0.339 7.36 9.47 10.34
1/2/2023 9:00:00 AM 8.41 47.138 0.339 7.36 9.55 10.39
1/2/2023 9:15:00 AM 8.41 47.138 0.339 7.36 9.26 10.44
1/2/2023 9:30:00 AM 8.42 47.156 0.338 7.37 15.88 10.54
1/2/2023 9:45:00 AM 8.43 47.174 0.339 7.38 8.58 10.64
1/2/2023 10:00:00 AM 8.45 47.21 0.339 7.38 8.17 10.76
1/2/2023 10:15:00 AM 8.48 47.264 0.339 7.39 6.74 10.88
1/2/2023 10:30:00 AM 8.5 47.3 0.339 7.4 6.85 10.99
1/2/2023 10:45:00 AM 8.54 47.372 0.339 7.41 14.51 11.14
1/2/2023 11:00:00 AM 8.56 47.408 0.339 7.42 8.81 11.23
1/2/2023 11:15:00 AM 8.58 47.444 0.339 7.42 7.09 11.3
1/2/2023 11:30:00 AM 8.6 47.48 0.339 7.44 6.57 11.32
1/2/2023 11:45:00 AM 8.61 47.498 0.339 7.44 8.51 11.31
1/2/2023 12:00:00 PM 8.63 47.534 0.339 7.44 5.78 11.32
1/2/2023 12:15:00 PM 8.64 47.552 0.338 7.44 6.67 11.31
1/2/2023 12:30:00 PM 8.66 47.588 0.339 7.44 7.16 11.32
1/2/2023 12:45:00 PM 8.67 47.606 0.339 7.44 9.06 11.29
1/2/2023 1:00:00 PM 8.69 47.642 0.338 7.44 8.08 11.31
1/2/2023 1:15:00 PM 8.71 47.678 0.339 7.44 6.47 11.36
1/2/2023 1:30:00 PM 8.73 47.714 0.339 7.45 7.16 11.4
1/2/2023 1:45:00 PM 8.74 47.732 0.338 7.45 6.25 11.36
1/2/2023 2:00:00 PM 8.76 47.768 0.338 7.45 7.66 11.29
1/2/2023 2:15:00 PM 8.77 47.786 0.338 7.44 5.77 11.25
1/2/2023 2:30:00 PM 8.78 47.804 0.338 7.44 9.09 11.24
1/2/2023 2:45:00 PM 8.79 47.822 0.338 7.44 6.16 11.21
1/2/2023 3:00:00 PM 8.81 47.858 0.338 7.44 6.15 11.14
1/2/2023 3:15:00 PM 8.82 47.876 0.338 7.43 6.21 11.08
1/2/2023 3:30:00 PM 8.83 47.894 0.337 7.42 5.62 11.05
1/2/2023 3:45:00 PM 8.84 47.912 0.339 7.42 6.01 10.98
1/2/2023 4:00:00 PM 8.85 47.93 0.337 7.42 7.39 10.95
1/2/2023 4:15:00 PM 8.86 47.948 0.336 7.42 8.04 10.88
1/2/2023 4:30:00 PM 8.86 47.948 0.336 7.4 10.13 10.8
1/2/2023 4:45:00 PM 8.87 47.966 0.336 7.4 6.63 10.75
1/2/2023 5:00:00 PM 8.88 47.984 0.336 7.4 8.67 10.71
1/2/2023 5:15:00 PM 8.88 47.984 0.336 7.4 11.13 10.65
1/2/2023 5:30:00 PM 8.89 48.002 0.335 7.39 11.69 10.59
1/2/2023 5:45:00 PM 8.89 48.002 0.336 7.38 11.93 10.55
1/2/2023 6:00:00 PM 8.89 48.002 0.335 7.38 10.69 10.52
1/2/2023 6:15:00 PM 8.9 48.02 0.334 7.39 12.33 10.49
1/2/2023 6:30:00 PM 8.89 48.002 0.334 7.38 11.72 10.46
1/2/2023 6:45:00 PM 8.89 48.002 0.334 7.37 12.28 10.41
1/2/2023 7:00:00 PM 8.88 47.984 0.334 7.37 12.77 10.39
1/2/2023 7:15:00 PM 8.88 47.984 0.333 7.36 14.62 10.36
1/2/2023 7:30:00 PM 8.87 47.966 0.333 7.37 11.94 10.35
1/2/2023 7:45:00 PM 8.86 47.948 0.332 7.36 12.22 10.33
1/2/2023 8:00:00 PM 8.84 47.912 0.332 7.36 12.62 10.32
1/2/2023 8:15:00 PM 8.82 47.876 0.332 7.35 11.86 10.29
1/2/2023 8:30:00 PM 8.81 47.858 0.332 7.35 12.03 10.3
1/2/2023 8:45:00 PM 8.79 47.822 0.331 7.35 12.01 10.28
1/2/2023 9:00:00 PM 8.77 47.786 0.331 7.35 14.25 10.29
1/2/2023 9:15:00 PM 8.75 47.75 0.331 7.34 13.44 10.29
1/2/2023 9:30:00 PM 8.73 47.714 0.331 7.36 15.59 10.27
1/2/2023 9:45:00 PM 8.71 47.678 0.331 7.35 12.93 10.27
1/2/2023 10:00:00 PM 8.69 47.642 0.332 7.34 15.84 10.26
1/2/2023 10:15:00 PM 8.67 47.606 0.333 7.35 13.82 10.27
1/2/2023 10:30:00 PM 8.65 47.57 0.334 7.35 14.93 10.27
1/2/2023 10:45:00 PM 8.63 47.534 0.334 7.35 16.86 10.26
1/2/2023 11:00:00 PM 8.61 47.498 0.334 7.34 14.23 10.27
1/2/2023 11:15:00 PM 8.59 47.462 0.334 7.34 16.24 10.27
1/2/2023 11:30:00 PM 8.57 47.426 0.334 7.34 17.83 10.26
1/2/2023 11:45:00 PM 8.56 47.408 0.334 7.34 13.41 10.27
1/3/2023 12:00:00 AM 8.54 47.372 0.334 7.35 14.77 10.28
1/3/2023 12:15:00 AM 8.53 47.354 0.334 7.35 14.68 10.3
1/3/2023 12:30:00 AM 8.51 47.318 0.334 7.33 15.41 10.29
1/3/2023 12:45:00 AM 8.5 47.3 0.335 7.34 14.34 10.27
1/3/2023 1:00:00 AM 8.48 47.264 0.335 7.34 14.11 10.28
1/3/2023 1:15:00 AM 8.47 47.246 0.334 7.34 13.91 10.29
1/3/2023 1:30:00 AM 8.46 47.228 0.335 7.34 13.62 10.29
1/3/2023 1:45:00 AM 8.45 47.21 0.334 7.34 18.76 10.31
1/3/2023 2:00:00 AM 8.44 47.192 0.335 7.33 13.98 10.3
1/3/2023 2:15:00 AM 8.43 47.174 0.334 7.34 13.45 10.32
1/3/2023 2:30:00 AM 8.43 47.174 0.334 7.34 12.78 10.32
1/3/2023 2:45:00 AM 8.42 47.156 0.334 7.34 14.59 10.32
1/3/2023 3:00:00 AM 8.41 47.138 0.334 7.34 14.79 10.32
1/3/2023 3:15:00 AM 8.4 47.12 0.334 7.34 15.72 10.32
1/3/2023 3:30:00 AM 8.39 47.102 0.335 7.35 14.75 10.33
1/3/2023 3:45:00 AM 8.39 47.102 0.335 7.34 11.91 10.34
1/3/2023 4:00:00 AM 8.39 47.102 0.335 7.35 13.71 10.34
1/3/2023 4:15:00 AM 8.38 47.084 0.335 7.35 12.85 10.32
1/3/2023 4:30:00 AM 8.38 47.084 0.335 7.36 13.54 10.34
1/3/2023 4:45:00 AM 8.37 47.066 0.335 7.35 17.12 10.34
1/3/2023 5:00:00 AM 8.37 47.066 0.335 7.35 13.06 10.34
1/3/2023 5:15:00 AM 8.38 47.084 0.335 7.35 14.14 10.33
1/3/2023 5:30:00 AM 8.38 47.084 0.335 7.35 13.02 10.35
1/3/2023 5:45:00 AM 8.38 47.084 0.335 7.35 12.88 10.33
1/3/2023 6:00:00 AM 8.37 47.066 0.335 7.35 12.15 10.34
1/3/2023 6:15:00 AM 8.37 47.066 0.335 7.36 12.18 10.35
1/3/2023 6:30:00 AM 8.37 47.066 0.335 7.36 13.61 10.35
1/3/2023 6:45:00 AM 8.36 47.048 0.335 7.35 12.41 10.34
1/3/2023 7:00:00 AM 8.36 47.048 0.335 7.35 11.74 10.34
1/3/2023 7:15:00 AM 8.36 47.048 0.335 7.35 14.37 10.35
1/3/2023 7:30:00 AM 8.35 47.03 0.334 7.35 12.74 10.36
1/3/2023 7:45:00 AM 8.2 46.76 0.333 7.36 57.15 10.42
1/3/2023 8:00:00 AM 8.29 46.922 0.331 7.36 30.07 10.4
1/3/2023 8:15:00 AM 8.28 46.904 0.329 7.37 27.35 10.41
1/3/2023 8:30:00 AM 8.28 46.904 0.328 7.37 32 10.41
1/3/2023 8:45:00 AM 8.27 46.886 0.326 7.36 27.57 10.43
1/3/2023 9:00:00 AM 8.27 46.886 0.324 7.37 38.58 10.44
1/3/2023 9:15:00 AM 8.3 46.94 0.325 7.36 21.79 10.46
1/3/2023 9:30:00 AM 8.29 46.922 0.321 7.36 30.47 10.49
1/3/2023 9:45:00 AM 8.24 46.832 0.314 7.36 34.93 10.5
1/3/2023 10:00:00 AM 8.12 46.616 0.299 7.36 109.4 10.54
1/3/2023 10:15:00 AM 8.17 46.706 0.301 7.36 72.92 10.51
1/3/2023 10:30:00 AM 8.13 46.634 0.293 7.34 113.4 10.55
1/3/2023 10:45:00 AM 8.12 46.616 0.293 7.33 97.58 10.52
1/3/2023 11:00:00 AM 8.1 46.58 0.289 7.33 124.7 10.51
1/3/2023 11:15:00 AM 8.06 46.508 0.282 7.34 143.2 10.53
1/3/2023 11:30:00 AM 8 46.4 0.27 7.33 158.5 10.58
1/3/2023 11:45:00 AM 7.91 46.238 0.258 7.33 187 10.6
1/3/2023 12:00:00 PM 7.78 46.004 0.256 7.33 238.5 10.62
1/3/2023 12:15:00 PM 7.52 45.536 0.257 7.34 330.1 10.62
1/3/2023 12:30:00 PM 7.16 44.888 0.28 7.35 476 10.66
1/3/2023 12:45:00 PM 6.8 44.24 0.267 7.36 699 10.69
1/3/2023 1:00:00 PM 6.52 43.736 0.254 7.33 773.6 10.78
1/3/2023 1:15:00 PM 6.33 43.394 0.243 7.35 767.4 10.84
1/3/2023 1:30:00 PM 6.24 43.232 0.234 7.34 751.3 10.88
1/3/2023 1:45:00 PM 6.25 43.25 0.227 7.32 725.9 10.87
1/3/2023 2:00:00 PM 6.29 43.322 0.222 7.31 689.7 10.86
1/3/2023 2:15:00 PM 6.37 43.466 0.219 7.28 631.4 10.79
1/3/2023 2:30:00 PM 6.45 43.61 0.219 7.27 580.3 10.76
1/3/2023 2:45:00 PM 6.54 43.772 0.221 7.24 513.1 10.7
1/3/2023 3:00:00 PM 6.64 43.952 0.223 7.22 469.4 10.66
1/3/2023 3:15:00 PM 6.74 44.132 0.226 7.18 430.7 10.6
1/3/2023 3:30:00 PM 6.85 44.33 0.229 7.17 377.4 10.55
1/3/2023 3:45:00 PM 6.95 44.51 0.233 7.16 348.3 10.5
1/3/2023 4:00:00 PM 7.05 44.69 0.237 7.14 306.1 10.45
1/3/2023 4:15:00 PM 7.16 44.888 0.242 7.13 281.8 10.4
1/3/2023 4:30:00 PM 7.26 45.068 0.247 7.13 260.1 10.36
1/3/2023 4:45:00 PM 7.35 45.23 0.251 7.12 224.2 10.33
1/3/2023 5:00:00 PM 7.43 45.374 0.254 7.12 219.9 10.28
1/3/2023 5:15:00 PM 7.49 45.482 0.256 7.11 206.3 10.27
1/3/2023 5:30:00 PM 7.54 45.572 0.257 7.11 190.5 10.26
1/3/2023 5:45:00 PM 7.58 45.644 0.258 7.11 182.2 10.24
1/3/2023 6:00:00 PM 7.61 45.698 0.26 7.12 170.6 10.24
1/3/2023 6:15:00 PM 7.63 45.734 0.26 7.12 165.8 10.25
1/3/2023 6:30:00 PM 7.65 45.77 0.262 7.12 157.6 10.22
1/3/2023 6:45:00 PM 7.66 45.788 0.264 7.12 145.6 10.23
1/3/2023 7:00:00 PM 7.68 45.824 0.266 7.11 142.9 10.24
1/3/2023 7:15:00 PM 7.7 45.86 0.269 7.12 126.5 10.23
1/3/2023 7:30:00 PM 7.72 45.896 0.271 7.12 125.2 10.22
1/3/2023 7:45:00 PM 7.74 45.932 0.274 7.12 121.4 10.22
1/3/2023 8:00:00 PM 7.76 45.968 0.277 7.13 116.2 10.21
1/3/2023 8:15:00 PM 7.78 46.004 0.28 7.12 113.5 10.22
1/3/2023 8:30:00 PM 7.8 46.04 0.282 7.12 107.9 10.2
1/3/2023 8:45:00 PM 7.82 46.076 0.285 7.14 100.2 10.21
1/3/2023 9:00:00 PM 7.84 46.112 0.288 7.13 101.9 10.2
1/3/2023 9:15:00 PM 7.86 46.148 0.291 7.14 94.23 10.2
1/3/2023 9:30:00 PM 7.88 46.184 0.293 7.14 96.13 10.18
1/3/2023 9:45:00 PM 7.9 46.22 0.295 7.14 93.42 10.2
1/3/2023 10:00:00 PM 7.92 46.256 0.296 7.14 86.64 10.2
1/3/2023 10:15:00 PM 7.94 46.292 0.299 7.13 88.54 10.2
1/3/2023 10:30:00 PM 7.97 46.346 0.3 7.14 88.18 10.19
1/3/2023 10:45:00 PM 7.98 46.364 0.3 7.14 85.5 10.18
1/3/2023 11:00:00 PM 7.99 46.382 0.299 7.14 88.27 10.2
1/3/2023 11:15:00 PM 8.01 46.418 0.298 7.14 83.29 10.2
1/3/2023 11:30:00 PM 8.02 46.436 0.3 7.14 82.22 10.2
1/3/2023 11:45:00 PM 8.04 46.472 0.301 7.15 81.9 10.19
1/4/2023 12:00:00 AM 8.05 46.49 0.301 7.14 86.35 10.21
1/4/2023 12:15:00 AM 8.06 46.508 0.298 7.14 86.56 10.21
1/4/2023 12:30:00 AM 8.06 46.508 0.297 7.15 85.44 10.19
1/4/2023 12:45:00 AM 8.06 46.508 0.297 7.15 87.72 10.2
1/4/2023 1:00:00 AM 8.06 46.508 0.299 7.16 84.42 10.21
1/4/2023 1:15:00 AM 8.06 46.508 0.301 7.16 83.72 10.21
1/4/2023 1:30:00 AM 8.06 46.508 0.303 7.16 87.84 10.22
1/4/2023 1:45:00 AM 8.06 46.508 0.304 7.17 95.01 10.2
1/4/2023 2:00:00 AM 8.04 46.472 0.303 7.17 99.49 10.21
1/4/2023 2:15:00 AM 8.01 46.418 0.302 7.17 107.3 10.22
1/4/2023 2:30:00 AM 7.97 46.346 0.299 7.17 108.7 10.24
1/4/2023 2:45:00 AM 7.93 46.274 0.296 7.16 109.3 10.26
1/4/2023 3:00:00 AM 7.9 46.22 0.296 7.17 112.6 10.26
1/4/2023 3:15:00 AM 7.88 46.184 0.295 7.16 108.9 10.27
1/4/2023 3:30:00 AM 7.87 46.166 0.296 7.16 112.5 10.26
1/4/2023 3:45:00 AM 7.88 46.184 0.297 7.16 112.6 10.25
1/4/2023 4:00:00 AM 7.89 46.202 0.298 7.15 101.6 10.25
1/4/2023 4:15:00 AM 7.91 46.238 0.298 7.15 95.23 10.25
1/4/2023 4:30:00 AM 7.91 46.238 0.299 7.15 95.4 10.25
1/4/2023 4:45:00 AM 7.92 46.256 0.299 7.16 93.73 10.24
1/4/2023 5:00:00 AM 7.92 46.256 0.299 7.15 87.58 10.24
1/4/2023 5:15:00 AM 7.94 46.292 0.3 7.15 83.18 10.24
1/4/2023 5:30:00 AM 7.96 46.328 0.302 7.15 81.5 10.25
1/4/2023 5:45:00 AM 7.97 46.346 0.302 7.15 76.05 10.25
1/4/2023 6:00:00 AM 7.98 46.364 0.302 7.15 74.94 10.24
1/4/2023 6:15:00 AM 7.99 46.382 0.302 7.15 73.52 10.25
1/4/2023 6:30:00 AM 8 46.4 0.303 7.15 79.79 10.25
1/4/2023 6:45:00 AM 8.01 46.418 0.303 7.15 74.32 10.24
1/4/2023 7:00:00 AM 8.02 46.436 0.304 7.15 73.87 10.25
1/4/2023 7:15:00 AM 8.03 46.454 0.305 7.16 72.17 10.26
1/4/2023 7:30:00 AM 8.03 46.454 0.305 7.16 68.98 10.25
1/4/2023 7:45:00 AM 8.04 46.472 0.306 7.15 70.19 10.25
1/4/2023 8:00:00 AM 8.05 46.49 0.308 7.15 66.04 10.25
1/4/2023 8:15:00 AM 8.07 46.526 0.309 7.15 68.38 10.26
1/4/2023 8:30:00 AM 8.08 46.544 0.309 7.17 68.14 10.25
1/4/2023 8:45:00 AM 8.09 46.562 0.31 7.16 63.3 10.25
1/4/2023 9:00:00 AM 8.1 46.58 0.31 7.16 62.16 10.26
1/4/2023 9:15:00 AM 8.12 46.616 0.311 7.15 61.24 10.28
1/4/2023 9:30:00 AM 8.13 46.634 0.312 7.16 59.65 10.28
1/4/2023 9:45:00 AM 8.15 46.67 0.313 7.16 59.28 10.29
1/4/2023 10:00:00 AM 8.17 46.706 0.314 7.16 56.5 10.28
1/4/2023 10:15:00 AM 8.2 46.76 0.315 7.16 58.18 10.29
1/4/2023 10:30:00 AM 8.23 46.814 0.316 7.16 56.35 10.3
1/4/2023 10:45:00 AM 8.26 46.868 0.316 7.16 53.8 10.31
1/4/2023 11:00:00 AM 8.29 46.922 0.317 7.17 56.11 10.32
1/4/2023 11:15:00 AM 8.32 46.976 0.318 7.18 52.49 10.33
1/4/2023 11:30:00 AM 8.34 47.012 0.319 7.17 51.01 10.34
1/4/2023 11:45:00 AM 8.38 47.084 0.32 7.18 49.53 10.33
1/4/2023 12:00:00 PM 8.41 47.138 0.321 7.18 46.61 10.33
1/4/2023 12:15:00 PM 8.46 47.228 0.323 7.18 47.59 10.35
1/4/2023 12:30:00 PM 8.5 47.3 0.324 7.18 49.73 10.36
1/4/2023 12:45:00 PM 8.55 47.39 0.324 7.18 46.24 10.35
1/4/2023 1:00:00 PM 8.61 47.498 0.325 7.18 46.59 10.36
1/4/2023 1:15:00 PM 8.65 47.57 0.326 7.19 48.46 10.35
1/4/2023 1:30:00 PM 8.7 47.66 0.327 7.19 45.51 10.35
1/4/2023 1:45:00 PM 8.76 47.768 0.328 7.19 45.18 10.35
1/4/2023 2:00:00 PM 8.81 47.858 0.328 7.19 40.39 10.33
1/4/2023 2:15:00 PM 8.86 47.948 0.329 7.19 43.92 10.31
1/4/2023 2:30:00 PM 8.91 48.038 0.33 7.19 40.67 10.32
1/4/2023 2:45:00 PM 8.95 48.11 0.33 7.19 41.86 10.3
1/4/2023 3:00:00 PM 8.99 48.182 0.331 7.19 42.77 10.28
1/4/2023 3:15:00 PM 9.03 48.254 0.331 7.2 42.1 10.26
1/4/2023 3:30:00 PM 9.07 48.326 0.332 7.2 41.7 10.27
1/4/2023 3:45:00 PM 9.1 48.38 0.332 7.19 38.84 10.24
1/4/2023 4:00:00 PM 9.13 48.434 0.333 7.19 37.75 10.23
1/4/2023 4:15:00 PM 9.16 48.488 0.333 7.2 38.81 10.21
1/4/2023 4:30:00 PM 9.18 48.524 0.333 7.19 39.05 10.19
1/4/2023 4:45:00 PM 9.2 48.56 0.334 7.19 37.48 10.18
1/4/2023 5:00:00 PM 9.2 48.56 0.334 7.2 39.82 10.17
1/4/2023 5:15:00 PM 9.21 48.578 0.335 7.19 38.06 10.15
1/4/2023 5:30:00 PM 9.22 48.596 0.335 7.19 40.18 10.13
1/4/2023 5:45:00 PM 9.23 48.614 0.336 7.19 36.26 10.11
1/4/2023 6:00:00 PM 9.24 48.632 0.336 7.19 37.82 10.1
1/4/2023 6:15:00 PM 9.24 48.632 0.337 7.19 40.17 10.07
1/4/2023 6:30:00 PM 9.25 48.65 0.337 7.2 39.74 10.07
1/4/2023 6:45:00 PM 9.25 48.65 0.338 7.2 43.46 10.05
1/4/2023 7:00:00 PM 9.25 48.65 0.339 7.21 38.91 10.02
1/4/2023 7:15:00 PM 9.24 48.632 0.339 7.21 40.75 10.02
1/4/2023 7:30:00 PM 9.24 48.632 0.34 7.21 39.64 10.02
1/4/2023 7:45:00 PM 9.23 48.614 0.341 7.2 37.94 10.01
1/4/2023 8:00:00 PM 9.22 48.596 0.342 7.2 38.76 10.01
1/4/2023 8:15:00 PM 9.21 48.578 0.343 7.19 39.25 10
1/4/2023 8:30:00 PM 9.2 48.56 0.343 7.2 41.19 10.01
1/4/2023 8:45:00 PM 9.2 48.56 0.343 7.2 37.96 10.01
1/4/2023 9:00:00 PM 9.19 48.542 0.343 7.2 40.85 10
1/4/2023 9:15:00 PM 9.18 48.524 0.344 7.19 39.31 10
1/4/2023 9:30:00 PM 9.17 48.506 0.344 7.2 39.9 10
1/4/2023 9:45:00 PM 9.17 48.506 0.344 7.2 37.04 10
1/4/2023 10:00:00 PM 9.16 48.488 0.345 7.2 37.05 9.99
1/4/2023 10:15:00 PM 9.15 48.47 0.345 7.2 38.74 10
1/4/2023 10:30:00 PM 9.13 48.434 0.345 7.2 38.87 9.99
1/4/2023 10:45:00 PM 9.12 48.416 0.346 7.19 35.24 10
1/4/2023 11:00:00 PM 9.12 48.416 0.347 7.2 34.68 9.99
1/4/2023 11:15:00 PM 9.11 48.398 0.347 7.2 37.49 10
1/4/2023 11:30:00 PM 9.1 48.38 0.347 7.2 35.89 9.99
1/4/2023 11:45:00 PM 9.1 48.38 0.347 7.21 37.1 9.98
1/5/2023 12:00:00 AM 9.1 48.38 0.347 7.21 37.43 10
1/5/2023 12:15:00 AM 9.1 48.38 0.348 7.2 35.47 10.01
1/5/2023 12:30:00 AM 9.08 48.344 0.348 7.2 36.44 10.02
1/5/2023 12:45:00 AM 9.07 48.326 0.348 7.2 43.24 10.02
1/5/2023 1:00:00 AM 9.07 48.326 0.348 7.22 36.38 10.02
1/5/2023 1:15:00 AM 9.06 48.308 0.348 7.21 37.1 10.02
1/5/2023 1:30:00 AM 9.06 48.308 0.348 7.22 38.13 10.03
1/5/2023 1:45:00 AM 9.05 48.29 0.348 7.22 38.37 10.02
1/5/2023 2:00:00 AM 9.04 48.272 0.348 7.22 34.23 10.03
1/5/2023 2:15:00 AM 9.03 48.254 0.349 7.23 38.18 10.04
1/5/2023 2:30:00 AM 9.01 48.218 0.349 7.22 35.54 10.03
1/5/2023 2:45:00 AM 8.99 48.182 0.35 7.22 39.65 10.05
1/5/2023 3:00:00 AM 8.97 48.146 0.35 7.22 37.42 10.05
1/5/2023 3:15:00 AM 8.95 48.11 0.351 7.22 33.59 10.05
1/5/2023 3:30:00 AM 8.93 48.074 0.351 7.22 34.71 10.07
1/5/2023 3:45:00 AM 8.92 48.056 0.351 7.23 33.32 10.07
1/5/2023 4:00:00 AM 8.9 48.02 0.352 7.23 34.1 10.08
1/5/2023 4:15:00 AM 8.87 47.966 0.352 7.23 37.67 10.09
1/5/2023 4:30:00 AM 8.84 47.912 0.352 7.24 36.24 10.09
1/5/2023 4:45:00 AM 8.82 47.876 0.353 7.24 35.24 10.1
1/5/2023 5:00:00 AM 8.79 47.822 0.353 7.24 36.81 10.11
1/5/2023 5:15:00 AM 8.77 47.786 0.353 7.24 38.05 10.12
1/5/2023 5:30:00 AM 8.75 47.75 0.354 7.24 33.89 10.12
1/5/2023 5:45:00 AM 8.72 47.696 0.354 7.24 35.11 10.14
1/5/2023 6:00:00 AM 8.68 47.624 0.354 7.24 33.62 10.16
1/5/2023 6:15:00 AM 8.66 47.588 0.355 7.24 34.3 10.17
1/5/2023 6:30:00 AM 8.62 47.516 0.355 7.24 32.21 10.19
1/5/2023 6:45:00 AM 8.58 47.444 0.355 7.25 32.64 10.21
1/5/2023 7:00:00 AM 8.55 47.39 0.356 7.24 32.74 10.19
1/5/2023 7:15:00 AM 8.52 47.336 0.356 7.24 31.56 10.21
1/5/2023 7:30:00 AM 8.49 47.282 0.356 7.24 30.78 10.24
1/5/2023 7:45:00 AM 8.47 47.246 0.357 7.24 33.73 10.26
1/5/2023 8:00:00 AM 8.45 47.21 0.357 7.24 31.99 10.26
1/5/2023 8:15:00 AM 8.43 47.174 0.358 7.24 28.01 10.27
1/5/2023 8:30:00 AM 8.4 47.12 0.358 7.24 30.22 10.29
1/5/2023 8:45:00 AM 8.38 47.084 0.358 7.25 31.18 10.32
1/5/2023 9:00:00 AM 8.38 47.084 0.359 7.24 28.88 10.35
1/5/2023 9:15:00 AM 8.38 47.084 0.359 7.25 28.01 10.38
1/5/2023 9:30:00 AM 8.39 47.102 0.359 7.26 26.72 10.4
1/5/2023 9:45:00 AM 8.4 47.12 0.359 7.25 26.15 10.41
1/5/2023 10:00:00 AM 8.44 47.192 0.36 7.26 27.24 10.47
1/5/2023 10:15:00 AM 8.48 47.264 0.36 7.26 24.64 10.52
1/5/2023 10:30:00 AM 8.51 47.318 0.36 7.26 24.19 10.55
1/5/2023 10:45:00 AM 8.58 47.444 0.361 7.26 24.87 10.59
1/5/2023 11:00:00 AM 8.66 47.588 0.361 7.27 26.29 10.65
1/5/2023 11:15:00 AM 8.69 47.642 0.361 7.27 24.71 10.68
1/5/2023 11:30:00 AM 8.71 47.678 0.362 7.26 25.25 10.67
1/5/2023 11:45:00 AM 8.8 47.84 0.362 7.27 26.07 10.72
1/5/2023 12:00:00 PM 8.92 48.056 0.362 7.28 23.91 10.81
1/5/2023 12:15:00 PM 9.03 48.254 0.362 7.3 22.22 10.86
1/5/2023 12:30:00 PM 9.12 48.416 0.362 7.3 22.25 10.9
1/5/2023 12:45:00 PM 9.22 48.596 0.363 7.29 22.49 10.92
1/5/2023 1:00:00 PM 9.33 48.794 0.363 7.3 20.9 10.96
1/5/2023 1:15:00 PM 9.42 48.956 0.363 7.29 21.64 10.95
1/5/2023 1:30:00 PM 9.51 49.118 0.363 7.3 21.04 10.94
1/5/2023 1:45:00 PM 9.57 49.226 0.363 7.3 20.48 10.91
1/5/2023 2:00:00 PM 9.63 49.334 0.364 7.3 25.15 10.88
1/5/2023 2:15:00 PM 9.68 49.424 0.364 7.3 23.06 10.86
1/5/2023 2:30:00 PM 9.72 49.496 0.364 7.29 21.6 10.82
1/5/2023 2:45:00 PM 9.77 49.586 0.364 7.3 24.13 10.79
1/5/2023 3:00:00 PM 9.82 49.676 0.364 7.3 20.82 10.75
1/5/2023 3:15:00 PM 9.88 49.784 0.365 7.3 24.05 10.7
1/5/2023 3:30:00 PM 9.97 49.946 0.365 7.3 20.62 10.68
1/5/2023 3:45:00 PM 10.03 50.054 0.365 7.29 21.57 10.62
1/5/2023 4:00:00 PM 10.05 50.09 0.365 7.29 20.18 10.57
1/5/2023 4:15:00 PM 10.07 50.126 0.366 7.28 22.97 10.53
1/5/2023 4:30:00 PM 10.08 50.144 0.366 7.29 22.26 10.48
1/5/2023 4:45:00 PM 10.08 50.144 0.366 7.29 21.36 10.42
1/5/2023 5:00:00 PM 10.07 50.126 0.366 7.29 23.64 10.38
1/5/2023 5:15:00 PM 10.05 50.09 0.367 7.29 22.75 10.35
1/5/2023 5:30:00 PM 10.03 50.054 0.367 7.28 22.41 10.31
1/5/2023 5:45:00 PM 10.02 50.036 0.367 7.29 24.79 10.27
1/5/2023 6:00:00 PM 10 50 0.367 7.3 23.27 10.24
1/5/2023 6:15:00 PM 9.97 49.946 0.367 7.29 23.45 10.2
1/5/2023 6:30:00 PM 9.94 49.892 0.368 7.29 21.96 10.18
1/5/2023 6:45:00 PM 9.9 49.82 0.368 7.28 24.26 10.17
1/5/2023 7:00:00 PM 9.85 49.73 0.368 7.29 24.31 10.14
1/5/2023 7:15:00 PM 9.81 49.658 0.369 7.28 24.87 10.12
1/5/2023 7:30:00 PM 9.75 49.55 0.369 7.29 24.54 10.11
1/5/2023 7:45:00 PM 9.68 49.424 0.369 7.28 27.87 10.1
1/5/2023 8:00:00 PM 9.61 49.298 0.369 7.29 24.79 10.09
1/5/2023 8:15:00 PM 9.55 49.19 0.369 7.28 26.39 10.09
1/5/2023 8:30:00 PM 9.47 49.046 0.37 7.28 26.63 10.09
1/5/2023 8:45:00 PM 9.4 48.92 0.37 7.27 28.66 10.09
1/5/2023 9:00:00 PM 9.33 48.794 0.37 7.28 27.3 10.09
1/5/2023 9:15:00 PM 9.25 48.65 0.37 7.28 24.95 10.1
1/5/2023 9:30:00 PM 9.17 48.506 0.371 7.27 25.36 10.11
1/5/2023 9:45:00 PM 9.1 48.38 0.371 7.28 24.88 10.13
1/5/2023 10:00:00 PM 9.02 48.236 0.371 7.28 27.86 10.13
1/5/2023 10:15:00 PM 8.95 48.11 0.371 7.27 25.48 10.14
1/5/2023 10:30:00 PM 8.88 47.984 0.371 7.27 25.36 10.16
1/5/2023 10:45:00 PM 8.81 47.858 0.372 7.27 27 10.17
1/5/2023 11:00:00 PM 8.75 47.75 0.372 7.28 27.69 10.19
1/5/2023 11:15:00 PM 8.68 47.624 0.373 7.28 24.25 10.2
1/5/2023 11:30:00 PM 8.62 47.516 0.374 7.28 25.64 10.21
1/5/2023 11:45:00 PM 8.56 47.408 0.375 7.27 27.24 10.23
1/6/2023 12:00:00 AM 8.5 47.3 0.374 7.27 26.3 10.24
1/6/2023 12:15:00 AM 8.45 47.21 0.373 7.27 26.1 10.25
1/6/2023 12:30:00 AM 8.4 47.12 0.373 7.27 25.46 10.27
1/6/2023 12:45:00 AM 8.36 47.048 0.373 7.28 28.8 10.29
1/6/2023 1:00:00 AM 8.32 46.976 0.373 7.27 25.27 10.3
1/6/2023 1:15:00 AM 8.28 46.904 0.373 7.27 24.04 10.32
1/6/2023 1:30:00 AM 8.25 46.85 0.373 7.27 24.9 10.33
1/6/2023 1:45:00 AM 8.21 46.778 0.374 7.27 24.59 10.34
1/6/2023 2:00:00 AM 8.17 46.706 0.374 7.28 23.69 10.35
1/6/2023 2:15:00 AM 8.14 46.652 0.374 7.28 22.72 10.37
1/6/2023 2:30:00 AM 8.11 46.598 0.374 7.27 26.56 10.37
1/6/2023 2:45:00 AM 8.09 46.562 0.374 7.27 24.7 10.38
1/6/2023 3:00:00 AM 8.06 46.508 0.374 7.28 25.24 10.4
1/6/2023 3:15:00 AM 8.03 46.454 0.374 7.28 22.62 10.41
1/6/2023 3:30:00 AM 8.02 46.436 0.374 7.27 24.68 10.41
1/6/2023 3:45:00 AM 7.99 46.382 0.375 7.28 23.05 10.42
1/6/2023 4:00:00 AM 7.98 46.364 0.375 7.28 23.49 10.44
1/6/2023 4:15:00 AM 7.97 46.346 0.375 7.28 24.44 10.45
1/6/2023 4:30:00 AM 7.96 46.328 0.375 7.28 21.65 10.45
1/6/2023 4:45:00 AM 7.96 46.328 0.375 7.28 22.7 10.43
1/6/2023 5:00:00 AM 7.95 46.31 0.375 7.29 24.43 10.45
1/6/2023 5:15:00 AM 7.96 46.328 0.375 7.29 23.35 10.46
1/6/2023 5:30:00 AM 7.96 46.328 0.375 7.3 23.01 10.47
1/6/2023 5:45:00 AM 7.96 46.328 0.375 7.29 20.72 10.47
1/6/2023 6:00:00 AM 7.97 46.346 0.376 7.28 21.16 10.47
1/6/2023 6:15:00 AM 7.98 46.364 0.376 7.28 22.16 10.46
1/6/2023 6:30:00 AM 7.99 46.382 0.376 7.28 20.38 10.46
1/6/2023 6:45:00 AM 7.99 46.382 0.376 7.29 22.18 10.47
1/6/2023 7:00:00 AM 8 46.4 0.376 7.28 21.98 10.46
1/6/2023 7:15:00 AM 8.01 46.418 0.376 7.28 20.69 10.44
1/6/2023 7:30:00 AM 8.02 46.436 0.376 7.29 19.71 10.44
1/6/2023 7:45:00 AM 8.03 46.454 0.376 7.3 19.3 10.46
1/6/2023 8:00:00 AM 8.04 46.472 0.376 7.29 21 10.44
1/6/2023 8:15:00 AM 8.05 46.49 0.376 7.29 20.43 10.46
1/6/2023 8:30:00 AM 8.06 46.508 0.376 7.3 19.43 10.48
1/6/2023 8:45:00 AM 8.08 46.544 0.376 7.3 18.56 10.5
1/6/2023 9:00:00 AM 8.09 46.562 0.376 7.29 18.67 10.52
1/6/2023 9:15:00 AM 8.11 46.598 0.376 7.29 18.59 10.57
1/6/2023 9:30:00 AM 8.11 46.598 0.376 7.3 18.56 10.59
1/6/2023 9:45:00 AM 8.13 46.634 0.377 7.3 17.78 10.66
1/6/2023 10:00:00 AM 8.15 46.67 0.376 7.31 19.34 10.7
1/6/2023 10:15:00 AM 8.17 46.706 0.376 7.31 17.6 10.75
1/6/2023 10:30:00 AM 8.22 46.796 0.376 7.32 16.06 10.82
1/6/2023 10:45:00 AM 8.26 46.868 0.376 7.31 15.77 10.88
1/6/2023 11:00:00 AM 8.29 46.922 0.376 7.33 16.87 10.94
1/6/2023 11:15:00 AM 8.33 46.994 0.376 7.33 16.44 10.98
1/6/2023 11:30:00 AM 8.38 47.084 0.375 7.33 15.95 11.07
1/6/2023 11:45:00 AM 8.44 47.192 0.375 7.33 14.75 11.13
1/6/2023 12:00:00 PM 8.49 47.282 0.375 7.34 16.97 11.17
1/6/2023 12:15:00 PM 8.53 47.354 0.375 7.34 15.95 11.18
1/6/2023 12:30:00 PM 8.56 47.408 0.375 7.35 14.69 11.22
1/6/2023 12:45:00 PM 8.6 47.48 0.375 7.35 14.89 11.25
1/6/2023 1:00:00 PM 8.62 47.516 0.375 7.35 14.94 11.24
1/6/2023 1:15:00 PM 8.65 47.57 0.375 7.36 14.05 11.25
1/6/2023 1:30:00 PM 8.68 47.624 0.376 7.36 17.25 11.3
1/6/2023 1:45:00 PM 8.68 47.624 0.376 7.36 16.04 11.23
1/6/2023 2:00:00 PM 8.67 47.606 0.376 7.35 14.59 11.17
1/6/2023 2:15:00 PM 8.67 47.606 0.376 7.35 16.13 11.17
1/6/2023 2:30:00 PM 8.67 47.606 0.377 7.36 14.56 11.12
1/6/2023 2:45:00 PM 8.67 47.606 0.377 7.35 14.02 11.1
1/6/2023 3:00:00 PM 8.66 47.588 0.377 7.36 14.4 11.08
1/6/2023 3:15:00 PM 8.64 47.552 0.377 7.36 15.17 11.1
1/6/2023 3:30:00 PM 8.61 47.498 0.377 7.36 16.63 11.05
1/6/2023 3:45:00 PM 8.59 47.462 0.378 7.35 14.88 11
1/6/2023 4:00:00 PM 8.56 47.408 0.378 7.35 12.78 10.97
1/6/2023 4:15:00 PM 8.54 47.372 0.378 7.35 13.16 10.94
1/6/2023 4:30:00 PM 8.52 47.336 0.379 7.35 14.18 10.88
1/6/2023 4:45:00 PM 8.48 47.264 0.379 7.35 14.71 10.87
1/6/2023 5:00:00 PM 8.45 47.21 0.379 7.35 15.03 10.85
1/6/2023 5:15:00 PM 8.42 47.156 0.379 7.35 15.45 10.81
1/6/2023 5:30:00 PM 8.4 47.12 0.38 7.34 15.46 10.78
1/6/2023 5:45:00 PM 8.36 47.048 0.38 7.34 16.25 10.77
1/6/2023 6:00:00 PM 8.33 46.994 0.38 7.35 16.32 10.75
1/6/2023 6:15:00 PM 8.3 46.94 0.38 7.34 17.03 10.74
1/6/2023 6:30:00 PM 8.27 46.886 0.381 7.34 16.48 10.72
1/6/2023 6:45:00 PM 8.24 46.832 0.381 7.34 17.92 10.71
1/6/2023 7:00:00 PM 8.2 46.76 0.382 7.33 18.86 10.69
1/6/2023 7:15:00 PM 8.17 46.706 0.383 7.33 18.37 10.66
1/6/2023 7:30:00 PM 8.14 46.652 0.383 7.33 18.57 10.66
1/6/2023 7:45:00 PM 8.11 46.598 0.383 7.33 18.24 10.64
1/6/2023 8:00:00 PM 8.09 46.562 0.383 7.32 18.67 10.62
1/6/2023 8:15:00 PM 8.06 46.508 0.383 7.32 18.77 10.62
1/6/2023 8:30:00 PM 8.03 46.454 0.383 7.32 19.09 10.61
1/6/2023 8:45:00 PM 8 46.4 0.384 7.32 19.86 10.61
1/6/2023 9:00:00 PM 7.97 46.346 0.384 7.33 21.5 10.59
1/6/2023 9:15:00 PM 7.95 46.31 0.383 7.32 19.38 10.61
1/6/2023 9:30:00 PM 7.93 46.274 0.383 7.31 20.58 10.59
1/6/2023 9:45:00 PM 7.9 46.22 0.383 7.31 18.71 10.6
1/6/2023 10:00:00 PM 7.88 46.184 0.383 7.32 18.38 10.6
1/6/2023 10:15:00 PM 7.86 46.148 0.383 7.31 18.43 10.6
1/6/2023 10:30:00 PM 7.84 46.112 0.384 7.31 19.36 10.61
1/6/2023 10:45:00 PM 7.82 46.076 0.384 7.31 18.5 10.62
1/6/2023 11:00:00 PM 7.81 46.058 0.384 7.31 17.99 10.6
1/6/2023 11:15:00 PM 7.79 46.022 0.385 7.31 17.58 10.62
1/6/2023 11:30:00 PM 7.78 46.004 0.384 7.31 19.41 10.62
1/6/2023 11:45:00 PM 7.77 45.986 0.385 7.31 21.31 10.61
1/7/2023 12:00:00 AM 7.75 45.95 0.385 7.32 19.82 10.62
1/7/2023 12:15:00 AM 7.74 45.932 0.385 7.32 18.99 10.62
1/7/2023 12:30:00 AM 7.73 45.914 0.385 7.31 23.09 10.63
1/7/2023 12:45:00 AM 7.73 45.914 0.385 7.32 18.77 10.63
1/7/2023 1:00:00 AM 7.72 45.896 0.385 7.31 17.28 10.64
1/7/2023 1:15:00 AM 7.71 45.878 0.385 7.32 19.3 10.65
1/7/2023 1:30:00 AM 7.7 45.86 0.386 7.31 16.41 10.65
1/7/2023 1:45:00 AM 7.7 45.86 0.386 7.32 17.91 10.64
1/7/2023 2:00:00 AM 7.7 45.86 0.386 7.31 18.81 10.65
1/7/2023 2:15:00 AM 7.69 45.842 0.386 7.31 20.41 10.65
1/7/2023 2:30:00 AM 7.69 45.842 0.386 7.31 17.12 10.65
1/7/2023 2:45:00 AM 7.69 45.842 0.386 7.32 19.12 10.63
1/7/2023 3:00:00 AM 7.69 45.842 0.386 7.33 16.73 10.66
1/7/2023 3:15:00 AM 7.68 45.824 0.386 7.33 20.15 10.65
1/7/2023 3:30:00 AM 7.67 45.806 0.386 7.34 17.05 10.65
1/7/2023 3:45:00 AM 7.67 45.806 0.387 7.34 19.43 10.67
1/7/2023 4:00:00 AM 7.67 45.806 0.387 7.33 18.24 10.65
1/7/2023 4:15:00 AM 7.67 45.806 0.387 7.31 18.13 10.66
1/7/2023 4:30:00 AM 7.67 45.806 0.387 7.33 18.63 10.66
1/7/2023 4:45:00 AM 7.67 45.806 0.387 7.32 18.03 10.65
1/7/2023 5:00:00 AM 7.66 45.788 0.387 7.32 17.14 10.67
1/7/2023 5:15:00 AM 7.65 45.77 0.387 7.32 17.22 10.66
1/7/2023 5:30:00 AM 7.65 45.77 0.388 7.31 18.51 10.64
1/7/2023 5:45:00 AM 7.64 45.752 0.388 7.32 17.46 10.67
1/7/2023 6:00:00 AM 7.64 45.752 0.388 7.32 19.77 10.68
1/7/2023 6:15:00 AM 7.63 45.734 0.388 7.32 19.11 10.68
1/7/2023 6:30:00 AM 7.63 45.734 0.388 7.32 19.2 10.66
1/7/2023 6:45:00 AM 7.62 45.716 0.389 7.32 17.27 10.67
1/7/2023 7:00:00 AM 7.62 45.716 0.389 7.33 20.98 10.67
1/7/2023 7:15:00 AM 7.61 45.698 0.389 7.33 16.16 10.69
1/7/2023 7:30:00 AM 7.61 45.698 0.389 7.33 16.17 10.7
1/7/2023 7:45:00 AM 7.6 45.68 0.389 7.33 15.59 10.7
1/7/2023 8:00:00 AM 7.61 45.698 0.39 7.33 17.19 10.71
1/7/2023 8:15:00 AM 7.6 45.68 0.39 7.33 16.33 10.73
1/7/2023 8:30:00 AM 7.6 45.68 0.39 7.33 13.7 10.72
1/7/2023 8:45:00 AM 7.61 45.698 0.39 7.33 15.24 10.77
1/7/2023 9:00:00 AM 7.62 45.716 0.391 7.33 14.66 10.81
1/7/2023 9:15:00 AM 7.64 45.752 0.391 7.34 14.98 10.84
1/7/2023 9:30:00 AM 7.65 45.77 0.391 7.34 12.74 10.88
1/7/2023 9:45:00 AM 7.67 45.806 0.391 7.35 13.82 10.91
1/7/2023 10:00:00 AM 7.69 45.842 0.391 7.34 15.5 10.96
1/7/2023 10:15:00 AM 7.7 45.86 0.392 7.35 13.05 10.98
1/7/2023 10:30:00 AM 7.72 45.896 0.392 7.35 10.75 11
1/7/2023 10:45:00 AM 7.74 45.932 0.392 7.36 11.61 11.05
1/7/2023 11:00:00 AM 7.77 45.986 0.392 7.36 12.75 11.1
1/7/2023 11:15:00 AM 7.81 46.058 0.392 7.36 11.51 11.15
1/7/2023 11:30:00 AM 7.85 46.13 0.392 7.36 13.21 11.2
1/7/2023 11:45:00 AM 7.88 46.184 0.392 7.38 12.23 11.23
1/7/2023 12:00:00 PM 7.92 46.256 0.393 7.38 12.66 11.26
1/7/2023 12:15:00 PM 7.97 46.346 0.393 7.38 13.46 11.31
1/7/2023 12:30:00 PM 8.02 46.436 0.393 7.39 9.87 11.34
1/7/2023 12:45:00 PM 8.07 46.526 0.393 7.39 9.45 11.38
1/7/2023 1:00:00 PM 8.13 46.634 0.393 7.4 10.66 11.44
1/7/2023 1:15:00 PM 8.19 46.742 0.394 7.4 11.29 11.5
1/7/2023 1:30:00 PM 8.25 46.85 0.393 7.41 11.05 11.57
1/7/2023 1:45:00 PM 8.31 46.958 0.393 7.43 10.34 11.6
1/7/2023 2:00:00 PM 8.34 47.012 0.393 7.43 8.99 11.61
1/7/2023 2:15:00 PM 8.38 47.084 0.394 7.42 12.78 11.56
1/7/2023 2:30:00 PM 8.43 47.174 0.394 7.42 10.01 11.59
1/7/2023 2:45:00 PM 8.47 47.246 0.394 7.43 10.76 11.58
1/7/2023 3:00:00 PM 8.5 47.3 0.394 7.42 10.12 11.57
1/7/2023 3:15:00 PM 8.53 47.354 0.394 7.42 9.76 11.53
1/7/2023 3:30:00 PM 8.55 47.39 0.394 7.42 9.71 11.47
1/7/2023 3:45:00 PM 8.56 47.408 0.395 7.42 12.62 11.44
1/7/2023 4:00:00 PM 8.56 47.408 0.395 7.41 9.55 11.4
1/7/2023 4:15:00 PM 8.56 47.408 0.395 7.41 9.66 11.32
1/7/2023 4:30:00 PM 8.55 47.39 0.395 7.41 10.62 11.26
1/7/2023 4:45:00 PM 8.53 47.354 0.395 7.4 9.41 11.19
1/7/2023 5:00:00 PM 8.51 47.318 0.396 7.41 11.55 11.15
1/7/2023 5:15:00 PM 8.5 47.3 0.396 7.41 9.98 11.07
1/7/2023 5:30:00 PM 8.49 47.282 0.396 7.4 10.55 11.02
1/7/2023 5:45:00 PM 8.47 47.246 0.396 7.39 10.05 10.95
1/7/2023 6:00:00 PM 8.45 47.21 0.397 7.39 10.78 10.93
1/7/2023 6:15:00 PM 8.41 47.138 0.397 7.39 11.27 10.9
1/7/2023 6:30:00 PM 8.38 47.084 0.397 7.38 11.38 10.85
1/7/2023 6:45:00 PM 8.35 47.03 0.398 7.38 13.35 10.82
1/7/2023 7:00:00 PM 8.32 46.976 0.398 7.38 12.92 10.8
1/7/2023 7:15:00 PM 8.3 46.94 0.398 7.37 14.04 10.77
1/7/2023 7:30:00 PM 8.28 46.904 0.398 7.37 13.2 10.73
1/7/2023 7:45:00 PM 8.25 46.85 0.399 7.38 14.56 10.73
1/7/2023 8:00:00 PM 8.22 46.796 0.399 7.37 15.72 10.71
1/7/2023 8:15:00 PM 8.19 46.742 0.399 7.36 15.63 10.69
1/7/2023 8:30:00 PM 8.16 46.688 0.399 7.37 15.68 10.67
1/7/2023 8:45:00 PM 8.12 46.616 0.399 7.36 15.56 10.67
1/7/2023 9:00:00 PM 8.09 46.562 0.4 7.37 17.86 10.66
1/7/2023 9:15:00 PM 8.05 46.49 0.4 7.37 15.3 10.65
1/7/2023 9:30:00 PM 8.01 46.418 0.4 7.37 14.98 10.67
1/7/2023 9:45:00 PM 7.98 46.364 0.4 7.36 13.89 10.65
1/7/2023 10:00:00 PM 7.96 46.328 0.401 7.35 15.51 10.67
1/7/2023 10:15:00 PM 7.93 46.274 0.401 7.36 14.7 10.67
1/7/2023 10:30:00 PM 7.9 46.22 0.401 7.36 15.88 10.67
1/7/2023 10:45:00 PM 7.86 46.148 0.402 7.37 14.13 10.67
1/7/2023 11:00:00 PM 7.84 46.112 0.402 7.36 14.11 10.68
1/7/2023 11:15:00 PM 7.83 46.094 0.402 7.36 14.2 10.69
1/7/2023 11:30:00 PM 7.81 46.058 0.402 7.36 14.15 10.68
1/7/2023 11:45:00 PM 7.79 46.022 0.402 7.35 13.48 10.7
1/8/2023 12:00:00 AM 7.78 46.004 0.402 7.36 13.23 10.7
1/8/2023 12:15:00 AM 7.76 45.968 0.402 7.36 14.08 10.7
1/8/2023 12:30:00 AM 7.74 45.932 0.402 7.37 14.75 10.7
1/8/2023 12:45:00 AM 7.73 45.914 0.403 7.36 14.28 10.71
1/8/2023 1:00:00 AM 7.71 45.878 0.403 7.36 11.95 10.73
1/8/2023 1:15:00 AM 7.7 45.86 0.403 7.36 13.47 10.72
1/8/2023 1:30:00 AM 7.67 45.806 0.403 7.35 14.4 10.72
1/8/2023 1:45:00 AM 7.65 45.77 0.403 7.35 13.38 10.73
1/8/2023 2:00:00 AM 7.63 45.734 0.404 7.36 14.14 10.74
1/8/2023 2:15:00 AM 7.61 45.698 0.404 7.36 14.54 10.73
1/8/2023 2:30:00 AM 7.6 45.68 0.404 7.36 14.69 10.75
1/8/2023 2:45:00 AM 7.59 45.662 0.404 7.35 14.15 10.75
1/8/2023 3:00:00 AM 7.59 45.662 0.405 7.36 17.64 10.76
1/8/2023 3:15:00 AM 7.58 45.644 0.406 7.36 14.86 10.76
1/8/2023 3:30:00 AM 7.56 45.608 0.406 7.36 15.4 10.78
1/8/2023 3:45:00 AM 7.55 45.59 0.405 7.36 14.56 10.77
1/8/2023 4:00:00 AM 7.55 45.59 0.405 7.36 14.96 10.78
1/8/2023 4:15:00 AM 7.54 45.572 0.405 7.37 14.75 10.79
1/8/2023 4:30:00 AM 7.54 45.572 0.405 7.36 12.96 10.79
1/8/2023 4:45:00 AM 7.54 45.572 0.405 7.37 15.21 10.8
1/8/2023 5:00:00 AM 7.53 45.554 0.405 7.36 15.13 10.78
1/8/2023 5:15:00 AM 7.52 45.536 0.405 7.37 16.24 10.8
1/8/2023 5:30:00 AM 7.51 45.518 0.406 7.36 14.82 10.8
1/8/2023 5:45:00 AM 7.5 45.5 0.406 7.36 14.65 10.8
1/8/2023 6:00:00 AM 7.49 45.482 0.406 7.36 14.38 10.8
1/8/2023 6:15:00 AM 7.49 45.482 0.406 7.36 18.17 10.79
1/8/2023 6:30:00 AM 7.49 45.482 0.406 7.36 13.78 10.81
1/8/2023 6:45:00 AM 7.48 45.464 0.407 7.36 15.22 10.8
1/8/2023 7:00:00 AM 7.47 45.446 0.406 7.37 17.13 10.82
1/8/2023 7:15:00 AM 7.48 45.464 0.407 7.37 13.72 10.8
1/8/2023 7:30:00 AM 7.48 45.464 0.407 7.36 12.72 10.81
1/8/2023 7:45:00 AM 7.48 45.464 0.407 7.38 12.87 10.82
1/8/2023 8:00:00 AM 7.48 45.464 0.407 7.38 14.58 10.83
1/8/2023 8:15:00 AM 7.48 45.464 0.407 7.37 12.45 10.83
1/8/2023 8:30:00 AM 7.49 45.482 0.407 7.38 12.24 10.88
1/8/2023 8:45:00 AM 7.5 45.5 0.408 7.37 13.93 10.9
1/8/2023 9:00:00 AM 7.52 45.536 0.408 7.38 11.07 10.93
1/8/2023 9:15:00 AM 7.53 45.554 0.408 7.38 11.85 10.95
1/8/2023 9:30:00 AM 7.55 45.59 0.408 7.38 11.92 11
1/8/2023 9:45:00 AM 7.58 45.644 0.408 7.39 9.65 11.08
1/8/2023 10:00:00 AM 7.6 45.68 0.409 7.4 8.84 11.12
1/8/2023 10:15:00 AM 7.63 45.734 0.409 7.4 9.09 11.19
1/8/2023 10:30:00 AM 7.65 45.77 0.409 7.4 8.33 11.21
1/8/2023 10:45:00 AM 7.68 45.824 0.409 7.4 8.42 11.27
1/8/2023 11:00:00 AM 7.72 45.896 0.409 7.4 8.62 11.34
1/8/2023 11:15:00 AM 7.74 45.932 0.409 7.41 7.56 11.38
1/8/2023 11:30:00 AM 7.77 45.986 0.409 7.41 9.05 11.44
1/8/2023 11:45:00 AM 7.8 46.04 0.41 7.42 7.34 11.48
1/8/2023 12:00:00 PM 7.85 46.13 0.41 7.43 8.23 11.57
1/8/2023 12:15:00 PM 7.9 46.22 0.41 7.43 7.57 11.63
1/8/2023 12:30:00 PM 7.96 46.328 0.41 7.43 7.92 11.68
1/8/2023 12:45:00 PM 8.02 46.436 0.41 7.44 7.14 11.72
1/8/2023 1:00:00 PM 8.08 46.544 0.41 7.44 7.31 11.78
1/8/2023 1:15:00 PM 8.12 46.616 0.411 7.45 9.18 11.8
1/8/2023 1:30:00 PM 8.19 46.742 0.41 7.45 7.54 11.81
1/8/2023 1:45:00 PM 8.24 46.832 0.41 7.46 7.64 11.84
1/8/2023 2:00:00 PM 8.3 46.94 0.411 7.46 7.91 11.88
1/8/2023 2:15:00 PM 8.34 47.012 0.411 7.46 6.99 11.89
1/8/2023 2:30:00 PM 8.37 47.066 0.411 7.47 7.45 11.86
1/8/2023 2:45:00 PM 8.39 47.102 0.411 7.46 7.84 11.84
1/8/2023 3:00:00 PM 8.42 47.156 0.411 7.47 7.26 11.83
1/8/2023 3:15:00 PM 8.46 47.228 0.411 7.46 6.89 11.82
1/8/2023 3:30:00 PM 8.49 47.282 0.411 7.47 7.85 11.79
1/8/2023 3:45:00 PM 8.51 47.318 0.412 7.47 8.89 11.71
1/8/2023 4:00:00 PM 8.52 47.336 0.412 7.48 7.53 11.66
1/8/2023 4:15:00 PM 8.52 47.336 0.412 7.47 7.54 11.6
1/8/2023 4:30:00 PM 8.51 47.318 0.412 7.48 6.9 11.52
1/8/2023 4:45:00 PM 8.5 47.3 0.412 7.46 8.54 11.44
1/8/2023 5:00:00 PM 8.49 47.282 0.412 7.46 9 11.35
1/8/2023 5:15:00 PM 8.49 47.282 0.412 7.45 7.78 11.27
1/8/2023 5:30:00 PM 8.48 47.264 0.413 7.45 8.62 11.21
1/8/2023 5:45:00 PM 8.45 47.21 0.413 7.44 7.06 11.16
1/8/2023 6:00:00 PM 8.42 47.156 0.413 7.44 7.69 11.1
1/8/2023 6:15:00 PM 8.39 47.102 0.413 7.43 8.88 11.04
1/8/2023 6:30:00 PM 8.36 47.048 0.413 7.44 8.8 11.01
1/8/2023 6:45:00 PM 8.33 46.994 0.414 7.43 10.66 10.94
1/8/2023 7:00:00 PM 8.31 46.958 0.414 7.42 10.16 10.9
1/8/2023 7:15:00 PM 8.29 46.922 0.414 7.42 10.95 10.86
1/8/2023 7:30:00 PM 8.26 46.868 0.414 7.42 12.04 10.84
1/8/2023 7:45:00 PM 8.22 46.796 0.415 7.43 11.34 10.79
1/8/2023 8:00:00 PM 8.17 46.706 0.415 7.42 10.66 10.76
1/8/2023 8:15:00 PM 8.12 46.616 0.415 7.41 9.88 10.73
1/8/2023 8:30:00 PM 8.07 46.526 0.415 7.4 13.33 10.72
1/8/2023 8:45:00 PM 8.01 46.418 0.416 7.41 11.66 10.71
1/8/2023 9:00:00 PM 7.95 46.31 0.416 7.41 9.75 10.7
1/8/2023 9:15:00 PM 7.89 46.202 0.416 7.41 10.08 10.68
1/8/2023 9:30:00 PM 7.82 46.076 0.416 7.41 11.82 10.71
1/8/2023 9:45:00 PM 7.76 45.968 0.417 7.41 10.73 10.7
1/8/2023 10:00:00 PM 7.69 45.842 0.417 7.4 9.87 10.68
1/8/2023 10:15:00 PM 7.62 45.716 0.417 7.4 12.89 10.7
1/8/2023 10:30:00 PM 7.56 45.608 0.417 7.4 11.05 10.7
1/8/2023 10:45:00 PM 7.5 45.5 0.417 7.39 10.05 10.71
1/8/2023 11:00:00 PM 7.44 45.392 0.418 7.4 10.26 10.72
1/8/2023 11:15:00 PM 7.4 45.32 0.418 7.4 11.19 10.74
1/8/2023 11:30:00 PM 7.36 45.248 0.418 7.39 11.1 10.74
1/8/2023 11:45:00 PM 7.33 45.194 0.418 7.39 9.73 10.75
1/9/2023 12:00:00 AM 7.29 45.122 0.418 7.38 11.73 10.74
1/9/2023 12:15:00 AM 7.26 45.068 0.418 7.38 10.25 10.77
1/9/2023 12:30:00 AM 7.23 45.014 0.418 7.38 10.19 10.78
1/9/2023 12:45:00 AM 7.2 44.96 0.419 7.38 10.92 10.79
1/9/2023 1:00:00 AM 7.16 44.888 0.419 7.38 10.9 10.8
1/9/2023 1:15:00 AM 7.14 44.852 0.419 7.38 11.19 10.77
1/9/2023 1:30:00 AM 7.11 44.798 0.419 7.38 11.51 10.8
1/9/2023 1:45:00 AM 7.1 44.78 0.419 7.39 10.98 10.81
1/9/2023 2:00:00 AM 7.1 44.78 0.419 7.39 10.97 10.8
1/9/2023 2:15:00 AM 7.09 44.762 0.42 7.38 11.05 10.81
1/9/2023 2:30:00 AM 7.08 44.744 0.419 7.38 12.03 10.82
1/9/2023 2:45:00 AM 7.07 44.726 0.42 7.38 9.98 10.81
1/9/2023 3:00:00 AM 7.05 44.69 0.419 7.39 10.68 10.81
1/9/2023 3:15:00 AM 7.05 44.69 0.42 7.38 11.53 10.81
1/9/2023 3:30:00 AM 7.05 44.69 0.42 7.39 10.75 10.82
1/9/2023 3:45:00 AM 7.05 44.69 0.42 7.38 9.59 10.82
1/9/2023 4:00:00 AM 7.05 44.69 0.42 7.38 11.44 10.82
1/9/2023 4:15:00 AM 7.05 44.69 0.42 7.39 10.96 10.84
1/9/2023 4:30:00 AM 7.03 44.654 0.42 7.38 10.16 10.82
1/9/2023 4:45:00 AM 7.02 44.636 0.42 7.38 10.75 10.82
1/9/2023 5:00:00 AM 7.01 44.618 0.42 7.39 10.95 10.81
1/9/2023 5:15:00 AM 6.99 44.582 0.42 7.39 11.47 10.83
1/9/2023 5:30:00 AM 6.97 44.546 0.42 7.39 9.77 10.83
1/9/2023 5:45:00 AM 6.96 44.528 0.42 7.39 11.29 10.82
1/9/2023 6:00:00 AM 6.96 44.528 0.42 7.39 12.34 10.81
1/9/2023 6:15:00 AM 6.96 44.528 0.42 7.39 12.92 10.83
1/9/2023 6:30:00 AM 6.96 44.528 0.42 7.39 9.99 10.83
1/9/2023 6:45:00 AM 6.95 44.51 0.42 7.39 11.92 10.83
1/9/2023 7:00:00 AM 6.94 44.492 0.42 7.39 10.78 10.83
1/9/2023 7:15:00 AM 6.94 44.492 0.42 7.39 11.02 10.84
1/9/2023 7:30:00 AM 6.93 44.474 0.42 7.39 12.24 10.82
1/9/2023 7:45:00 AM 6.93 44.474 0.421 7.41 10.91 10.84
1/9/2023 8:00:00 AM 6.92 44.456 0.421 7.4 10.94 10.88
1/9/2023 8:15:00 AM 6.92 44.456 0.42 7.4 12.24 10.9
1/9/2023 8:30:00 AM 6.94 44.492 0.421 7.4 12.78 10.98
1/9/2023 8:45:00 AM 6.97 44.546 0.421 7.41 13.38 11.06
1/9/2023 9:00:00 AM 6.99 44.582 0.421 7.42 9.7 11.12
1/9/2023 9:15:00 AM 7.03 44.654 0.421 7.42 9.08 11.2
1/9/2023 9:30:00 AM 7.05 44.69 0.421 7.42 11.03 11.28
1/9/2023 9:45:00 AM 7.07 44.726 0.421 7.42 8.34 11.31
1/9/2023 10:00:00 AM 7.09 44.762 0.421 7.43 7.84 11.35
1/9/2023 10:15:00 AM 7.12 44.816 0.421 7.43 7.61 11.4
1/9/2023 10:30:00 AM 7.13 44.834 0.421 7.44 9.34 11.45
1/9/2023 10:45:00 AM 7.14 44.852 0.422 7.43 7.84 11.48
1/9/2023 11:00:00 AM 7.15 44.87 0.422 7.44 8.68 11.57
1/9/2023 11:15:00 AM 7.21 44.978 0.422 7.45 7.09 11.65
1/9/2023 11:30:00 AM 7.3 45.14 0.422 7.46 6.99 11.75
1/9/2023 11:45:00 AM 7.39 45.302 0.422 7.46 8.61 11.83
1/9/2023 12:00:00 PM 7.46 45.428 0.422 7.48 6.76 11.88
1/9/2023 12:15:00 PM 7.53 45.554 0.422 7.48 6.02 11.92
1/9/2023 12:30:00 PM 7.62 45.716 0.422 7.47 6.47 11.97
1/9/2023 12:45:00 PM 7.69 45.842 0.422 7.47 6.17 12.01
1/9/2023 1:00:00 PM 7.76 45.968 0.423 7.48 7.45 12.04
1/9/2023 1:15:00 PM 7.81 46.058 0.423 7.49 6.41 12.07
1/9/2023 1:30:00 PM 7.85 46.13 0.422 7.49 7.03 12.09
1/9/2023 1:45:00 PM 7.87 46.166 0.423 7.5 6.03 12.11
1/9/2023 2:00:00 PM 7.89 46.202 0.423 7.5 8 12.11
1/9/2023 2:15:00 PM 7.9 46.22 0.423 7.5 6.65 12.1
1/9/2023 2:30:00 PM 7.92 46.256 0.423 7.51 4.98 12.08
1/9/2023 2:45:00 PM 7.96 46.328 0.423 7.51 5.28 12.08
1/9/2023 3:00:00 PM 7.99 46.382 0.423 7.49 7.33 12.04
1/9/2023 3:15:00 PM 8.02 46.436 0.423 7.49 6.97 12.03
1/9/2023 3:30:00 PM 8.05 46.49 0.424 7.5 6.77 11.98
1/9/2023 3:45:00 PM 8.07 46.526 0.424 7.5 5.98 11.92
1/9/2023 4:00:00 PM 8.11 46.598 0.424 7.5 5.19 11.87
1/9/2023 4:15:00 PM 8.13 46.634 0.424 7.5 4.87 11.79
1/9/2023 4:30:00 PM 8.14 46.652 0.425 7.5 5.11 11.71
1/9/2023 4:45:00 PM 8.15 46.67 0.425 7.5 8.5 11.63
1/9/2023 5:00:00 PM 8.14 46.652 0.425 7.49 5.32 11.54
1/9/2023 5:15:00 PM 8.13 46.634 0.425 7.49 7.29 11.45
1/9/2023 5:30:00 PM 8.12 46.616 0.424 7.49 7.15 11.36
1/9/2023 5:45:00 PM 8.1 46.58 0.424 7.48 5.18 11.28
1/9/2023 6:00:00 PM 8.07 46.526 0.424 7.47 7.15 11.22
1/9/2023 6:15:00 PM 8.05 46.49 0.424 7.46 6.6 11.16
1/9/2023 6:30:00 PM 8.03 46.454 0.424 7.46 7.31 11.12
1/9/2023 6:45:00 PM 8 46.4 0.425 7.46 6.81 11.06
1/9/2023 7:00:00 PM 7.98 46.364 0.425 7.45 8.61 11.01
1/9/2023 7:15:00 PM 7.96 46.328 0.425 7.45 8.49 10.98
1/9/2023 7:30:00 PM 7.93 46.274 0.425 7.46 7.37 10.92
1/9/2023 7:45:00 PM 7.9 46.22 0.425 7.45 8.12 10.86
1/9/2023 8:00:00 PM 7.84 46.112 0.425 7.45 8.75 10.84
1/9/2023 8:15:00 PM 7.79 46.022 0.426 7.45 8.41 10.83
1/9/2023 8:30:00 PM 7.74 45.932 0.426 7.46 8.49 10.81
1/9/2023 8:45:00 PM 7.68 45.824 0.426 7.44 8.93 10.8
1/9/2023 9:00:00 PM 7.62 45.716 0.427 7.45 9.2 10.78
1/9/2023 9:15:00 PM 7.56 45.608 0.427 7.44 11.04 10.76
1/9/2023 9:30:00 PM 7.5 45.5 0.427 7.43 8.57 10.77
1/9/2023 9:45:00 PM 7.44 45.392 0.428 7.43 10.03 10.76
1/9/2023 10:00:00 PM 7.37 45.266 0.428 7.43 11.42 10.76
1/9/2023 10:15:00 PM 7.31 45.158 0.429 7.42 9.23 10.79
1/9/2023 10:30:00 PM 7.25 45.05 0.429 7.42 9.9 10.79
1/9/2023 10:45:00 PM 7.19 44.942 0.429 7.43 9.25 10.78
1/9/2023 11:00:00 PM 7.14 44.852 0.429 7.42 15.59 10.81
1/9/2023 11:15:00 PM 7.08 44.744 0.428 7.42 9.34 10.82
1/9/2023 11:30:00 PM 7.03 44.654 0.428 7.42 8.52 10.82
1/9/2023 11:45:00 PM 6.98 44.564 0.428 7.41 12.51 10.84
1/10/2023 12:00:00 AM 6.93 44.474 0.429 7.41 8.75 10.86
1/10/2023 12:15:00 AM 6.88 44.384 0.429 7.42 7.33 10.86
1/10/2023 12:30:00 AM 6.84 44.312 0.429 7.41 9.16 10.88
1/10/2023 12:45:00 AM 6.81 44.258 0.429 7.42 8.7 10.89
1/10/2023 1:00:00 AM 6.78 44.204 0.429 7.41 8.23 10.88
1/10/2023 1:15:00 AM 6.75 44.15 0.429 7.4 9.62 10.92
1/10/2023 1:30:00 AM 6.73 44.114 0.43 7.41 7.95 10.92
1/10/2023 1:45:00 AM 6.7 44.06 0.43 7.41 9.12 10.95
1/10/2023 2:00:00 AM 6.68 44.024 0.43 7.41 8.72 10.95
1/10/2023 2:15:00 AM 6.67 44.006 0.43 7.42 9.63 10.97
1/10/2023 2:30:00 AM 6.65 43.97 0.43 7.42 9.75 10.97
1/10/2023 2:45:00 AM 6.64 43.952 0.43 7.41 8.25 10.97
1/10/2023 3:00:00 AM 6.64 43.952 0.43 7.41 8.96 10.97
1/10/2023 3:15:00 AM 6.65 43.97 0.431 7.41 8.58 10.97
1/10/2023 3:30:00 AM 6.65 43.97 0.43 7.41 9.76 10.97
1/10/2023 3:45:00 AM 6.65 43.97 0.43 7.42 10.19 10.97
1/10/2023 4:00:00 AM 6.65 43.97 0.431 7.41 8.43 10.98
1/10/2023 4:15:00 AM 6.66 43.988 0.431 7.41 8.27 10.95
1/10/2023 4:30:00 AM 6.66 43.988 0.431 7.42 8.37 10.98
1/10/2023 4:45:00 AM 6.66 43.988 0.431 7.42 9.67 10.98
1/10/2023 5:00:00 AM 6.66 43.988 0.431 7.41 9.21 10.98
1/10/2023 5:15:00 AM 6.67 44.006 0.431 7.41 9.8 10.97
1/10/2023 5:30:00 AM 6.67 44.006 0.431 7.41 8.97 10.97
1/10/2023 5:45:00 AM 6.67 44.006 0.431 7.43 7.33 10.98
1/10/2023 6:00:00 AM 6.68 44.024 0.431 7.42 8.52 10.95
1/10/2023 6:15:00 AM 6.69 44.042 0.431 7.42 8.84 10.96
1/10/2023 6:30:00 AM 6.7 44.06 0.431 7.42 9.07 10.96
1/10/2023 6:45:00 AM 6.7 44.06 0.431 7.42 9.01 10.95
1/10/2023 7:00:00 AM 6.71 44.078 0.431 7.43 8.71 10.96
1/10/2023 7:15:00 AM 6.71 44.078 0.431 7.42 9.9 10.96
1/10/2023 7:30:00 AM 6.72 44.096 0.432 7.42 9.06 10.94
1/10/2023 7:45:00 AM 6.72 44.096 0.432 7.41 8.21 10.96
1/10/2023 8:00:00 AM 6.74 44.132 0.432 7.42 7.95 10.99
1/10/2023 8:15:00 AM 6.75 44.15 0.431 7.41 8.18 11.05
1/10/2023 8:30:00 AM 6.77 44.186 0.431 7.42 6.05 11.11
1/10/2023 8:45:00 AM 6.8 44.24 0.432 7.42 6.31 11.18
1/10/2023 9:00:00 AM 6.82 44.276 0.432 7.43 6.48 11.22
1/10/2023 9:15:00 AM 6.86 44.348 0.432 7.43 6.01 11.3
1/10/2023 9:30:00 AM 6.9 44.42 0.432 7.43 6.43 11.37
1/10/2023 9:45:00 AM 6.94 44.492 0.432 7.45 7.46 11.44
1/10/2023 10:00:00 AM 6.98 44.564 0.432 7.44 7.58 11.49
1/10/2023 10:15:00 AM 7.03 44.654 0.432 7.45 4.85 11.55
1/10/2023 10:30:00 AM 7.08 44.744 0.432 7.46 4.25 11.58
1/10/2023 10:45:00 AM 7.13 44.834 0.432 7.46 4.73 11.64
1/10/2023 11:00:00 AM 7.19 44.942 0.431 7.47 4.88 11.71
1/10/2023 11:15:00 AM 7.25 45.05 0.431 7.48 4.34 11.76
1/10/2023 11:30:00 AM 7.31 45.158 0.432 7.48 4.9 11.78
1/10/2023 11:45:00 AM 7.36 45.248 0.431 7.49 4.55 11.8
1/10/2023 12:00:00 PM 7.42 45.356 0.431 7.49 5.73 11.86
1/10/2023 12:15:00 PM 7.49 45.482 0.431 7.49 5.13 11.9
1/10/2023 12:30:00 PM 7.56 45.608 0.431 7.5 5.59 11.96
1/10/2023 12:45:00 PM 7.66 45.788 0.432 7.5 4.49 12.04
1/10/2023 1:00:00 PM 7.75 45.95 0.432 7.51 4.23 12.1
1/10/2023 1:15:00 PM 7.84 46.112 0.432 7.51 4.75 12.14
1/10/2023 1:30:00 PM 7.9 46.22 0.432 7.52 3.88 12.13
1/10/2023 1:45:00 PM 7.95 46.31 0.432 7.52 4.39 12.12
1/10/2023 2:00:00 PM 8 46.4 0.432 7.51 6.49 12.1
1/10/2023 2:15:00 PM 8.04 46.472 0.432 7.5 6.05 12.05
1/10/2023 2:30:00 PM 8.08 46.544 0.431 7.5 4.47 12.02
1/10/2023 2:45:00 PM 8.12 46.616 0.432 7.51 4.74 11.98
1/10/2023 3:00:00 PM 8.16 46.688 0.432 7.5 4.89 11.94
1/10/2023 3:15:00 PM 8.2 46.76 0.432 7.49 5.68 11.92
1/10/2023 3:30:00 PM 8.24 46.832 0.432 7.51 4.39 11.9
1/10/2023 3:45:00 PM 8.28 46.904 0.432 7.5 4.65 11.86
1/10/2023 4:00:00 PM 8.31 46.958 0.432 7.5 5.92 11.78
1/10/2023 4:15:00 PM 8.34 47.012 0.432 7.51 4.34 11.7
1/10/2023 4:30:00 PM 8.36 47.048 0.432 7.5 4.25 11.6
1/10/2023 4:45:00 PM 8.39 47.102 0.432 7.49 4.89 11.52
1/10/2023 5:00:00 PM 8.41 47.138 0.432 7.49 4.49 11.41
1/10/2023 5:15:00 PM 8.42 47.156 0.432 7.48 5.27 11.31
1/10/2023 5:30:00 PM 8.43 47.174 0.433 7.46 6.11 11.25
1/10/2023 5:45:00 PM 8.44 47.192 0.433 7.47 5.53 11.17
1/10/2023 6:00:00 PM 8.44 47.192 0.433 7.48 5.45 11.1
1/10/2023 6:15:00 PM 8.45 47.21 0.433 7.47 5.4 11.05
1/10/2023 6:30:00 PM 8.46 47.228 0.433 7.48 5.35 10.99
1/10/2023 6:45:00 PM 8.46 47.228 0.433 7.47 5.91 10.94
1/10/2023 7:00:00 PM 8.47 47.246 0.433 7.46 5.16 10.87
1/10/2023 7:15:00 PM 8.47 47.246 0.433 7.45 5.68 10.83
1/10/2023 7:30:00 PM 8.46 47.228 0.433 7.45 4.82 10.79
1/10/2023 7:45:00 PM 8.45 47.21 0.434 7.45 6.53 10.73
1/10/2023 8:00:00 PM 8.44 47.192 0.434 7.44 6.74 10.71
1/10/2023 8:15:00 PM 8.42 47.156 0.434 7.45 7.97 10.66
1/10/2023 8:30:00 PM 8.41 47.138 0.435 7.44 6.93 10.62
1/10/2023 8:45:00 PM 8.39 47.102 0.436 7.44 6.82 10.61
1/10/2023 9:00:00 PM 8.38 47.084 0.436 7.44 8.27 10.58
1/10/2023 9:15:00 PM 8.36 47.048 0.436 7.44 7.92 10.57
1/10/2023 9:30:00 PM 8.34 47.012 0.436 7.43 9.12 10.56
1/10/2023 9:45:00 PM 8.31 46.958 0.436 7.42 7.11 10.54
1/10/2023 10:00:00 PM 8.29 46.922 0.436 7.42 7.11 10.53
1/10/2023 10:15:00 PM 8.27 46.886 0.436 7.43 6.48 10.52
1/10/2023 10:30:00 PM 8.24 46.832 0.436 7.42 6.8 10.5
1/10/2023 10:45:00 PM 8.2 46.76 0.436 7.42 7.04 10.51
1/10/2023 11:00:00 PM 8.16 46.688 0.437 7.42 7.88 10.51
1/10/2023 11:15:00 PM 8.12 46.616 0.437 7.43 5.98 10.52
1/10/2023 11:30:00 PM 8.07 46.526 0.437 7.42 7.52 10.52
1/10/2023 11:45:00 PM 8.03 46.454 0.437 7.42 6.09 10.53
1/11/2023 12:00:00 AM 8 46.4 0.437 7.42 7.27 10.54
1/11/2023 12:15:00 AM 7.97 46.346 0.437 7.42 7.44 10.52
1/11/2023 12:30:00 AM 7.94 46.292 0.438 7.41 7.29 10.56
1/11/2023 12:45:00 AM 7.91 46.238 0.438 7.41 7.29 10.56
1/11/2023 1:00:00 AM 7.87 46.166 0.438 7.42 10.17 10.58
1/11/2023 1:15:00 AM 7.84 46.112 0.438 7.43 7.71 10.57
1/11/2023 1:30:00 AM 7.8 46.04 0.438 7.42 7.02 10.57
1/11/2023 1:45:00 AM 7.76 45.968 0.438 7.43 7.18 10.6
1/11/2023 2:00:00 AM 7.71 45.878 0.439 7.43 7.39 10.62
1/11/2023 2:15:00 AM 7.65 45.77 0.439 7.42 6.1 10.62
1/11/2023 2:30:00 AM 7.6 45.68 0.439 7.43 7.83 10.64
1/11/2023 2:45:00 AM 7.55 45.59 0.439 7.43 7.23 10.66
1/11/2023 3:00:00 AM 7.5 45.5 0.439 7.43 9.43 10.67
1/11/2023 3:15:00 AM 7.45 45.41 0.439 7.43 8.06 10.69
1/11/2023 3:30:00 AM 7.4 45.32 0.439 7.42 6.98 10.69
1/11/2023 3:45:00 AM 7.35 45.23 0.439 7.43 7.68 10.69
1/11/2023 4:00:00 AM 7.3 45.14 0.439 7.42 6.52 10.73
1/11/2023 4:15:00 AM 7.26 45.068 0.44 7.43 8.29 10.73
1/11/2023 4:30:00 AM 7.2 44.96 0.44 7.43 7.05 10.74
1/11/2023 4:45:00 AM 7.15 44.87 0.44 7.44 8.46 10.77
1/11/2023 5:00:00 AM 7.1 44.78 0.44 7.43 6.89 10.78
1/11/2023 5:15:00 AM 7.06 44.708 0.44 7.42 7.22 10.8
1/11/2023 5:30:00 AM 7 44.6 0.44 7.42 7.46 10.82
1/11/2023 5:45:00 AM 6.96 44.528 0.44 7.43 7.35 10.83
1/11/2023 6:00:00 AM 6.91 44.438 0.44 7.43 6.67 10.85
1/11/2023 6:15:00 AM 6.86 44.348 0.44 7.43 7.17 10.85
1/11/2023 6:30:00 AM 6.81 44.258 0.44 7.43 7.07 10.89
1/11/2023 6:45:00 AM 6.76 44.168 0.44 7.43 7.72 10.9
1/11/2023 7:00:00 AM 6.72 44.096 0.441 7.43 5.65 10.92
1/11/2023 7:15:00 AM 6.67 44.006 0.441 7.43 8.13 10.93
1/11/2023 7:30:00 AM 6.63 43.934 0.441 7.42 6.91 10.95
1/11/2023 7:45:00 AM 6.59 43.862 0.441 7.43 5.98 10.97
1/11/2023 8:00:00 AM 6.56 43.808 0.441 7.43 6.27 11.03
1/11/2023 8:15:00 AM 6.54 43.772 0.441 7.43 6.33 11.08
1/11/2023 8:30:00 AM 6.52 43.736 0.441 7.44 7.48 11.14
1/11/2023 8:45:00 AM 6.52 43.736 0.441 7.44 7.18 11.24
1/11/2023 9:00:00 AM 6.52 43.736 0.441 7.45 9.21 11.32
1/11/2023 9:15:00 AM 6.53 43.754 0.441 7.45 7.02 11.41
1/11/2023 9:30:00 AM 6.55 43.79 0.441 7.45 5.3 11.49
1/11/2023 9:45:00 AM 6.57 43.826 0.441 7.47 7.24 11.57
1/11/2023 10:00:00 AM 6.6 43.88 0.441 7.48 4.78 11.68
1/11/2023 10:15:00 AM 6.64 43.952 0.441 7.48 6.58 11.79
1/11/2023 10:30:00 AM 6.69 44.042 0.441 7.5 5.25 11.89
1/11/2023 10:45:00 AM 6.74 44.132 0.44 7.49 4.31 11.96
1/11/2023 11:00:00 AM 6.8 44.24 0.44 7.5 4.95 12.05
1/11/2023 11:15:00 AM 6.87 44.366 0.44 7.5 5.01 12.12
1/11/2023 11:30:00 AM 6.94 44.492 0.44 7.5 5.47 12.21
1/11/2023 11:45:00 AM 7.01 44.618 0.44 7.51 4.82 12.26
1/11/2023 12:00:00 PM 7.09 44.762 0.44 7.52 5.27 12.31
1/11/2023 12:15:00 PM 7.17 44.906 0.44 7.52 4.11 12.37
1/11/2023 12:30:00 PM 7.26 45.068 0.44 7.53 4.36 12.43
1/11/2023 12:45:00 PM 7.36 45.248 0.44 7.54 3.62 12.46
1/11/2023 1:00:00 PM 7.43 45.374 0.44 7.54 3.92 12.49
1/11/2023 1:15:00 PM 7.49 45.482 0.44 7.54 3.79 12.47
1/11/2023 1:30:00 PM 7.55 45.59 0.44 7.55 3.67 12.45
1/11/2023 1:45:00 PM 7.61 45.698 0.44 7.55 3.48 12.44
1/11/2023 2:00:00 PM 7.67 45.806 0.44 7.56 4.03 12.4
1/11/2023 2:15:00 PM 7.74 45.932 0.44 7.57 3.2 12.44
1/11/2023 2:30:00 PM 7.8 46.04 0.44 7.57 4.04 12.4
1/11/2023 2:45:00 PM 7.87 46.166 0.44 7.57 3.89 12.41
1/11/2023 3:00:00 PM 7.95 46.31 0.44 7.58 8.25 12.42
1/11/2023 3:15:00 PM 8.02 46.436 0.44 7.59 4.04 12.42
1/11/2023 3:30:00 PM 8.06 46.508 0.439 7.59 4.62 12.35
1/11/2023 3:45:00 PM 8.1 46.58 0.44 7.58 4.83 12.27
1/11/2023 4:00:00 PM 8.13 46.634 0.439 7.58 5.71 12.16
1/11/2023 4:15:00 PM 8.16 46.688 0.44 7.57 4.8 12.06
1/11/2023 4:30:00 PM 8.19 46.742 0.44 7.55 5.31 11.94
1/11/2023 4:45:00 PM 8.22 46.796 0.44 7.54 3.75 11.82
1/11/2023 5:00:00 PM 8.24 46.832 0.44 7.54 5.11 11.69
1/11/2023 5:15:00 PM 8.25 46.85 0.44 7.53 4.24 11.58
1/11/2023 5:30:00 PM 8.26 46.868 0.44 7.53 4.52 11.51
1/11/2023 5:45:00 PM 8.27 46.886 0.44 7.51 4.29 11.41
1/11/2023 6:00:00 PM 8.29 46.922 0.44 7.51 4.32 11.31
1/11/2023 6:15:00 PM 8.3 46.94 0.439 7.51 3.48 11.24
1/11/2023 6:30:00 PM 8.31 46.958 0.44 7.51 4.57 11.17
1/11/2023 6:45:00 PM 8.32 46.976 0.44 7.5 4.96 11.1
1/11/2023 7:00:00 PM 8.33 46.994 0.44 7.51 5.07 11.05
1/11/2023 7:15:00 PM 8.32 46.976 0.44 7.49 4.69 10.98
1/11/2023 7:30:00 PM 8.33 46.994 0.44 7.48 7.79 10.93
1/11/2023 7:45:00 PM 8.33 46.994 0.441 7.48 6.01 10.86
1/11/2023 8:00:00 PM 8.3 46.94 0.441 7.48 4.52 10.82
1/11/2023 8:15:00 PM 8.29 46.922 0.441 7.47 6.67 10.78
1/11/2023 8:30:00 PM 8.28 46.904 0.442 7.47 6.33 10.73
1/11/2023 8:45:00 PM 8.27 46.886 0.442 7.47 4.68 10.7
1/11/2023 9:00:00 PM 8.27 46.886 0.442 7.46 5.42 10.67
1/11/2023 9:15:00 PM 8.25 46.85 0.442 7.45 5.81 10.64
1/11/2023 9:30:00 PM 8.22 46.796 0.442 7.46 6.39 10.6
1/11/2023 9:45:00 PM 8.2 46.76 0.443 7.45 5.62 10.61
1/11/2023 10:00:00 PM 8.18 46.724 0.443 7.46 5.81 10.61
1/11/2023 10:15:00 PM 8.16 46.688 0.443 7.45 6.48 10.59
1/11/2023 10:30:00 PM 8.13 46.634 0.444 7.45 6.92 10.59
1/11/2023 10:45:00 PM 8.11 46.598 0.444 7.45 8.91 10.57
1/11/2023 11:00:00 PM 8.09 46.562 0.444 7.45 8.09 10.57
1/11/2023 11:15:00 PM 8.07 46.526 0.444 7.45 6.8 10.56
1/11/2023 11:30:00 PM 8.04 46.472 0.444 7.45 5.33 10.57
1/11/2023 11:45:00 PM 8.03 46.454 0.444 7.45 6.2 10.56
1/12/2023 12:00:00 AM 8.01 46.418 0.444 7.45 9.05 10.57
1/12/2023 12:15:00 AM 7.98 46.364 0.445 7.43 7.16 10.57
1/12/2023 12:30:00 AM 7.96 46.328 0.445 7.43 7.48 10.58
1/12/2023 12:45:00 AM 7.93 46.274 0.445 7.44 6.17 10.58
1/12/2023 1:00:00 AM 7.9 46.22 0.445 7.45 5.65 10.58
1/12/2023 1:15:00 AM 7.86 46.148 0.445 7.44 5.66 10.59
1/12/2023 1:30:00 AM 7.83 46.094 0.445 7.44 6.13 10.6
1/12/2023 1:45:00 AM 7.81 46.058 0.445 7.45 6.6 10.6
1/12/2023 2:00:00 AM 7.77 45.986 0.444 7.44 6.06 10.6
1/12/2023 2:15:00 AM 7.73 45.914 0.447 7.44 6.18 10.62
1/12/2023 2:30:00 AM 7.71 45.878 0.446 7.44 6.04 10.62
1/12/2023 2:45:00 AM 7.73 45.914 0.445 7.44 5.66 10.59
1/12/2023 3:00:00 AM 7.74 45.932 0.445 7.44 5.45 10.61
1/12/2023 3:15:00 AM 7.74 45.932 0.445 7.44 5.41 10.61
1/12/2023 3:30:00 AM 7.74 45.932 0.445 7.44 6.14 10.61
1/12/2023 3:45:00 AM 7.73 45.914 0.444 7.45 7 10.61
1/12/2023 4:00:00 AM 7.73 45.914 0.445 7.45 5.04 10.61
1/12/2023 4:15:00 AM 7.72 45.896 0.446 7.44 5.79 10.61
1/12/2023 4:30:00 AM 7.7 45.86 0.449 7.45 6.73 10.62
1/12/2023 4:45:00 AM 7.68 45.824 0.455 7.44 5.93 10.61
1/12/2023 5:00:00 AM 7.67 45.806 0.459 7.44 6.81 10.61
1/12/2023 5:15:00 AM 7.65 45.77 0.458 7.43 7.1 10.61
1/12/2023 5:30:00 AM 7.64 45.752 0.455 7.43 12.85 10.62
1/12/2023 5:45:00 AM 7.63 45.734 0.45 7.43 6.19 10.63
1/12/2023 6:00:00 AM 7.59 45.662 0.446 7.43 7.76 10.64
1/12/2023 6:15:00 AM 7.62 45.716 0.447 7.44 8.11 10.63
1/12/2023 6:30:00 AM 7.62 45.716 0.447 7.45 7.47 10.63
1/12/2023 6:45:00 AM 7.62 45.716 0.447 7.44 7.16 10.64
1/12/2023 7:00:00 AM 7.62 45.716 0.448 7.43 7.59 10.63
1/12/2023 7:15:00 AM 7.61 45.698 0.447 7.43 8.14 10.62
1/12/2023 7:30:00 AM 7.6 45.68 0.446 7.43 7.38 10.63
1/12/2023 7:45:00 AM 7.59 45.662 0.445 7.42 7.05 10.63
1/12/2023 8:00:00 AM 7.58 45.644 0.443 7.42 10.71 10.62
1/12/2023 8:15:00 AM 7.57 45.626 0.442 7.42 9.03 10.63
1/12/2023 8:30:00 AM 7.56 45.608 0.441 7.41 8.84 10.65
1/12/2023 8:45:00 AM 7.56 45.608 0.44 7.41 9.01 10.65
1/12/2023 9:00:00 AM 7.57 45.626 0.439 7.42 9.11 10.68
1/12/2023 9:15:00 AM 7.58 45.644 0.438 7.43 8.44 10.71
1/12/2023 9:30:00 AM 7.58 45.644 0.436 7.42 6.77 10.75
1/12/2023 9:45:00 AM 7.59 45.662 0.435 7.42 6.25 10.79
1/12/2023 10:00:00 AM 7.6 45.68 0.435 7.43 7.84 10.82
1/12/2023 10:15:00 AM 7.6 45.68 0.435 7.44 6.2 10.87
1/12/2023 10:30:00 AM 7.61 45.698 0.435 7.44 5.39 10.91
1/12/2023 10:45:00 AM 7.62 45.716 0.435 7.44 5.93 10.97
1/12/2023 11:00:00 AM 7.64 45.752 0.435 7.44 6.27 10.99
1/12/2023 11:15:00 AM 7.65 45.77 0.434 7.44 5.92 11.06
1/12/2023 11:30:00 AM 7.66 45.788 0.434 7.45 7.8 11.08
1/12/2023 11:45:00 AM 7.67 45.806 0.434 7.45 6.1 11.12
1/12/2023 12:00:00 PM 7.69 45.842 0.433 7.46 6.38 11.14
1/12/2023 12:15:00 PM 7.7 45.86 0.433 7.45 7.29 11.16
1/12/2023 12:30:00 PM 7.71 45.878 0.432 7.45 5.82 11.17
1/12/2023 12:45:00 PM 7.73 45.914 0.432 7.46 6.69 11.18
1/12/2023 1:00:00 PM 7.75 45.95 0.432 7.46 5.33 11.17
1/12/2023 1:15:00 PM 7.77 45.986 0.433 7.46 6.24 11.16
1/12/2023 1:30:00 PM 7.79 46.022 0.433 7.45 7.36 11.17
1/12/2023 1:45:00 PM 7.8 46.04 0.433 7.46 5.23 11.16
1/12/2023 2:00:00 PM 7.81 46.058 0.433 7.47 5.49 11.11
1/12/2023 2:15:00 PM 7.8 46.04 0.432 7.47 5.76 11.09
1/12/2023 2:30:00 PM 7.68 45.824 0.427 7.46 51.53 11.06
1/12/2023 2:45:00 PM 7.72 45.896 0.426 7.46 25.68 11.06
1/12/2023 3:00:00 PM 7.68 45.824 0.42 7.46 26.67 11.05
1/12/2023 3:15:00 PM 7.77 45.986 0.427 7.46 14.35 11.01
1/12/2023 3:30:00 PM 7.82 46.076 0.429 7.46 13.39 11
1/12/2023 3:45:00 PM 7.84 46.112 0.429 7.46 10.63 10.97
1/12/2023 4:00:00 PM 7.83 46.094 0.427 7.45 13.07 10.92
1/12/2023 4:15:00 PM 7.82 46.076 0.423 7.45 17.97 10.88
1/12/2023 4:30:00 PM 7.77 45.986 0.416 7.44 34.58 10.83
1/12/2023 4:45:00 PM 7.72 45.896 0.41 7.42 51.56 10.8
1/12/2023 5:00:00 PM 7.66 45.788 0.406 7.41 79.5 10.76
1/12/2023 5:15:00 PM 7.64 45.752 0.405 7.41 108.6 10.74
1/12/2023 5:30:00 PM 7.65 45.77 0.406 7.41 117 10.72
1/12/2023 5:45:00 PM 7.7 45.86 0.411 7.4 99.66 10.68
1/12/2023 6:00:00 PM 7.75 45.95 0.415 7.42 74.93 10.68
1/12/2023 6:15:00 PM 7.8 46.04 0.419 7.42 56.87 10.65
1/12/2023 6:30:00 PM 7.77 45.986 0.415 7.41 55.27 10.64
1/12/2023 6:45:00 PM 7.81 46.058 0.417 7.41 54.98 10.59
1/12/2023 7:00:00 PM 7.79 46.022 0.414 7.41 53.91 10.61
1/12/2023 7:15:00 PM 7.72 45.896 0.408 7.4 67.4 10.61
1/12/2023 7:30:00 PM 7.61 45.698 0.399 7.4 87.61 10.62
1/12/2023 7:45:00 PM 7.49 45.482 0.389 7.4 97.13 10.63
1/12/2023 8:00:00 PM 7.4 45.32 0.381 7.4 122 10.63
1/12/2023 8:15:00 PM 7.33 45.194 0.374 7.39 153.7 10.63
1/12/2023 8:30:00 PM 7.3 45.14 0.373 7.38 192.2 10.63
1/12/2023 8:45:00 PM 7.3 45.14 0.373 7.38 207.8 10.61
1/12/2023 9:00:00 PM 7.32 45.176 0.375 7.37 197 10.58
1/12/2023 9:15:00 PM 7.36 45.248 0.378 7.37 174.8 10.55
1/12/2023 9:30:00 PM 7.38 45.284 0.381 7.38 145.4 10.54
1/12/2023 9:45:00 PM 7.39 45.302 0.381 7.37 134.6 10.5
1/12/2023 10:00:00 PM 7.38 45.284 0.38 7.37 125.5 10.51
1/12/2023 10:15:00 PM 7.34 45.212 0.377 7.36 119.7 10.52
1/12/2023 10:30:00 PM 7.27 45.086 0.374 7.36 118.2 10.53
1/12/2023 10:45:00 PM 7.2 44.96 0.369 7.36 119.1 10.55
1/12/2023 11:00:00 PM 7.15 44.87 0.363 7.35 114.7 10.57
1/12/2023 11:15:00 PM 7.12 44.816 0.36 7.35 113.5 10.57
1/12/2023 11:30:00 PM 7.12 44.816 0.358 7.34 107.4 10.56
1/12/2023 11:45:00 PM 7.14 44.852 0.358 7.34 102.4 10.55
1/13/2023 12:00:00 AM 7.17 44.906 0.358 7.34 101.6 10.54
1/13/2023 12:15:00 AM 7.2 44.96 0.361 7.33 95.98 10.52
1/13/2023 12:30:00 AM 7.25 45.05 0.362 7.32 86.58 10.5
1/13/2023 12:45:00 AM 7.29 45.122 0.364 7.32 76.76 10.5
1/13/2023 1:00:00 AM 7.33 45.194 0.366 7.32 74.86 10.47
1/13/2023 1:15:00 AM 7.37 45.266 0.368 7.33 67.85 10.47
1/13/2023 1:30:00 AM 7.41 45.338 0.37 7.34 61.92 10.46
1/13/2023 1:45:00 AM 7.45 45.41 0.372 7.33 56.2 10.43
1/13/2023 2:00:00 AM 7.49 45.482 0.374 7.34 55.45 10.43
1/13/2023 2:15:00 AM 7.52 45.536 0.376 7.33 48.05 10.41
1/13/2023 2:30:00 AM 7.56 45.608 0.377 7.33 42.16 10.38
1/13/2023 2:45:00 AM 7.6 45.68 0.379 7.33 41.07 10.38
1/13/2023 3:00:00 AM 7.63 45.734 0.379 7.33 38.5 10.37
1/13/2023 3:15:00 AM 7.65 45.77 0.379 7.33 35.07 10.37
1/13/2023 3:30:00 AM 7.67 45.806 0.379 7.34 36.86 10.36
1/13/2023 3:45:00 AM 7.69 45.842 0.379 7.33 35.24 10.36
1/13/2023 4:00:00 AM 7.71 45.878 0.379 7.33 33.41 10.35
1/13/2023 4:15:00 AM 7.72 45.896 0.378 7.32 32.45 10.36
1/13/2023 4:30:00 AM 7.73 45.914 0.378 7.33 32.96 10.34
1/13/2023 4:45:00 AM 7.72 45.896 0.378 7.34 33.43 10.35
1/13/2023 5:00:00 AM 7.72 45.896 0.378 7.33 31.83 10.34
1/13/2023 5:15:00 AM 7.7 45.86 0.377 7.34 32.29 10.36
1/13/2023 5:30:00 AM 7.69 45.842 0.376 7.34 31.35 10.35
1/13/2023 5:45:00 AM 7.67 45.806 0.376 7.34 34.5 10.36
1/13/2023 6:00:00 AM 7.64 45.752 0.375 7.34 33.38 10.38
1/13/2023 6:15:00 AM 7.62 45.716 0.374 7.34 31.66 10.4
1/13/2023 6:30:00 AM 7.59 45.662 0.374 7.34 32.07 10.39
1/13/2023 6:45:00 AM 7.57 45.626 0.374 7.34 31.4 10.37
1/13/2023 7:00:00 AM 7.56 45.608 0.374 7.35 32.66 10.4
1/13/2023 7:15:00 AM 7.54 45.572 0.374 7.35 32.05 10.39
1/13/2023 7:30:00 AM 7.52 45.536 0.374 7.35 30.05 10.4
1/13/2023 7:45:00 AM 7.5 45.5 0.375 7.35 31.13 10.39
1/13/2023 8:00:00 AM 7.49 45.482 0.375 7.34 30.36 10.41
1/13/2023 8:15:00 AM 7.48 45.464 0.375 7.35 27.6 10.42
1/13/2023 8:30:00 AM 7.48 45.464 0.376 7.34 26.04 10.45
1/13/2023 8:45:00 AM 7.48 45.464 0.376 7.34 24.77 10.48
1/13/2023 9:00:00 AM 7.47 45.446 0.377 7.35 24.46 10.49
1/13/2023 9:15:00 AM 7.47 45.446 0.377 7.35 24.68 10.52
1/13/2023 9:30:00 AM 7.48 45.464 0.378 7.36 24.44 10.57
1/13/2023 9:45:00 AM 7.48 45.464 0.378 7.37 22.67 10.65
1/13/2023 10:00:00 AM 7.49 45.482 0.378 7.36 22.63 10.7
1/13/2023 10:15:00 AM 7.5 45.5 0.378 7.36 19.99 10.75
1/13/2023 10:30:00 AM 7.5 45.5 0.378 7.37 19.24 10.81
1/13/2023 10:45:00 AM 7.5 45.5 0.379 7.37 17.68 10.82
1/13/2023 11:00:00 AM 7.5 45.5 0.379 7.38 18.74 10.85
1/13/2023 11:15:00 AM 7.49 45.482 0.38 7.37 19.16 10.92
1/13/2023 11:30:00 AM 7.49 45.482 0.381 7.37 14.89 10.96
1/13/2023 11:45:00 AM 7.49 45.482 0.381 7.38 16.9 11
1/13/2023 12:00:00 PM 7.48 45.464 0.382 7.39 14.86 11.02
1/13/2023 12:15:00 PM 7.49 45.482 0.383 7.39 14.13 11.08
1/13/2023 12:30:00 PM 7.49 45.482 0.384 7.4 17.73 11.08
1/13/2023 12:45:00 PM 7.5 45.5 0.384 7.4 12.84 11.1
1/13/2023 1:00:00 PM 7.48 45.464 0.385 7.41 13.89 11.11
1/13/2023 1:15:00 PM 7.48 45.464 0.387 7.4 13.5 11.14
1/13/2023 1:30:00 PM 7.47 45.446 0.387 7.4 15.93 11.17
1/13/2023 1:45:00 PM 7.47 45.446 0.389 7.41 13.36 11.19
1/13/2023 2:00:00 PM 7.46 45.428 0.389 7.4 15.91 11.23
1/13/2023 2:15:00 PM 7.45 45.41 0.39 7.42 12.59 11.24
1/13/2023 2:30:00 PM 7.45 45.41 0.391 7.41 12.29 11.25
1/13/2023 2:45:00 PM 7.45 45.41 0.391 7.41 11.68 11.28
1/13/2023 3:00:00 PM 7.45 45.41 0.392 7.42 12.61 11.29
1/13/2023 3:15:00 PM 7.45 45.41 0.393 7.42 11.2 11.29
1/13/2023 3:30:00 PM 7.44 45.392 0.393 7.43 10.48 11.28
1/13/2023 3:45:00 PM 7.43 45.374 0.393 7.42 10.9 11.27
1/13/2023 4:00:00 PM 7.42 45.356 0.394 7.43 10.18 11.25
1/13/2023 4:15:00 PM 7.41 45.338 0.394 7.43 11.04 11.22
1/13/2023 4:30:00 PM 7.41 45.338 0.395 7.43 10.86 11.19
1/13/2023 4:45:00 PM 7.4 45.32 0.395 7.43 10.49 11.18
1/13/2023 5:00:00 PM 7.39 45.302 0.395 7.43 10.48 11.14
1/13/2023 5:15:00 PM 7.38 45.284 0.395 7.44 10.11 11.11
1/13/2023 5:30:00 PM 7.36 45.248 0.395 7.43 9.71 11.07
1/13/2023 5:45:00 PM 7.35 45.23 0.395 7.42 10.95 11.04
1/13/2023 6:00:00 PM 7.34 45.212 0.395 7.42 11.49 11.01
1/13/2023 6:15:00 PM 7.32 45.176 0.395 7.42 12.36 10.98
1/13/2023 6:30:00 PM 7.31 45.158 0.396 7.42 12 10.97
1/13/2023 6:45:00 PM 7.29 45.122 0.396 7.42 13.11 10.96
1/13/2023 7:00:00 PM 7.28 45.104 0.396 7.42 11.55 10.92
1/13/2023 7:15:00 PM 7.26 45.068 0.397 7.42 10.12 10.91
1/13/2023 7:30:00 PM 7.25 45.05 0.397 7.4 12.58 10.89
1/13/2023 7:45:00 PM 7.23 45.014 0.398 7.4 13.04 10.86
1/13/2023 8:00:00 PM 7.21 44.978 0.398 7.4 11.95 10.85
1/13/2023 8:15:00 PM 7.19 44.942 0.398 7.39 12.55 10.81
1/13/2023 8:30:00 PM 7.18 44.924 0.398 7.4 13.93 10.81
1/13/2023 8:45:00 PM 7.16 44.888 0.398 7.39 15.74 10.78
1/13/2023 9:00:00 PM 7.12 44.816 0.398 7.39 14.15 10.8
1/13/2023 9:15:00 PM 7.1 44.78 0.398 7.39 14.54 10.77
1/13/2023 9:30:00 PM 7.07 44.726 0.398 7.39 15.6 10.76
1/13/2023 9:45:00 PM 7.04 44.672 0.399 7.39 13.48 10.76
1/13/2023 10:00:00 PM 7.02 44.636 0.399 7.39 14.1 10.77
1/13/2023 10:15:00 PM 7 44.6 0.4 7.39 14.28 10.77
1/13/2023 10:30:00 PM 6.96 44.528 0.4 7.39 15.72 10.75
1/13/2023 10:45:00 PM 6.92 44.456 0.4 7.38 15.09 10.78
1/13/2023 11:00:00 PM 6.88 44.384 0.4 7.38 12.18 10.79
1/13/2023 11:15:00 PM 6.85 44.33 0.401 7.38 14.88 10.8
1/13/2023 11:30:00 PM 6.81 44.258 0.401 7.39 13.65 10.8
1/13/2023 11:45:00 PM 6.79 44.222 0.401 7.39 12.89 10.8
1/14/2023 12:00:00 AM 6.77 44.186 0.402 7.39 14.66 10.82
1/14/2023 12:15:00 AM 6.75 44.15 0.402 7.39 14.56 10.82
1/14/2023 12:30:00 AM 6.73 44.114 0.402 7.39 13.54 10.82
1/14/2023 12:45:00 AM 6.71 44.078 0.402 7.39 15 10.84
1/14/2023 1:00:00 AM 6.69 44.042 0.403 7.39 13.85 10.83
1/14/2023 1:15:00 AM 6.65 43.97 0.403 7.39 14 10.84
1/14/2023 1:30:00 AM 6.63 43.934 0.403 7.39 12.16 10.87
1/14/2023 1:45:00 AM 6.59 43.862 0.404 7.39 14.59 10.87
1/14/2023 2:00:00 AM 6.58 43.844 0.404 7.39 13.54 10.88
1/14/2023 2:15:00 AM 6.57 43.826 0.404 7.39 15.19 10.89
1/14/2023 2:30:00 AM 6.54 43.772 0.404 7.39 11.91 10.9
1/14/2023 2:45:00 AM 6.51 43.718 0.404 7.4 11.86 10.91
1/14/2023 3:00:00 AM 6.47 43.646 0.404 7.39 11.85 10.9
1/14/2023 3:15:00 AM 6.44 43.592 0.404 7.39 11.71 10.92
1/14/2023 3:30:00 AM 6.42 43.556 0.405 7.39 12.47 10.95
1/14/2023 3:45:00 AM 6.41 43.538 0.405 7.41 12.04 10.93
1/14/2023 4:00:00 AM 6.39 43.502 0.405 7.4 12.87 10.96
1/14/2023 4:15:00 AM 6.37 43.466 0.405 7.4 12.19 10.96
1/14/2023 4:30:00 AM 6.34 43.412 0.405 7.4 11.02 10.98
1/14/2023 4:45:00 AM 6.32 43.376 0.405 7.41 11.78 10.99
1/14/2023 5:00:00 AM 6.29 43.322 0.405 7.41 10.54 10.98
1/14/2023 5:15:00 AM 6.28 43.304 0.405 7.4 11.18 11
1/14/2023 5:30:00 AM 6.26 43.268 0.405 7.4 12.55 11
1/14/2023 5:45:00 AM 6.25 43.25 0.406 7.4 12.73 11.02
1/14/2023 6:00:00 AM 6.23 43.214 0.406 7.4 11.47 11.02
1/14/2023 6:15:00 AM 6.22 43.196 0.406 7.41 11.4 11.02
1/14/2023 6:30:00 AM 6.2 43.16 0.406 7.4 11.31 11.04
1/14/2023 6:45:00 AM 6.18 43.124 0.406 7.41 12.56 11.04
1/14/2023 7:00:00 AM 6.17 43.106 0.406 7.41 11.92 11.05
1/14/2023 7:15:00 AM 6.16 43.088 0.406 7.4 11.19 11.06
1/14/2023 7:30:00 AM 6.14 43.052 0.407 7.41 10.06 11.06
1/14/2023 7:45:00 AM 6.13 43.034 0.407 7.41 10.71 11.05
1/14/2023 8:00:00 AM 6.13 43.034 0.407 7.41 10.17 11.08
1/14/2023 8:15:00 AM 6.13 43.034 0.407 7.41 10.32 11.09
1/14/2023 8:30:00 AM 6.11 42.998 0.407 7.42 9.18 11.13
1/14/2023 8:45:00 AM 6.08 42.944 0.407 7.41 8.89 11.17
1/14/2023 9:00:00 AM 6.06 42.908 0.408 7.42 8.19 11.23
1/14/2023 9:15:00 AM 6.05 42.89 0.408 7.43 10.73 11.26
1/14/2023 9:30:00 AM 6.04 42.872 0.408 7.43 7.36 11.33
1/14/2023 9:45:00 AM 6.03 42.854 0.408 7.43 7.98 11.38
1/14/2023 10:00:00 AM 6.04 42.872 0.408 7.43 8.35 11.4
1/14/2023 10:15:00 AM 6.03 42.854 0.408 7.43 7.97 11.44
1/14/2023 10:30:00 AM 6.03 42.854 0.409 7.43 8.09 11.48
1/14/2023 10:45:00 AM 6.04 42.872 0.409 7.43 8.67 11.54
1/14/2023 11:00:00 AM 6.05 42.89 0.409 7.44 7.21 11.62
1/14/2023 11:15:00 AM 6.07 42.926 0.41 7.44 7.82 11.67
1/14/2023 11:30:00 AM 6.07 42.926 0.409 7.44 7.7 11.69
1/14/2023 11:45:00 AM 6.08 42.944 0.41 7.45 7.46 11.72
1/14/2023 12:00:00 PM 6.1 42.98 0.41 7.45 7.58 11.79
1/14/2023 12:15:00 PM 6.11 42.998 0.41 7.47 8.33 11.87
1/14/2023 12:30:00 PM 6.14 43.052 0.41 7.47 6.79 11.94
1/14/2023 12:45:00 PM 6.16 43.088 0.411 7.48 7.94 11.98
1/14/2023 1:00:00 PM 6.18 43.124 0.411 7.48 6.4 12.02
1/14/2023 1:15:00 PM 6.21 43.178 0.411 7.48 5.81 12.1
1/14/2023 1:30:00 PM 6.22 43.196 0.411 7.49 6.83 12.14
1/14/2023 1:45:00 PM 6.24 43.232 0.411 7.5 6.03 12.17
1/14/2023 2:00:00 PM 6.26 43.268 0.411 7.49 6.41 12.2
1/14/2023 2:15:00 PM 6.29 43.322 0.411 7.49 7.79 12.25
1/14/2023 2:30:00 PM 6.32 43.376 0.411 7.5 5.87 12.26
1/14/2023 2:45:00 PM 6.34 43.412 0.412 7.5 5.83 12.27
1/14/2023 3:00:00 PM 6.37 43.466 0.412 7.51 5.54 12.28
1/14/2023 3:15:00 PM 6.4 43.52 0.412 7.51 6.37 12.26
1/14/2023 3:30:00 PM 6.42 43.556 0.412 7.51 5.27 12.26
1/14/2023 3:45:00 PM 6.44 43.592 0.412 7.51 5.76 12.21
1/14/2023 4:00:00 PM 6.46 43.628 0.412 7.51 5.72 12.16
1/14/2023 4:15:00 PM 6.47 43.646 0.412 7.51 6.62 12.11
1/14/2023 4:30:00 PM 6.48 43.664 0.412 7.5 5.2 12.04
1/14/2023 4:45:00 PM 6.48 43.664 0.412 7.5 7.78 11.99
1/14/2023 5:00:00 PM 6.48 43.664 0.412 7.49 6.38 11.92
1/14/2023 5:15:00 PM 6.48 43.664 0.413 7.49 7.22 11.86
1/14/2023 5:30:00 PM 6.48 43.664 0.413 7.49 5.98 11.79
1/14/2023 5:45:00 PM 6.47 43.646 0.413 7.48 6.03 11.72
1/14/2023 6:00:00 PM 6.47 43.646 0.413 7.47 6.22 11.68
1/14/2023 6:15:00 PM 6.47 43.646 0.413 7.48 5.17 11.64
1/14/2023 6:30:00 PM 6.45 43.61 0.413 7.47 6.44 11.58
1/14/2023 6:45:00 PM 6.43 43.574 0.413 7.46 6.19 11.55
1/14/2023 7:00:00 PM 6.41 43.538 0.414 7.47 5.77 11.5
1/14/2023 7:15:00 PM 6.4 43.52 0.414 7.46 6.46 11.45
1/14/2023 7:30:00 PM 6.37 43.466 0.414 7.46 9.07 11.43
1/14/2023 7:45:00 PM 6.34 43.412 0.415 7.46 8.31 11.41
1/14/2023 8:00:00 PM 6.31 43.358 0.415 7.46 8.15 11.38
1/14/2023 8:15:00 PM 6.27 43.286 0.415 7.46 6.91 11.35
1/14/2023 8:30:00 PM 6.25 43.25 0.415 7.46 8.67 11.33
1/14/2023 8:45:00 PM 6.23 43.214 0.416 7.47 7.11 11.31
1/14/2023 9:00:00 PM 6.22 43.196 0.416 7.46 8.94 11.29
1/14/2023 9:15:00 PM 6.18 43.124 0.416 7.45 9.25 11.25
1/14/2023 9:30:00 PM 6.15 43.07 0.416 7.45 7.76 11.26
1/14/2023 9:45:00 PM 6.11 42.998 0.417 7.44 8.84 11.25
1/14/2023 10:00:00 PM 6.07 42.926 0.417 7.44 9.77 11.24
1/14/2023 10:15:00 PM 6.01 42.818 0.418 7.43 8.02 11.25
1/14/2023 10:30:00 PM 5.95 42.71 0.418 7.44 9.46 11.27
1/14/2023 10:45:00 PM 5.9 42.62 0.418 7.43 8.42 11.24
1/14/2023 11:00:00 PM 5.85 42.53 0.418 7.45 9.21 11.25
1/14/2023 11:15:00 PM 5.8 42.44 0.418 7.44 6.76 11.27
1/14/2023 11:30:00 PM 5.77 42.386 0.418 7.44 6.84 11.28
1/14/2023 11:45:00 PM 5.74 42.332 0.419 7.44 6.92 11.3
1/15/2023 12:00:00 AM 5.72 42.296 0.419 7.44 8.36 11.29
1/15/2023 12:15:00 AM 5.71 42.278 0.419 7.43 7.3 11.3
1/15/2023 12:30:00 AM 5.69 42.242 0.419 7.44 7.36 11.31
1/15/2023 12:45:00 AM 5.68 42.224 0.42 7.44 7.72 11.31
1/15/2023 1:00:00 AM 5.67 42.206 0.419 7.44 7.55 11.32
1/15/2023 1:15:00 AM 5.65 42.17 0.42 7.43 6.62 11.32
1/15/2023 1:30:00 AM 5.65 42.17 0.42 7.43 8.18 11.3
1/15/2023 1:45:00 AM 5.66 42.188 0.42 7.43 6.97 11.35
1/15/2023 2:00:00 AM 5.66 42.188 0.421 7.43 11.06 11.32
1/15/2023 2:15:00 AM 5.65 42.17 0.421 7.42 6.85 11.32
1/15/2023 2:30:00 AM 5.64 42.152 0.421 7.42 7.33 11.34
1/15/2023 2:45:00 AM 5.64 42.152 0.421 7.42 7.58 11.33
1/15/2023 3:00:00 AM 5.63 42.134 0.421 7.43 7.46 11.35
1/15/2023 3:15:00 AM 5.63 42.134 0.422 7.42 6.9 11.34
1/15/2023 3:30:00 AM 5.62 42.116 0.422 7.42 7.2 11.37
1/15/2023 3:45:00 AM 5.59 42.062 0.422 7.43 7.1 11.36
1/15/2023 4:00:00 AM 5.55 41.99 0.422 7.43 7.31 11.37
1/15/2023 4:15:00 AM 5.52 41.936 0.422 7.43 7.13 11.37
1/15/2023 4:30:00 AM 5.51 41.918 0.422 7.43 6.29 11.4
1/15/2023 4:45:00 AM 5.52 41.936 0.422 7.43 6.98 11.38
1/15/2023 5:00:00 AM 5.53 41.954 0.422 7.44 8.64 11.39
1/15/2023 5:15:00 AM 5.52 41.936 0.423 7.45 7.61 11.4
1/15/2023 5:30:00 AM 5.51 41.918 0.423 7.45 6.52 11.39
1/15/2023 5:45:00 AM 5.5 41.9 0.423 7.45 7.58 11.38
1/15/2023 6:00:00 AM 5.5 41.9 0.423 7.46 8.42 11.4
1/15/2023 6:15:00 AM 5.48 41.864 0.423 7.49 9.48 11.37
1/15/2023 6:30:00 AM 5.48 41.864 0.423 7.48 8.91 11.4
1/15/2023 6:45:00 AM 5.48 41.864 0.423 7.48 8.19 11.39
1/15/2023 7:00:00 AM 5.48 41.864 0.424 7.49 9.27 11.39
1/15/2023 7:15:00 AM 5.47 41.846 0.423 7.51 7.44 11.41
1/15/2023 7:30:00 AM 5.46 41.828 0.424 7.5 7.73 11.4
1/15/2023 7:45:00 AM 5.45 41.81 0.424 7.51 7.38 11.43
1/15/2023 8:00:00 AM 5.43 41.774 0.424 7.52 7.82 11.45
1/15/2023 8:15:00 AM 5.43 41.774 0.423 7.51 7.05 11.48
1/15/2023 8:30:00 AM 5.42 41.756 0.423 7.51 8.47 11.53
1/15/2023 8:45:00 AM 5.42 41.756 0.424 7.53 7.27 11.58
1/15/2023 9:00:00 AM 5.42 41.756 0.424 7.54 5.8 11.66
1/15/2023 9:15:00 AM 5.43 41.774 0.424 7.54 4.51 11.75
1/15/2023 9:30:00 AM 5.47 41.846 0.424 7.55 5.3 11.84
1/15/2023 9:45:00 AM 5.51 41.918 0.424 7.56 5.63 11.94
1/15/2023 10:00:00 AM 5.57 42.026 0.424 7.54 4.58 12.02
1/15/2023 10:15:00 AM 5.63 42.134 0.424 7.51 5.12 12.11
1/15/2023 10:30:00 AM 5.71 42.278 0.424 7.51 5.22 12.2
1/15/2023 10:45:00 AM 5.79 42.422 0.424 7.5 5.42 12.26
1/15/2023 11:00:00 AM 5.87 42.566 0.424 7.51 5.3 12.33
1/15/2023 11:15:00 AM 5.96 42.728 0.424 7.52 6.37 12.41
1/15/2023 11:30:00 AM 6.06 42.908 0.424 7.53 5.57 12.46
1/15/2023 11:45:00 AM 6.16 43.088 0.424 7.53 5.4 12.52
1/15/2023 12:00:00 PM 6.26 43.268 0.425 7.53 5.06 12.57
1/15/2023 12:15:00 PM 6.36 43.448 0.424 7.53 5.54 12.64
1/15/2023 12:30:00 PM 6.47 43.646 0.424 7.54 5.2 12.69
1/15/2023 12:45:00 PM 6.58 43.844 0.425 7.55 5.88 12.71
1/15/2023 1:00:00 PM 6.68 44.024 0.425 7.56 5.66 12.75
1/15/2023 1:15:00 PM 6.78 44.204 0.424 7.56 5.13 12.8
1/15/2023 1:30:00 PM 6.87 44.366 0.424 7.56 6.42 12.82
1/15/2023 1:45:00 PM 6.95 44.51 0.425 7.57 5.74 12.83
1/15/2023 2:00:00 PM 7.04 44.672 0.425 7.57 4.99 12.82
1/15/2023 2:15:00 PM 7.12 44.816 0.425 7.58 5.58 12.81
1/15/2023 2:30:00 PM 7.19 44.942 0.425 7.57 4.93 12.79
1/15/2023 2:45:00 PM 7.26 45.068 0.425 7.57 4.47 12.78
1/15/2023 3:00:00 PM 7.32 45.176 0.425 7.58 4.46 12.75
1/15/2023 3:15:00 PM 7.38 45.284 0.425 7.58 4.81 12.7
1/15/2023 3:30:00 PM 7.43 45.374 0.425 7.57 4.19 12.63
1/15/2023 3:45:00 PM 7.46 45.428 0.425 7.57 4.13 12.56
1/15/2023 4:00:00 PM 7.51 45.518 0.425 7.57 4.56 12.47
1/15/2023 4:15:00 PM 7.55 45.59 0.425 7.56 4.07 12.38
1/15/2023 4:30:00 PM 7.58 45.644 0.425 7.56 4.21 12.27
1/15/2023 4:45:00 PM 7.61 45.698 0.425 7.57 3.78 12.14
1/15/2023 5:00:00 PM 7.62 45.716 0.425 7.55 4.26 12.02
1/15/2023 5:15:00 PM 7.63 45.734 0.425 7.54 5.32 11.91
1/15/2023 5:30:00 PM 7.63 45.734 0.425 7.55 4 11.8
1/15/2023 5:45:00 PM 7.64 45.752 0.425 7.55 4.45 11.69
1/15/2023 6:00:00 PM 7.63 45.734 0.426 7.53 4.37 11.58
1/15/2023 6:15:00 PM 7.62 45.716 0.426 7.54 4.25 11.51
1/15/2023 6:30:00 PM 7.62 45.716 0.425 7.53 5.19 11.44
1/15/2023 6:45:00 PM 7.61 45.698 0.425 7.52 4.88 11.37
1/15/2023 7:00:00 PM 7.6 45.68 0.425 7.51 5 11.3
1/15/2023 7:15:00 PM 7.58 45.644 0.425 7.5 7.51 11.25
1/15/2023 7:30:00 PM 7.55 45.59 0.426 7.5 7.61 11.19
1/15/2023 7:45:00 PM 7.53 45.554 0.426 7.49 6.71 11.14
1/15/2023 8:00:00 PM 7.49 45.482 0.426 7.49 7.49 11.1
1/15/2023 8:15:00 PM 7.46 45.428 0.426 7.49 6.77 11.05
1/15/2023 8:30:00 PM 7.41 45.338 0.426 7.48 6.07 11.03
1/15/2023 8:45:00 PM 7.36 45.248 0.426 7.49 7.16 11
1/15/2023 9:00:00 PM 7.3 45.14 0.427 7.48 7.19 11
1/15/2023 9:15:00 PM 7.24 45.032 0.427 7.49 7.14 10.98
1/15/2023 9:30:00 PM 7.18 44.924 0.427 7.47 7.83 10.95
1/15/2023 9:45:00 PM 7.11 44.798 0.428 7.46 6.46 10.97
1/15/2023 10:00:00 PM 7.03 44.654 0.428 7.46 8.23 10.96
1/15/2023 10:15:00 PM 6.96 44.528 0.428 7.46 7.64 10.97
1/15/2023 10:30:00 PM 6.88 44.384 0.428 7.46 8.74 10.97
1/15/2023 10:45:00 PM 6.81 44.258 0.429 7.46 7.84 10.97
1/15/2023 11:00:00 PM 6.74 44.132 0.429 7.46 7.56 10.99
1/15/2023 11:15:00 PM 6.67 44.006 0.429 7.46 7.13 11
1/15/2023 11:30:00 PM 6.6 43.88 0.429 7.46 8.91 11.02
1/15/2023 11:45:00 PM 6.54 43.772 0.43 7.47 7.16 11.04
1/16/2023 12:00:00 AM 6.47 43.646 0.43 7.44 8.07 11.04
1/16/2023 12:15:00 AM 6.41 43.538 0.431 7.44 7.09 11.05
1/16/2023 12:30:00 AM 6.35 43.43 0.431 7.45 6.53 11.07
1/16/2023 12:45:00 AM 6.3 43.34 0.431 7.45 8.99 11.08
1/16/2023 1:00:00 AM 6.25 43.25 0.431 7.45 8.02 11.1
1/16/2023 1:15:00 AM 6.19 43.142 0.431 7.45 6.32 11.13
1/16/2023 1:30:00 AM 6.13 43.034 0.431 7.45 7.8 11.14
1/16/2023 1:45:00 AM 6.09 42.962 0.431 7.45 7.79 11.14
1/16/2023 2:00:00 AM 6.04 42.872 0.432 7.44 6.59 11.15
1/16/2023 2:15:00 AM 6 42.8 0.432 7.45 7.93 11.17
1/16/2023 2:30:00 AM 5.96 42.728 0.432 7.44 8.56 11.19
1/16/2023 2:45:00 AM 5.92 42.656 0.432 7.44 6.13 11.21
1/16/2023 3:00:00 AM 5.88 42.584 0.432 7.45 7.77 11.21
1/16/2023 3:15:00 AM 5.84 42.512 0.432 7.44 7.09 11.23
1/16/2023 3:30:00 AM 5.8 42.44 0.432 7.45 7.63 11.24
1/16/2023 3:45:00 AM 5.77 42.386 0.433 7.45 7.63 11.25
1/16/2023 4:00:00 AM 5.74 42.332 0.433 7.46 7.43 11.25
1/16/2023 4:15:00 AM 5.71 42.278 0.433 7.44 8.33 11.27
1/16/2023 4:30:00 AM 5.67 42.206 0.433 7.45 7.45 11.29
1/16/2023 4:45:00 AM 5.64 42.152 0.433 7.45 7.83 11.29
1/16/2023 5:00:00 AM 5.61 42.098 0.433 7.45 6.28 11.3
1/16/2023 5:15:00 AM 5.58 42.044 0.434 7.44 6.46 11.31
1/16/2023 5:30:00 AM 5.56 42.008 0.433 7.45 6.01 11.32
1/16/2023 5:45:00 AM 5.53 41.954 0.434 7.45 7.08 11.34
1/16/2023 6:00:00 AM 5.52 41.936 0.434 7.45 6.12 11.35
1/16/2023 6:15:00 AM 5.5 41.9 0.434 7.46 5.88 11.35
1/16/2023 6:30:00 AM 5.47 41.846 0.434 7.47 6.68 11.36
1/16/2023 6:45:00 AM 5.46 41.828 0.434 7.46 4.95 11.37
1/16/2023 7:00:00 AM 5.44 41.792 0.434 7.45 5.79 11.38
1/16/2023 7:15:00 AM 5.43 41.774 0.434 7.44 6.44 11.37
1/16/2023 7:30:00 AM 5.41 41.738 0.435 7.45 6.05 11.4
1/16/2023 7:45:00 AM 5.4 41.72 0.435 7.45 6.84 11.4
1/16/2023 8:00:00 AM 5.39 41.702 0.435 7.44 5.33 11.43
1/16/2023 8:15:00 AM 5.38 41.684 0.435 7.45 5.43 11.47
1/16/2023 8:30:00 AM 5.38 41.684</